Provisional Data: Little Mehoopany Creek near North Mehoopany, PA


Please select a monitoring station.
Please select start date.
Please select start date.

Toggle Unit: C/F Toggle Unit: C/F
Sample Time Temperature (C) Temperature (F) Specific Conductivity (mS/cm) pH   Turbidity (NTU+) DO (mg/L)
4/13/2022 12:00:00 AM 10.02 50.036 0.091 7 5.37 10.81
4/13/2022 12:15:00 AM 9.96 49.928 0.091 6.95 5.25 10.8
4/13/2022 12:30:00 AM 9.89 49.802 0.091 6.99 5.42 10.82
4/13/2022 12:45:00 AM 9.82 49.676 0.091 7 5.05 10.88
4/13/2022 1:00:00 AM 9.75 49.55 0.091 6.98 5.96 10.87
4/13/2022 1:15:00 AM 9.69 49.442 0.091 6.95 5.62 10.87
4/13/2022 1:30:00 AM 9.6 49.28 0.091 6.95 5.62 10.86
4/13/2022 1:45:00 AM 9.57 49.226 0.091 6.97 5.39 10.89
4/13/2022 2:00:00 AM 9.51 49.118 0.091 6.99 5.68 10.94
4/13/2022 2:15:00 AM 9.46 49.028 0.091 6.98 6.02 10.95
4/13/2022 2:30:00 AM 9.39 48.902 0.091 6.97 5.67 10.98
4/13/2022 2:45:00 AM 9.36 48.848 0.091 6.99 5.61 11
4/13/2022 3:00:00 AM 9.31 48.758 0.091 6.97 5.3 11
4/13/2022 3:15:00 AM 9.27 48.686 0.091 6.98 5.7 11
4/13/2022 3:30:00 AM 9.26 48.668 0.091 6.94 5.28 10.98
4/13/2022 3:45:00 AM 9.22 48.596 0.091 6.98 5.57 11
4/13/2022 4:00:00 AM 9.21 48.578 0.091 6.95 5.2 10.99
4/13/2022 4:15:00 AM 9.21 48.578 0.091 6.96 5.25 11.02
4/13/2022 4:30:00 AM 9.21 48.578 0.091 6.96 5 11
4/13/2022 4:45:00 AM 9.21 48.578 0.091 6.97 6.08 11.04
4/13/2022 5:00:00 AM 9.22 48.596 0.091 6.99 5.25 11.02
4/13/2022 5:15:00 AM 9.23 48.614 0.091 6.96 5.32 11.01
4/13/2022 5:30:00 AM 9.23 48.614 0.091 6.99 5.32 11.01
4/13/2022 5:45:00 AM 9.24 48.632 0.091 6.98 5.59 11.05
4/13/2022 6:00:00 AM 9.24 48.632 0.091 6.98 10.26 11.01
4/13/2022 6:15:00 AM 9.24 48.632 0.092 6.96 5.12 10.99
4/13/2022 6:30:00 AM 9.26 48.668 0.091 6.93 7.49 10.98
4/13/2022 6:45:00 AM 9.28 48.704 0.091 6.98 6.63 11.01
4/13/2022 7:00:00 AM 9.29 48.722 0.092 6.94 5.35 10.95
4/13/2022 7:15:00 AM 9.31 48.758 0.091 6.97 5.95 11
4/13/2022 7:30:00 AM 9.35 48.83 0.091 6.94 5.96 10.97
4/13/2022 7:45:00 AM 9.35 48.83 0.091 6.95 5.01 10.95
4/13/2022 8:00:00 AM 9.39 48.902 0.091 6.99 5.46 11.04
4/13/2022 8:15:00 AM 9.44 48.992 0.091 6.99 4.96 11.01
4/13/2022 8:30:00 AM 9.5 49.1 0.091 7.04 5.14 11.07
4/13/2022 8:45:00 AM 9.57 49.226 0.091 7.04 5.27 11.06
4/13/2022 9:00:00 AM 9.64 49.352 0.091 7.04 5.09 11.02
4/13/2022 9:15:00 AM 9.75 49.55 0.091 7.03 5.28 11
4/13/2022 9:30:00 AM 9.88 49.784 0.091 7.01 5.36 10.94
4/13/2022 9:45:00 AM 10.06 50.108 0.091 7.03 5.08 10.9
4/13/2022 10:00:00 AM 10.26 50.468 0.091 7.03 5.17 10.87
4/13/2022 10:15:00 AM 10.48 50.864 0.091 6.97 5 10.74
4/13/2022 10:30:00 AM 10.79 51.422 0.091 7.03 5.11 10.72
4/13/2022 10:45:00 AM 11.05 51.89 0.092 7.03 5.13 10.63
4/13/2022 11:00:00 AM 11.38 52.484 0.091 7.08 4.94 10.67
4/13/2022 11:15:00 AM 11.63 52.934 0.091 7.06 5.24 10.6
4/13/2022 11:30:00 AM 11.7 53.06 0.091 7.08 5.65 10.55
4/13/2022 11:45:00 AM 11.99 53.582 0.091 7.12 5.41 10.53
4/13/2022 12:00:00 PM 12.17 53.906 0.091 7.07 5.06 10.43
4/13/2022 12:15:00 PM 12.47 54.446 0.091 7.13 5.21 10.4
4/13/2022 12:30:00 PM 12.63 54.734 0.091 7.1 5.06 10.34
4/13/2022 12:45:00 PM 12.74 54.932 0.091 7.07 5.95 10.28
4/13/2022 1:00:00 PM 13.1 55.58 0.091 7.09 4.89 10.23
4/13/2022 1:15:00 PM 13.29 55.922 0.091 7.1 5.37 10.2
4/13/2022 1:30:00 PM 13.6 56.48 0.091 7.09 5.19 10.12
4/13/2022 1:45:00 PM 13.65 56.57 0.092 7.07 5.82 10.05
4/13/2022 2:00:00 PM 13.95 57.11 0.091 7.15 5.22 10.08
4/13/2022 2:15:00 PM 14.04 57.272 0.091 7.14 5.33 10.03
4/13/2022 2:30:00 PM 13.96 57.128 0.091 7.11 5.27 9.95
4/13/2022 2:45:00 PM 13.97 57.146 0.091 7.08 5.02 9.98
4/13/2022 3:00:00 PM 13.97 57.146 0.091 7.12 4.97 10
4/13/2022 3:15:00 PM 13.82 56.876 0.091 7.09 5.27 9.92
4/13/2022 3:30:00 PM 13.79 56.822 0.091 7.08 5.18 9.91
4/13/2022 3:45:00 PM 13.7 56.66 0.091 7.1 5.51 9.94
4/13/2022 4:00:00 PM 13.61 56.498 0.091 7.09 5.07 10.02
4/13/2022 4:15:00 PM 13.56 56.408 0.091 7.06 4.92 9.98
4/13/2022 4:30:00 PM 13.59 56.462 0.091 7.11 5.41 10.06
4/13/2022 4:45:00 PM 13.52 56.336 0.091 7.09 5.32 10.04
4/13/2022 5:00:00 PM 13.53 56.354 0.091 7.11 5.08 10.06
4/13/2022 5:15:00 PM 13.5 56.3 0.091 7.12 5.28 10.06
4/13/2022 5:30:00 PM 13.41 56.138 0.092 7.05 4.83 9.94
4/13/2022 5:45:00 PM 13.38 56.084 0.092 7.08 4.86 10.02
4/13/2022 6:00:00 PM 13.34 56.012 0.092 7.04 5.03 10.01
4/13/2022 6:15:00 PM 13.28 55.904 0.092 7.04 4.8 9.98
4/13/2022 6:30:00 PM 13.24 55.832 0.092 7.06 5.15 10.01
4/13/2022 6:45:00 PM 13.14 55.652 0.092 7.02 4.87 9.98
4/13/2022 7:00:00 PM 13.05 55.49 0.092 7.02 4.89 10.01
4/13/2022 7:15:00 PM 12.96 55.328 0.093 7 4.58 9.95
4/13/2022 7:30:00 PM 12.85 55.13 0.093 6.98 5.01 9.95
4/13/2022 7:45:00 PM 12.8 55.04 0.093 6.98 6.1 9.98
4/13/2022 8:00:00 PM 12.76 54.968 0.093 7.01 5 10.04
4/13/2022 8:15:00 PM 12.65 54.77 0.093 6.98 4.81 10.02
4/13/2022 8:30:00 PM 12.6 54.68 0.093 6.99 5.06 10.06
4/13/2022 8:45:00 PM 12.5 54.5 0.093 6.99 5.27 10.05
4/13/2022 9:00:00 PM 12.49 54.482 0.093 7.02 5.39 10.1
4/13/2022 9:15:00 PM 12.41 54.338 0.093 6.99 5.19 10.1
4/13/2022 9:30:00 PM 12.34 54.212 0.093 7.01 5.17 10.08
4/13/2022 9:45:00 PM 12.29 54.122 0.093 7 4.83 10.12
4/13/2022 10:00:00 PM 12.2 53.96 0.093 6.96 4.97 10.1
4/13/2022 10:15:00 PM 12.18 53.924 0.093 6.99 6.64 10.12
4/13/2022 10:30:00 PM 12.15 53.87 0.093 6.99 5.27 10.15
4/13/2022 10:45:00 PM 12.1 53.78 0.093 6.96 5.48 10.13
4/13/2022 11:00:00 PM 12.07 53.726 0.093 6.95 5.02 10.11
4/13/2022 11:15:00 PM 12.06 53.708 0.093 6.96 5.11 10.14
4/13/2022 11:30:00 PM 12.08 53.744 0.093 7.01 5.27 10.17
4/13/2022 11:45:00 PM 12.04 53.672 0.093 7.01 5.31 10.12
4/14/2022 12:00:00 AM 12.04 53.672 0.094 7.01 5.21 10.16
4/14/2022 12:15:00 AM 12.02 53.636 0.094 6.98 5.2 10.11
4/14/2022 12:30:00 AM 11.99 53.582 0.093 6.98 5.13 10.08
4/14/2022 12:45:00 AM 12.04 53.672 0.093 7.03 4.97 10.17
4/14/2022 1:00:00 AM 12.01 53.618 0.093 6.99 4.83 10.13
4/14/2022 1:15:00 AM 12.01 53.618 0.093 6.99 4.95 10.12
4/14/2022 1:30:00 AM 12.02 53.636 0.093 7 5.08 10.14
4/14/2022 1:45:00 AM 12.02 53.636 0.093 7 5.28 10.12
4/14/2022 2:00:00 AM 11.9 53.42 0.093 6.94 4.9 9.88
4/14/2022 2:15:00 AM 12.02 53.636 0.093 6.98 4.82 10.14
4/14/2022 2:30:00 AM 12.02 53.636 0.093 6.97 5 10.11
4/14/2022 2:45:00 AM 12 53.6 0.093 6.95 4.61 10.1
4/14/2022 3:00:00 AM 12.01 53.618 0.093 6.98 4.94 10.12
4/14/2022 3:15:00 AM 12.02 53.636 0.093 7.02 5.41 10.16
4/14/2022 3:30:00 AM 11.94 53.492 0.093 6.99 5.23 10.13
4/14/2022 3:45:00 AM 11.92 53.456 0.093 6.96 5.23 10.1
4/14/2022 4:00:00 AM 11.89 53.402 0.093 6.95 5.33 10.12
4/14/2022 4:15:00 AM 11.91 53.438 0.093 6.97 5.02 10.15
4/14/2022 4:30:00 AM 11.86 53.348 0.094 6.94 4.94 10.14
4/14/2022 4:45:00 AM 11.86 53.348 0.094 6.96 4.78 10.15
4/14/2022 5:00:00 AM 11.78 53.204 0.093 6.9 4.86 10.1
4/14/2022 5:15:00 AM 11.75 53.15 0.093 6.94 4.84 10.16
4/14/2022 5:30:00 AM 11.75 53.15 0.093 6.97 4.87 10.2
4/14/2022 5:45:00 AM 11.65 52.97 0.093 6.99 5.12 10.14
4/14/2022 6:00:00 AM 11.56 52.808 0.093 6.88 5.45 10.06
4/14/2022 6:15:00 AM 11.58 52.844 0.093 6.96 5.29 10.21
4/14/2022 6:30:00 AM 11.56 52.808 0.093 6.99 5.07 10.27
4/14/2022 6:45:00 AM 11.51 52.718 0.093 6.97 5.23 10.28
4/14/2022 7:00:00 AM 11.44 52.592 0.094 6.94 4.84 10.21
4/14/2022 7:15:00 AM 11.44 52.592 0.093 6.98 5.19 10.31
4/14/2022 7:30:00 AM 11.4 52.52 0.093 6.93 4.9 10.26
4/14/2022 7:45:00 AM 11.39 52.502 0.093 6.94 5.07 10.16
4/14/2022 8:00:00 AM 11.41 52.538 0.093 6.98 5.1 10.3
4/14/2022 8:15:00 AM 11.47 52.646 0.093 6.95 4.9 10.31
4/14/2022 8:30:00 AM 11.54 52.772 0.093 7.01 4.82 10.36
4/14/2022 8:45:00 AM 11.63 52.934 0.093 7.03 4.57 10.38
4/14/2022 9:00:00 AM 11.7 53.06 0.093 7.01 4.84 10.33
4/14/2022 9:15:00 AM 11.84 53.312 0.093 7.02 5.16 10.3
4/14/2022 9:30:00 AM 11.95 53.51 0.093 7.03 4.59 10.26
4/14/2022 9:45:00 AM 12.15 53.87 0.093 7.04 5.04 10.28
4/14/2022 10:00:00 AM 12.41 54.338 0.093 7.03 5.32 10.25
4/14/2022 10:15:00 AM 12.69 54.842 0.093 7.04 4.87 10.22
4/14/2022 10:30:00 AM 12.88 55.184 0.092 7.05 4.81 10.17
4/14/2022 10:45:00 AM 13.22 55.796 0.092 7.06 5.04 10.11
4/14/2022 11:00:00 AM 13.41 56.138 0.092 7.13 4.99 10.1
4/14/2022 11:15:00 AM 13.56 56.408 0.093 7.12 4.68 10.06
4/14/2022 11:30:00 AM 13.88 56.984 0.092 7.1 4.69 9.98
4/14/2022 11:45:00 AM 14.03 57.254 0.093 7.11 5.19 9.95
4/14/2022 12:00:00 PM 14.08 57.344 0.093 7.07 4.67 9.84
4/14/2022 12:15:00 PM 14.1 57.38 0.092 7.13 4.82 9.9
4/14/2022 12:30:00 PM 13.99 57.182 0.092 7.09 4.7 9.84
4/14/2022 12:45:00 PM 14 57.2 0.092 7.08 4.77 9.81
4/14/2022 1:00:00 PM 13.89 57.002 0.092 7.05 5.16 9.8
4/14/2022 1:15:00 PM 13.87 56.966 0.093 7.08 4.57 9.86
4/14/2022 1:30:00 PM 13.76 56.768 0.092 7.06 4.89 9.86
4/14/2022 1:45:00 PM 13.74 56.732 0.092 7.06 5.52 9.86
4/14/2022 2:00:00 PM 13.74 56.732 0.093 7.08 5.06 9.88
4/14/2022 2:15:00 PM 13.64 56.552 0.092 7.08 6.06 9.92
4/14/2022 2:30:00 PM 13.67 56.606 0.092 7.08 5.01 9.92
4/14/2022 2:45:00 PM 13.67 56.606 0.092 7.07 5.4 9.92
4/14/2022 3:00:00 PM 13.57 56.426 0.092 7.07 5.18 9.89
4/14/2022 3:15:00 PM 13.53 56.354 0.092 7.1 5.45 9.93
4/14/2022 3:30:00 PM 13.45 56.21 0.091 7.08 5.38 9.99
4/14/2022 3:45:00 PM 13.37 56.066 0.092 7.08 5.06 9.97
4/14/2022 4:00:00 PM 13.26 55.868 0.092 7.05 5.11 10
4/14/2022 4:15:00 PM 13.23 55.814 0.092 7.07 4.97 10.04
4/14/2022 4:30:00 PM 13.16 55.688 0.092 7.08 5.44 10.03
4/14/2022 4:45:00 PM 13.07 55.526 0.092 7.05 5.22 10.01
4/14/2022 5:00:00 PM 13.07 55.526 0.093 7.07 5.32 10.03
4/14/2022 5:15:00 PM 13.01 55.418 0.093 7.05 5.32 10.08
4/14/2022 5:30:00 PM 12.97 55.346 0.093 7.08 5.11 10.06
4/14/2022 5:45:00 PM 12.92 55.256 0.093 7.06 5 10.12
4/14/2022 6:00:00 PM 12.87 55.166 0.093 7.05 4.72 10.1
4/14/2022 6:15:00 PM 12.84 55.112 0.093 7.06 6.21 10.05
4/14/2022 6:30:00 PM 12.78 55.004 0.093 7.04 4.72 10.05
4/14/2022 6:45:00 PM 12.66 54.788 0.093 7.02 5.34 10.06
4/14/2022 7:00:00 PM 12.61 54.698 0.093 7.03 4.89 10.08
4/14/2022 7:15:00 PM 12.56 54.608 0.093 7.04 5.38 10.1
4/14/2022 7:30:00 PM 12.46 54.428 0.093 7.04 5.15 10.09
4/14/2022 7:45:00 PM 12.37 54.266 0.093 6.99 4.68 10.11
4/14/2022 8:00:00 PM 12.31 54.158 0.094 7.01 4.7 10.12
4/14/2022 8:15:00 PM 12.18 53.924 0.094 7 4.68 10.1
4/14/2022 8:30:00 PM 12.11 53.798 0.094 7.01 5.33 10.2
4/14/2022 8:45:00 PM 11.94 53.492 0.094 6.96 5.06 10.15
4/14/2022 9:00:00 PM 11.83 53.294 0.094 6.99 4.83 10.19
4/14/2022 9:15:00 PM 11.74 53.132 0.094 7 4.79 10.28
4/14/2022 9:30:00 PM 11.57 52.826 0.094 6.98 4.69 10.19
4/14/2022 9:45:00 PM 11.49 52.682 0.094 6.97 5.76 10.3
4/14/2022 10:00:00 PM 11.37 52.466 0.094 6.97 5.08 10.3
4/14/2022 10:15:00 PM 11.26 52.268 0.094 6.97 5.05 10.29
4/14/2022 10:30:00 PM 11.17 52.106 0.094 6.97 4.67 10.37
4/14/2022 10:45:00 PM 11.06 51.908 0.094 6.98 4.88 10.37
4/14/2022 11:00:00 PM 10.99 51.782 0.095 6.97 4.88 10.42
4/14/2022 11:15:00 PM 10.89 51.602 0.094 6.96 4.96 10.47
4/14/2022 11:30:00 PM 10.77 51.386 0.095 6.99 4.9 10.41
4/14/2022 11:45:00 PM 10.7 51.26 0.095 6.95 4.89 10.41
4/15/2022 12:00:00 AM 10.62 51.116 0.095 7 4.9 10.52
4/15/2022 12:15:00 AM 10.54 50.972 0.095 6.97 4.63 10.55
4/15/2022 12:30:00 AM 10.44 50.792 0.095 6.91 5.3 10.38
4/15/2022 12:45:00 AM 10.34 50.612 0.095 6.93 4.81 10.43
4/15/2022 1:00:00 AM 10.27 50.486 0.095 6.94 4.77 10.53
4/15/2022 1:15:00 AM 10.19 50.342 0.095 6.95 5.16 10.59
4/15/2022 1:30:00 AM 10.12 50.216 0.094 6.94 4.62 10.65
4/15/2022 1:45:00 AM 10.05 50.09 0.094 6.99 4.63 10.7
4/15/2022 2:00:00 AM 9.95 49.91 0.095 6.94 4.67 10.68
4/15/2022 2:15:00 AM 9.88 49.784 0.095 6.98 4.9 10.78
4/15/2022 2:30:00 AM 9.8 49.64 0.094 6.95 4.9 10.7
4/15/2022 2:45:00 AM 9.72 49.496 0.095 6.92 5.22 10.7
4/15/2022 3:00:00 AM 9.67 49.406 0.095 6.97 4.62 10.7
4/15/2022 3:15:00 AM 9.6 49.28 0.095 6.95 4.82 10.83
4/15/2022 3:30:00 AM 9.53 49.154 0.095 6.95 4.87 10.77
4/15/2022 3:45:00 AM 9.48 49.064 0.094 6.95 4.55 10.83
4/15/2022 4:00:00 AM 9.4 48.92 0.095 6.91 4.59 10.76
4/15/2022 4:15:00 AM 9.35 48.83 0.094 6.93 4.54 10.9
4/15/2022 4:30:00 AM 9.29 48.722 0.094 6.93 4.58 10.92
4/15/2022 4:45:00 AM 9.23 48.614 0.095 6.94 4.86 10.88
4/15/2022 5:00:00 AM 9.18 48.524 0.094 6.92 4.35 10.91
4/15/2022 5:15:00 AM 9.11 48.398 0.094 6.95 4.78 10.92
4/15/2022 5:30:00 AM 9.06 48.308 0.095 6.92 4.79 10.93
4/15/2022 5:45:00 AM 9.02 48.236 0.094 6.92 4.75 10.91
4/15/2022 6:00:00 AM 8.98 48.164 0.095 6.93 4.59 10.92
4/15/2022 6:15:00 AM 8.95 48.11 0.095 6.82 5.03 10.77
4/15/2022 6:30:00 AM 8.89 48.002 0.095 6.94 5.23 10.97
4/15/2022 6:45:00 AM 8.88 47.984 0.095 6.99 5.08 11.04
4/15/2022 7:00:00 AM 8.87 47.966 0.095 6.92 4.51 10.9
4/15/2022 7:15:00 AM 8.85 47.93 0.095 6.93 4.58 11.02
4/15/2022 7:30:00 AM 8.84 47.912 0.094 6.95 4.82 11.13
4/15/2022 7:45:00 AM 8.84 47.912 0.094 6.95 4.76 11.1
4/15/2022 8:00:00 AM 8.85 47.93 0.094 6.97 4.64 11.17
4/15/2022 8:15:00 AM 8.87 47.966 0.094 6.94 4.56 11.12
4/15/2022 8:30:00 AM 8.84 47.912 0.094 7 4.38 11.18
4/15/2022 8:45:00 AM 8.88 47.984 0.094 7 4.89 11.21
4/15/2022 9:00:00 AM 8.94 48.092 0.094 7.01 4.77 11.24
4/15/2022 9:15:00 AM 9.03 48.254 0.094 6.98 4.55 11.19
4/15/2022 9:30:00 AM 9.15 48.47 0.095 6.98 4.28 11.08
4/15/2022 9:45:00 AM 9.31 48.758 0.094 6.95 4.67 11.02
4/15/2022 10:00:00 AM 9.51 49.118 0.094 6.98 4.88 10.92
4/15/2022 10:15:00 AM 9.78 49.604 0.094 7.03 4.62 11.03
4/15/2022 10:30:00 AM 10.02 50.036 0.094 7.05 4.33 10.97
4/15/2022 10:45:00 AM 10.32 50.576 0.094 7.05 4.4 10.85
4/15/2022 11:00:00 AM 10.64 51.152 0.094 7.06 4.83 10.81
4/15/2022 11:15:00 AM 10.92 51.656 0.094 7.08 4.51 10.76
4/15/2022 11:30:00 AM 11.2 52.16 0.094 7.06 4.6 10.72
4/15/2022 11:45:00 AM 11.49 52.682 0.094 7.08 4.64 10.65
4/15/2022 12:00:00 PM 11.72 53.096 0.094 7.06 4.46 10.49
4/15/2022 12:15:00 PM 12.01 53.618 0.094 7.06 4.73 10.47
4/15/2022 12:30:00 PM 12.23 54.014 0.094 7.06 4.59 10.41
4/15/2022 12:45:00 PM 12.43 54.374 0.094 7.07 4.54 10.23
4/15/2022 1:00:00 PM 12.7 54.86 0.094 7.02 4.7 10.34
4/15/2022 1:15:00 PM 12.87 55.166 0.094 7.07 6.31 10.31
4/15/2022 1:30:00 PM 13.11 55.598 0.094 7.07 4.5 10.25
4/15/2022 1:45:00 PM 13.36 56.048 0.094 7.1 4.89 10.22
4/15/2022 2:00:00 PM 13.39 56.102 0.094 7.06 4.52 10.1
4/15/2022 2:15:00 PM 13.56 56.408 0.094 7.09 8.33 10.07
4/15/2022 2:30:00 PM 13.77 56.786 0.094 7.07 4.49 10.03
4/15/2022 2:45:00 PM 13.81 56.858 0.094 7.12 4.7 10
4/15/2022 3:00:00 PM 13.92 57.056 0.094 7.13 4.83 9.88
4/15/2022 3:15:00 PM 13.66 56.588 0.094 7.04 4.59 9.89
4/15/2022 3:30:00 PM 14.05 57.29 0.094 7.11 4.9 9.97
4/15/2022 3:45:00 PM 13.88 56.984 0.094 7.02 4.31 9.94
4/15/2022 4:00:00 PM 14.03 57.254 0.094 7.04 4.49 9.97
4/15/2022 4:15:00 PM 13.83 56.894 0.094 7.09 4.7 9.84
4/15/2022 4:30:00 PM 13.89 57.002 0.094 7.1 4.42 9.98
4/15/2022 4:45:00 PM 13.92 57.056 0.094 7.07 4.49 9.91
4/15/2022 5:00:00 PM 13.8 56.84 0.094 7.15 4.56 9.94
4/15/2022 5:15:00 PM 13.66 56.588 0.094 7.04 4.63 9.93
4/15/2022 5:30:00 PM 13.47 56.246 0.094 7.05 4.48 9.93
4/15/2022 5:45:00 PM 13.43 56.174 0.095 7.06 4.58 9.99
4/15/2022 6:00:00 PM 13.34 56.012 0.094 7.07 5.34 9.96
4/15/2022 6:15:00 PM 13.17 55.706 0.095 7.06 4.8 9.97
4/15/2022 6:30:00 PM 13.06 55.508 0.095 7.07 4.68 10.02
4/15/2022 6:45:00 PM 12.93 55.274 0.095 7.07 4.25 10.03
4/15/2022 7:00:00 PM 12.83 55.094 0.095 7.06 4.41 10.03
4/15/2022 7:15:00 PM 12.7 54.86 0.096 7.07 4.3 10.08
4/15/2022 7:30:00 PM 12.54 54.572 0.095 7.05 4.58 9.96
4/15/2022 7:45:00 PM 12.43 54.374 0.096 7.02 4.77 10.01
4/15/2022 8:00:00 PM 12.3 54.14 0.096 6.98 6.17 10.01
4/15/2022 8:15:00 PM 12.2 53.96 0.096 6.99 4.68 9.98
4/15/2022 8:30:00 PM 12.11 53.798 0.096 7.01 5.15 10.12
4/15/2022 8:45:00 PM 11.98 53.564 0.096 6.99 4.92 10.03
4/15/2022 9:00:00 PM 11.84 53.312 0.096 6.96 4.73 10.07
4/15/2022 9:15:00 PM 11.73 53.114 0.096 6.94 4.72 10.08
4/15/2022 9:30:00 PM 11.7 53.06 0.097 6.99 4.94 10.23
4/15/2022 9:45:00 PM 11.57 52.826 0.096 6.99 4.67 10.18
4/15/2022 10:00:00 PM 11.51 52.718 0.096 7.02 4.63 10.18
4/15/2022 10:15:00 PM 11.43 52.574 0.096 6.96 4.86 10.23
4/15/2022 10:30:00 PM 11.36 52.448 0.096 7.02 4.59 10.29
4/15/2022 10:45:00 PM 11.24 52.232 0.096 6.96 4.49 10.24
4/15/2022 11:00:00 PM 11.22 52.196 0.097 7 4.79 10.35
4/15/2022 11:15:00 PM 11.11 51.998 0.097 6.95 4.78 10.3
4/15/2022 11:30:00 PM 11.06 51.908 0.097 6.94 4.38 10.31
4/15/2022 11:45:00 PM 10.99 51.782 0.097 6.94 5.12 10.26
4/16/2022 12:00:00 AM 10.96 51.728 0.097 7 4.76 10.23
4/16/2022 12:15:00 AM 10.92 51.656 0.097 7.01 5.54 10.34
4/16/2022 12:30:00 AM 10.86 51.548 0.097 6.98 4.66 10.37
4/16/2022 12:45:00 AM 10.81 51.458 0.097 6.96 4.6 10.42
4/16/2022 1:00:00 AM 10.77 51.386 0.097 6.98 4.61 10.42
4/16/2022 1:15:00 AM 10.72 51.296 0.097 6.94 4.27 10.36
4/16/2022 1:30:00 AM 10.73 51.314 0.097 7.04 4.79 10.5
4/16/2022 1:45:00 AM 10.64 51.152 0.097 6.99 5.46 10.38
4/16/2022 2:00:00 AM 10.65 51.17 0.097 7.03 4.21 10.51
4/16/2022 2:15:00 AM 10.62 51.116 0.097 7.02 4.5 10.49
4/16/2022 2:30:00 AM 10.57 51.026 0.097 6.97 4.92 10.47
4/16/2022 2:45:00 AM 10.56 51.008 0.097 7.01 4.45 10.52
4/16/2022 3:00:00 AM 10.49 50.882 0.097 6.96 4.63 10.48
4/16/2022 3:15:00 AM 10.5 50.9 0.098 6.95 4.72 10.43
4/16/2022 3:30:00 AM 10.5 50.9 0.097 7 4.71 10.52
4/16/2022 3:45:00 AM 10.47 50.846 0.097 7.01 4.68 10.5
4/16/2022 4:00:00 AM 10.47 50.846 0.097 7.04 5.08 10.54
4/16/2022 4:15:00 AM 10.47 50.846 0.097 7 4.34 10.54
4/16/2022 4:30:00 AM 10.44 50.792 0.097 6.99 4.49 10.49
4/16/2022 4:45:00 AM 10.43 50.774 0.097 7 4.36 10.54
4/16/2022 5:00:00 AM 10.42 50.756 0.097 6.98 4.96 10.5
4/16/2022 5:15:00 AM 10.37 50.666 0.097 6.98 5.11 10.5
4/16/2022 5:30:00 AM 10.37 50.666 0.097 7.02 4.7 10.56
4/16/2022 5:45:00 AM 10.35 50.63 0.097 7 4.66 10.55
4/16/2022 6:00:00 AM 10.34 50.612 0.097 7 4.68 10.58
4/16/2022 6:15:00 AM 10.32 50.576 0.097 7.04 4.23 10.62
4/16/2022 6:30:00 AM 10.28 50.504 0.097 7 4.82 10.58
4/16/2022 6:45:00 AM 10.28 50.504 0.097 6.99 5.25 10.58
4/16/2022 7:00:00 AM 10.28 50.504 0.097 7.02 4.8 10.63
4/16/2022 7:15:00 AM 10.27 50.486 0.097 7.01 4.45 10.63
4/16/2022 7:30:00 AM 10.25 50.45 0.097 7 4.43 10.63
4/16/2022 7:45:00 AM 10.27 50.486 0.097 7.01 4.35 10.61
4/16/2022 8:00:00 AM 10.29 50.522 0.097 7.01 4.61 10.63
4/16/2022 8:15:00 AM 10.28 50.504 0.097 7.02 4.46 10.63
4/16/2022 8:30:00 AM 10.33 50.594 0.097 7.01 4.23 10.68
4/16/2022 8:45:00 AM 10.37 50.666 0.097 7.05 4.29 10.7
4/16/2022 9:00:00 AM 10.43 50.774 0.097 7.01 4.61 10.68
4/16/2022 9:15:00 AM 10.48 50.864 0.097 7.06 4.2 10.72
4/16/2022 9:30:00 AM 10.54 50.972 0.097 7.09 4.65 10.76
4/16/2022 9:45:00 AM 10.59 51.062 0.096 7.09 4.17 10.73
4/16/2022 10:00:00 AM 10.65 51.17 0.096 7.12 4.52 10.72
4/16/2022 10:15:00 AM 10.61 51.098 0.097 6.99 4.36 10.53
4/16/2022 10:30:00 AM 10.77 51.386 0.096 7.14 4.34 10.74
4/16/2022 10:45:00 AM 10.84 51.512 0.096 7.08 4.22 10.7
4/16/2022 11:00:00 AM 10.87 51.566 0.096 7.1 4.37 10.65
4/16/2022 11:15:00 AM 10.93 51.674 0.096 7.08 4.32 10.65
4/16/2022 11:30:00 AM 10.98 51.764 0.096 7.07 4.27 10.62
4/16/2022 11:45:00 AM 11 51.8 0.096 7.06 4.59 10.55
4/16/2022 12:00:00 PM 11.02 51.836 0.096 7.08 4.5 10.59
4/16/2022 12:15:00 PM 11.09 51.962 0.101 7.1 2.36 10.62
4/16/2022 12:30:00 PM 11.17 52.106 0.096 7.08 4.24 10.59
4/16/2022 12:45:00 PM 11.23 52.214 0.096 7.14 4.73 10.6
4/16/2022 1:00:00 PM 11.23 52.214 0.096 7.11 4.37 10.56
4/16/2022 1:15:00 PM 11.36 52.448 0.096 7.12 5.51 10.57
4/16/2022 1:30:00 PM 11.26 52.268 0.097 7.05 4.24 10.45
4/16/2022 1:45:00 PM 11.35 52.43 0.096 7.12 4.75 10.5
4/16/2022 2:00:00 PM 11.3 52.34 0.096 7.12 4.42 10.54
4/16/2022 2:15:00 PM 11.21 52.178 0.095 7.1 5.63 10.51
4/16/2022 2:30:00 PM 11.12 52.016 0.095 7.06 4.48 10.49
4/16/2022 2:45:00 PM 11.03 51.854 0.095 7.02 4.35 10.52
4/16/2022 3:00:00 PM 10.9 51.62 0.095 7 4.55 10.51
4/16/2022 3:15:00 PM 10.85 51.53 0.095 7.03 5.59 10.52
4/16/2022 3:30:00 PM 10.76 51.368 0.095 7.02 4.68 10.56
4/16/2022 3:45:00 PM 10.71 51.278 0.094 7.05 4.68 10.59
4/16/2022 4:00:00 PM 10.63 51.134 0.094 7.04 4.6 10.55
4/16/2022 4:15:00 PM 10.59 51.062 0.094 7.03 4.88 10.49
4/16/2022 4:30:00 PM 10.58 51.044 0.095 7.09 5.01 10.46
4/16/2022 4:45:00 PM 10.55 50.99 0.094 7.09 5.25 10.58
4/16/2022 5:00:00 PM 10.48 50.864 0.095 6.96 5.63 10.5
4/16/2022 5:15:00 PM 10.48 50.864 0.094 6.99 4.78 10.62
4/16/2022 5:30:00 PM 10.45 50.81 0.095 6.97 5.13 10.53
4/16/2022 5:45:00 PM 10.37 50.666 0.094 6.93 5.32 10.38
4/16/2022 6:00:00 PM 10.39 50.702 0.095 7.05 5.49 10.58
4/16/2022 6:15:00 PM 10.31 50.558 0.094 6.96 5.33 10.47
4/16/2022 6:30:00 PM 10.26 50.468 0.095 6.92 4.86 10.46
4/16/2022 6:45:00 PM 10.25 50.45 0.094 7.01 5.32 10.61
4/16/2022 7:00:00 PM 10.2 50.36 0.095 7.01 5.36 10.66
4/16/2022 7:15:00 PM 10.17 50.306 0.095 7.01 5.61 10.66
4/16/2022 7:30:00 PM 10.11 50.198 0.096 7 6.35 10.62
4/16/2022 7:45:00 PM 10.02 50.036 0.096 6.94 6.19 10.59
4/16/2022 8:00:00 PM 9.96 49.928 0.096 6.95 6.97 10.55
4/16/2022 8:15:00 PM 9.92 49.856 0.096 6.93 6.78 10.48
4/16/2022 8:30:00 PM 9.88 49.784 0.096 6.95 6.18 10.59
4/16/2022 8:45:00 PM 9.83 49.694 0.096 6.89 5.83 10.66
4/16/2022 9:00:00 PM 9.77 49.586 0.095 6.95 6.11 10.48
4/16/2022 9:15:00 PM 9.73 49.514 0.095 7 6.34 10.75
4/16/2022 9:30:00 PM 9.65 49.37 0.095 6.98 6.01 10.71
4/16/2022 9:45:00 PM 9.62 49.316 0.095 7 6.01 10.77
4/16/2022 10:00:00 PM 9.57 49.226 0.095 6.94 6.57 10.71
4/16/2022 10:15:00 PM 9.54 49.172 0.095 6.94 5.66 10.78
4/16/2022 10:30:00 PM 9.48 49.064 0.096 6.88 5.68 10.29
4/16/2022 10:45:00 PM 9.45 49.01 0.095 6.99 6.34 10.73
4/16/2022 11:00:00 PM 9.43 48.974 0.095 6.97 5.81 10.82
4/16/2022 11:15:00 PM 9.38 48.884 0.095 6.9 5.67 10.7
4/16/2022 11:30:00 PM 9.34 48.812 0.095 6.95 5.17 10.82
4/16/2022 11:45:00 PM 9.33 48.794 0.095 7.02 5.55 10.87
4/17/2022 12:00:00 AM 9.29 48.722 0.095 6.97 5.22 10.81
4/17/2022 12:15:00 AM 9.25 48.65 0.095 7.01 5.78 10.77
4/17/2022 12:30:00 AM 9.22 48.596 0.095 7.02 5.84 10.89
4/17/2022 12:45:00 AM 9.19 48.542 0.095 6.99 4.9 10.86
4/17/2022 1:00:00 AM 9.17 48.506 0.095 6.98 5.6 10.88
4/17/2022 1:15:00 AM 9.16 48.488 0.095 7.02 5.26 10.94
4/17/2022 1:30:00 AM 9.15 48.47 0.095 7 5.39 10.94
4/17/2022 1:45:00 AM 9.1 48.38 0.095 7 5.18 10.95
4/17/2022 2:00:00 AM 9.06 48.308 0.095 6.98 5.01 10.9
4/17/2022 2:15:00 AM 9.01 48.218 0.095 6.98 5.09 10.95
4/17/2022 2:30:00 AM 8.97 48.146 0.095 6.98 4.64 10.96
4/17/2022 2:45:00 AM 8.93 48.074 0.094 7.03 5.17 10.99
4/17/2022 3:00:00 AM 8.9 48.02 0.094 6.98 5.14 10.88
4/17/2022 3:15:00 AM 8.86 47.948 0.094 7 5.46 11.02
4/17/2022 3:30:00 AM 8.82 47.876 0.095 6.98 5.07 10.81
4/17/2022 3:45:00 AM 8.78 47.804 0.094 6.99 4.95 11.01
4/17/2022 4:00:00 AM 8.73 47.714 0.094 7.04 4.91 11.08
4/17/2022 4:15:00 AM 8.69 47.642 0.094 6.98 5.15 10.97
4/17/2022 4:30:00 AM 8.64 47.552 0.094 7.02 4.87 11.09
4/17/2022 4:45:00 AM 8.59 47.462 0.094 7.01 4.97 11.05
4/17/2022 5:00:00 AM 8.56 47.408 0.094 7.01 4.78 11.05
4/17/2022 5:15:00 AM 8.53 47.354 0.094 6.96 4.65 11
4/17/2022 5:30:00 AM 8.51 47.318 0.094 6.99 4.94 11.07
4/17/2022 5:45:00 AM 8.47 47.246 0.094 7.02 4.61 11.17
4/17/2022 6:00:00 AM 8.44 47.192 0.094 7.02 4.65 11.17
4/17/2022 6:15:00 AM 8.4 47.12 0.094 7.03 5.16 11.19
4/17/2022 6:30:00 AM 8.39 47.102 0.095 6.97 5.75 11.13
4/17/2022 6:45:00 AM 8.35 47.03 0.094 7 5.62 11.16
4/17/2022 7:00:00 AM 8.35 47.03 0.094 6.96 4.88 11.11
4/17/2022 7:15:00 AM 8.34 47.012 0.094 6.98 5.03 11.13
4/17/2022 7:30:00 AM 8.33 46.994 0.094 7 4.72 11.16
4/17/2022 7:45:00 AM 8.32 46.976 0.094 6.99 5.21 11.23
4/17/2022 8:00:00 AM 8.32 46.976 0.094 7.03 4.65 11.31
4/17/2022 8:15:00 AM 8.33 46.994 0.094 7.02 4.82 11.32
4/17/2022 8:30:00 AM 8.35 47.03 0.094 7.02 4.5 11.32
4/17/2022 8:45:00 AM 8.37 47.066 0.093 7.03 5 11.29
4/17/2022 9:00:00 AM 8.36 47.048 0.094 7 4.58 11.31
4/17/2022 9:15:00 AM 8.37 47.066 0.094 7.02 4.56 11.18
4/17/2022 9:30:00 AM 8.39 47.102 0.093 6.97 4.53 11.35
4/17/2022 9:45:00 AM 8.4 47.12 0.094 6.98 4.65 11.14
4/17/2022 10:00:00 AM 8.44 47.192 0.093 7.09 4.62 11.43
4/17/2022 10:15:00 AM 8.51 47.318 0.093 7.08 4.71 11.43
4/17/2022 10:30:00 AM 8.54 47.372 0.093 7.01 4.54 11.29
4/17/2022 10:45:00 AM 8.65 47.57 0.093 7.06 4.5 11.37
4/17/2022 11:00:00 AM 8.7 47.66 0.093 7.08 4.67 11.37
4/17/2022 11:15:00 AM 8.76 47.768 0.093 7.04 4.57 11.32
4/17/2022 11:30:00 AM 8.91 48.038 0.093 6.94 4.53 10.99
4/17/2022 11:45:00 AM 8.96 48.128 0.093 7.09 4.63 11.29
4/17/2022 12:00:00 PM 9.04 48.272 0.093 7.07 4.63 11.29
4/17/2022 12:15:00 PM 9.26 48.668 0.093 7.12 4.47 11.28
4/17/2022 12:30:00 PM 9.21 48.578 0.093 7.09 4.86 11.23
4/17/2022 12:45:00 PM 9.24 48.632 0.093 7.08 4.85 11.17
4/17/2022 1:00:00 PM 9.41 48.938 0.093 7.08 7.96 11.19
4/17/2022 1:15:00 PM 9.39 48.902 0.093 7.04 4.57 11.15
4/17/2022 1:30:00 PM 9.42 48.956 0.093 7.11 5.01 11.12
4/17/2022 1:45:00 PM 9.62 49.316 0.093 7.12 5.06 11.18
4/17/2022 2:00:00 PM 9.89 49.802 0.093 7.04 4.62 11.02
4/17/2022 2:15:00 PM 10.01 50.018 0.093 7.07 4.7 11.05
4/17/2022 2:30:00 PM 10.21 50.378 0.093 7.09 4.59 10.94
4/17/2022 2:45:00 PM 10.37 50.666 0.093 7.09 4.53 10.91
4/17/2022 3:00:00 PM 10.56 51.008 0.093 7.1 4.41 10.84
4/17/2022 3:15:00 PM 10.59 51.062 0.093 7.11 4.73 10.86
4/17/2022 3:30:00 PM 10.7 51.26 0.093 7.13 4.52 10.87
4/17/2022 3:45:00 PM 10.7 51.26 0.093 7.07 4.69 10.82
4/17/2022 4:00:00 PM 10.7 51.26 0.093 7.02 4.94 10.73
4/17/2022 4:15:00 PM 10.63 51.134 0.093 7.09 4.72 10.77
4/17/2022 4:30:00 PM 10.81 51.458 0.093 7.11 4.33 10.82
4/17/2022 4:45:00 PM 10.67 51.206 0.093 7.13 5.96 10.74
4/17/2022 5:00:00 PM 10.62 51.116 0.093 7.1 4.71 10.82
4/17/2022 5:15:00 PM 10.54 50.972 0.093 7.08 4.81 10.78
4/17/2022 5:30:00 PM 10.53 50.954 0.093 7.1 4.92 10.81
4/17/2022 5:45:00 PM 10.42 50.756 0.093 7.09 5.1 10.82
4/17/2022 6:00:00 PM 10.28 50.504 0.093 7.12 4.7 10.83
4/17/2022 6:15:00 PM 10.17 50.306 0.093 7.11 5.25 10.82
4/17/2022 6:30:00 PM 10.06 50.108 0.093 7.07 4.88 10.76
4/17/2022 6:45:00 PM 9.96 49.928 0.094 7 4.81 10.78
4/17/2022 7:00:00 PM 9.84 49.712 0.099 7.04 2.57 10.84
4/17/2022 7:15:00 PM 9.68 49.424 0.094 7.03 4.98 10.83
4/17/2022 7:30:00 PM 9.56 49.208 0.094 7.04 4.47 10.92
4/17/2022 7:45:00 PM 9.44 48.992 0.094 7.04 4.64 10.94
4/17/2022 8:00:00 PM 9.31 48.758 0.094 7.02 4.71 10.93
4/17/2022 8:15:00 PM 9.21 48.578 0.094 7.05 4.53 11
4/17/2022 8:30:00 PM 9.07 48.326 0.094 7 4.7 10.98
4/17/2022 8:45:00 PM 8.98 48.164 0.095 6.98 5.06 11.02
4/17/2022 9:00:00 PM 8.87 47.966 0.095 6.89 4.87 10.75
4/17/2022 9:15:00 PM 8.77 47.786 0.095 6.97 4.27 10.88
4/17/2022 9:30:00 PM 8.67 47.606 0.095 6.94 4.65 11.06
4/17/2022 9:45:00 PM 8.55 47.39 0.095 6.97 4.7 11.1
4/17/2022 10:00:00 PM 8.46 47.228 0.095 7.02 4.53 11.17
4/17/2022 10:15:00 PM 8.36 47.048 0.095 6.99 4.66 11.16
4/17/2022 10:30:00 PM 8.29 46.922 0.095 6.95 5.19 11.17
4/17/2022 10:45:00 PM 8.21 46.778 0.095 6.99 4.57 11.04
4/17/2022 11:00:00 PM 8.13 46.634 0.096 6.95 4.39 11.12
4/17/2022 11:15:00 PM 8.08 46.544 0.096 6.89 4.49 11.14
4/17/2022 11:30:00 PM 7.96 46.328 0.095 6.93 4.3 11.33
4/17/2022 11:45:00 PM 7.88 46.184 0.096 6.94 4.25 11.18
4/18/2022 12:00:00 AM 7.82 46.076 0.095 6.94 4.49 11.31
4/18/2022 12:15:00 AM 7.75 45.95 0.096 6.93 4.21 11.26
4/18/2022 12:30:00 AM 7.68 45.824 0.096 6.93 4.1 11.29
4/18/2022 12:45:00 AM 7.58 45.644 0.096 6.93 4.2 11.5
4/18/2022 1:00:00 AM 7.54 45.572 0.096 6.82 5.13 11.47
4/18/2022 1:15:00 AM 7.46 45.428 0.096 6.91 4.14 11.44
4/18/2022 1:30:00 AM 7.41 45.338 0.096 6.87 4.17 11.48
4/18/2022 1:45:00 AM 7.31 45.158 0.096 6.95 4.2 11.54
4/18/2022 2:00:00 AM 7.31 45.158 0.096 6.86 4.35 11.39
4/18/2022 2:15:00 AM 7.23 45.014 0.096 6.92 4.27 11.51
4/18/2022 2:30:00 AM 7.18 44.924 0.096 6.92 4.36 11.59
4/18/2022 2:45:00 AM 7.11 44.798 0.096 6.95 4.02 11.63
4/18/2022 3:00:00 AM 7.1 44.78 0.096 6.86 4.46 11.47
4/18/2022 3:15:00 AM 6.99 44.582 0.096 6.95 4.12 11.62
4/18/2022 3:30:00 AM 6.94 44.492 0.096 6.93 4.25 11.62
4/18/2022 3:45:00 AM 6.92 44.456 0.095 6.93 4.4 11.63
4/18/2022 4:00:00 AM 6.9 44.42 0.096 6.92 4.14 11.61
4/18/2022 4:15:00 AM 6.81 44.258 0.095 6.94 4.06 11.72
4/18/2022 4:30:00 AM 6.84 44.312 0.096 6.9 4.29 11.54
4/18/2022 4:45:00 AM 6.75 44.15 0.096 6.9 4.76 11.67
4/18/2022 5:00:00 AM 6.67 44.006 0.096 6.96 4.35 11.77
4/18/2022 5:15:00 AM 6.63 43.934 0.095 6.96 4.21 11.77
4/18/2022 5:30:00 AM 6.59 43.862 0.096 6.94 5.24 11.7
4/18/2022 5:45:00 AM 6.53 43.754 0.095 7 5.16 11.86
4/18/2022 6:00:00 AM 6.54 43.772 0.095 6.93 4.35 11.73
4/18/2022 6:15:00 AM 6.49 43.682 0.095 6.91 4.13 11.77
4/18/2022 6:30:00 AM 6.4 43.52 0.096 6.93 4.54 11.82
4/18/2022 6:45:00 AM 6.36 43.448 0.096 6.97 4.33 11.88
4/18/2022 7:00:00 AM 6.33 43.394 0.096 7 4.48 11.94
4/18/2022 7:15:00 AM 6.35 43.43 0.095 6.96 4.48 11.78
4/18/2022 7:30:00 AM 6.38 43.484 0.095 6.93 4.37 11.71
4/18/2022 7:45:00 AM 6.35 43.43 0.095 7.02 4.49 11.97
4/18/2022 8:00:00 AM 6.39 43.502 0.095 7.05 4.32 12
4/18/2022 8:15:00 AM 6.47 43.646 0.096 7.02 3.98 11.79
4/18/2022 8:30:00 AM 6.57 43.826 0.096 7.05 4.32 11.85
4/18/2022 8:45:00 AM 6.61 43.898 0.095 7.07 4.42 11.93
4/18/2022 9:00:00 AM 6.68 44.024 0.095 7.07 3.96 11.96
4/18/2022 9:15:00 AM 6.81 44.258 0.095 7.09 4.25 11.96
4/18/2022 9:30:00 AM 6.95 44.51 0.095 7.1 4.28 11.93
4/18/2022 9:45:00 AM 7.1 44.78 0.095 7.06 4.08 11.85
4/18/2022 10:00:00 AM 7.31 45.158 0.095 6.98 4.27 11.79
4/18/2022 10:15:00 AM 7.54 45.572 0.095 6.99 3.93 11.6
4/18/2022 10:30:00 AM 7.66 45.788 0.095 7.12 4.17 11.76
4/18/2022 10:45:00 AM 7.84 46.112 0.095 7.16 4.53 11.7
4/18/2022 11:00:00 AM 8.07 46.526 0.095 7.01 4.02 11.38
4/18/2022 11:15:00 AM 8.23 46.814 0.095 7.06 4.32 11.52
4/18/2022 11:30:00 AM 8.37 47.066 0.095 7.16 4.1 11.54
4/18/2022 11:45:00 AM 8.47 47.246 0.095 7.11 4.17 11.41
4/18/2022 12:00:00 PM 8.59 47.462 0.094 7.17 4.19 11.47
4/18/2022 12:15:00 PM 8.69 47.642 0.095 7.16 3.94 11.4
4/18/2022 12:30:00 PM 8.77 47.786 0.095 7.08 4.24 11.32
4/18/2022 12:45:00 PM 8.84 47.912 0.095 7.09 4.47 11.32
4/18/2022 1:00:00 PM 8.91 48.038 0.094 7.15 4.15 11.36
4/18/2022 1:15:00 PM 8.94 48.092 0.094 7.13 4.04 11.29
4/18/2022 1:30:00 PM 8.97 48.146 0.095 7.12 3.94 11.27
4/18/2022 1:45:00 PM 8.99 48.182 0.094 7.16 4.19 11.3
4/18/2022 2:00:00 PM 8.99 48.182 0.095 7.02 4.16 11.15
4/18/2022 2:15:00 PM 9 48.2 0.094 7.17 4.08 11.28
4/18/2022 2:30:00 PM 9 48.2 0.095 7.18 4.22 11.28
4/18/2022 2:45:00 PM 8.98 48.164 0.099 7.15 2.54 11.26
4/18/2022 3:00:00 PM 8.95 48.11 0.094 7.1 4.15 11.23
4/18/2022 3:15:00 PM 8.93 48.074 0.094 7.12 4.42 11.24
4/18/2022 3:30:00 PM 8.92 48.056 0.094 7.14 4.19 11.26
4/18/2022 3:45:00 PM 8.91 48.038 0.094 7.16 4.45 11.25
4/18/2022 4:00:00 PM 8.85 47.93 0.094 7.11 4.34 11.22
4/18/2022 4:15:00 PM 8.79 47.822 0.095 7.16 6.93 11.22
4/18/2022 4:30:00 PM 8.72 47.696 0.095 7.07 4.44 11.21
4/18/2022 4:45:00 PM 8.68 47.624 0.095 7.13 4.77 11.22
4/18/2022 5:00:00 PM 8.61 47.498 0.095 7.12 4.33 11.23
4/18/2022 5:15:00 PM 8.54 47.372 0.095 7.1 3.55 11.22
4/18/2022 5:30:00 PM 8.45 47.21 0.095 7.09 4.39 11.2
4/18/2022 5:45:00 PM 8.33 46.994 0.094 7.12 4.35 11.29
4/18/2022 6:00:00 PM 8.26 46.868 0.095 7.1 4.22 11.21
4/18/2022 6:15:00 PM 8.19 46.742 0.094 7.12 4.13 11.31
4/18/2022 6:30:00 PM 8.06 46.508 0.094 7.1 4.48 11.26
4/18/2022 6:45:00 PM 8 46.4 0.094 7.08 4.15 11.31
4/18/2022 7:00:00 PM 7.91 46.238 0.094 7.1 4.34 11.35
4/18/2022 7:15:00 PM 7.8 46.04 0.094 7.09 4.46 11.34
4/18/2022 7:30:00 PM 7.71 45.878 0.094 7.04 4.4 11.35
4/18/2022 7:45:00 PM 7.63 45.734 0.094 7.05 4.22 11.36
4/18/2022 8:00:00 PM 7.54 45.572 0.094 7.08 4.39 11.43
4/18/2022 8:15:00 PM 7.49 45.482 0.095 7.02 4.67 11.39
4/18/2022 8:30:00 PM 7.4 45.32 0.095 7.05 4.98 11.4
4/18/2022 8:45:00 PM 7.34 45.212 0.096 7.06 4.56 11.45
4/18/2022 9:00:00 PM 7.29 45.122 0.096 7.05 5.14 11.44
4/18/2022 9:15:00 PM 7.23 45.014 0.096 7.04 5.33 11.49
4/18/2022 9:30:00 PM 7.17 44.906 0.096 7.04 5.12 11.48
4/18/2022 9:45:00 PM 7.06 44.708 0.096 7.09 5.28 11.56
4/18/2022 10:00:00 PM 6.92 44.456 0.097 7.07 5 11.56
4/18/2022 10:15:00 PM 6.74 44.132 0.099 6.99 5.29 11.52
4/18/2022 10:30:00 PM 6.54 43.772 0.1 7.06 4.81 11.66
4/18/2022 10:45:00 PM 6.35 43.43 0.1 7.05 5.02 11.71
4/18/2022 11:00:00 PM 6.19 43.142 0.1 7.06 4.86 11.77
4/18/2022 11:15:00 PM 6.03 42.854 0.1 6.99 4.71 11.75
4/18/2022 11:30:00 PM 5.81 42.458 0.099 7.01 5 11.83
4/18/2022 11:45:00 PM 5.57 42.026 0.098 6.92 4.97 11.87
4/19/2022 12:00:00 AM 5.14 41.252 0.097 6.89 4.69 11.94
4/19/2022 12:15:00 AM 4.79 40.622 0.097 6.88 4.64 12.11
4/19/2022 12:30:00 AM 4.31 39.758 0.096 6.83 5.07 12.14
4/19/2022 12:45:00 AM 3.8 38.84 0.095 6.83 5.02 12.34
4/19/2022 1:00:00 AM 3.43 38.174 0.094 6.84 4.84 12.53
4/19/2022 1:15:00 AM 3.17 37.706 0.094 6.84 5.09 12.66
4/19/2022 1:30:00 AM 3.07 37.526 0.094 6.79 5.3 12.68
4/19/2022 1:45:00 AM 3.04 37.472 0.094 6.84 4.88 12.75
4/19/2022 2:00:00 AM 2.94 37.292 0.093 6.86 5.27 12.81
4/19/2022 2:15:00 AM 2.99 37.382 0.093 6.89 5.33 12.8
4/19/2022 2:30:00 AM 3.13 37.634 0.093 6.93 5.89 12.76
4/19/2022 2:45:00 AM 3.09 37.562 0.093 6.96 5.56 12.78
4/19/2022 3:00:00 AM 3.14 37.652 0.092 6.99 5.67 12.76
4/19/2022 3:15:00 AM 3.22 37.796 0.092 7 5.7 12.72
4/19/2022 3:30:00 AM 3.28 37.904 0.091 7.01 5.91 12.7
4/19/2022 3:45:00 AM 3.37 38.066 0.091 7.01 6.01 12.65
4/19/2022 4:00:00 AM 3.46 38.228 0.09 7.01 5.56 12.63
4/19/2022 4:15:00 AM 3.6 38.48 0.091 7 5.59 12.56
4/19/2022 4:30:00 AM 3.66 38.588 0.09 7.04 6.06 12.56
4/19/2022 4:45:00 AM 3.8 38.84 0.091 7.04 5.84 12.51
4/19/2022 5:00:00 AM 3.95 39.11 0.091 7.04 6.03 12.45
4/19/2022 5:15:00 AM 4.1 39.38 0.091 7.06 5.81 12.43
4/19/2022 5:30:00 AM 4.29 39.722 0.091 7.05 5.74 12.34
4/19/2022 5:45:00 AM 4.48 40.064 0.091 7.04 5.6 12.28
4/19/2022 6:00:00 AM 4.58 40.244 0.091 7.06 6.16 12.26
4/19/2022 6:15:00 AM 4.68 40.424 0.091 7.08 6.69 12.23
4/19/2022 6:30:00 AM 4.74 40.532 0.091 7.07 5.95 12.18
4/19/2022 6:45:00 AM 4.84 40.712 0.091 7.06 5.99 12.14
4/19/2022 7:00:00 AM 4.9 40.82 0.091 7.07 5.83 12.14
4/19/2022 7:15:00 AM 4.92 40.856 0.09 7.08 6.61 12.16
4/19/2022 7:30:00 AM 5.05 41.09 0.09 7.09 7.51 12.15
4/19/2022 7:45:00 AM 5.15 41.27 0.091 7.12 6.3 12.14
4/19/2022 8:00:00 AM 5.24 41.432 0.09 7.12 6.1 12.12
4/19/2022 8:15:00 AM 5.34 41.612 0.091 7.12 6.02 12.11
4/19/2022 8:30:00 AM 5.44 41.792 0.091 7.13 6.33 12.08
4/19/2022 8:45:00 AM 5.54 41.972 0.091 7.13 6.62 12.07
4/19/2022 9:00:00 AM 5.62 42.116 0.092 7.13 6.29 12.05
4/19/2022 9:15:00 AM 5.73 42.314 0.092 7.14 6.97 12.03
4/19/2022 9:30:00 AM 5.83 42.494 0.092 7.14 6.05 12.02
4/19/2022 9:45:00 AM 6.03 42.854 0.093 7.13 6.49 11.97
4/19/2022 10:00:00 AM 6.1 42.98 0.093 7.12 6.32 11.95
4/19/2022 10:15:00 AM 6.18 43.124 0.094 7.17 7.2 11.93
4/19/2022 10:30:00 AM 6.25 43.25 0.094 7.15 7.46 11.89
4/19/2022 10:45:00 AM 6.41 43.538 0.095 7.14 7.43 11.85
4/19/2022 11:00:00 AM 6.5 43.7 0.096 7.13 6.6 11.81
4/19/2022 11:15:00 AM 6.67 44.006 0.097 7.12 6.94 11.77
4/19/2022 11:30:00 AM 6.78 44.204 0.097 7.15 6.44 11.76
4/19/2022 11:45:00 AM 6.88 44.384 0.098 7.16 6.46 11.75
4/19/2022 12:00:00 PM 6.98 44.564 0.098 7.16 6.97 11.71
4/19/2022 12:15:00 PM 7.08 44.744 0.098 7.15 6.58 11.66
4/19/2022 12:30:00 PM 7.31 45.158 0.099 7.18 6.64 11.66
4/19/2022 12:45:00 PM 7.57 45.626 0.1 7.16 7.05 11.58
4/19/2022 1:00:00 PM 7.69 45.842 0.1 7.17 7.34 11.53
4/19/2022 1:15:00 PM 7.67 45.806 0.1 7.18 7.25 11.5
4/19/2022 1:30:00 PM 7.73 45.914 0.1 7.17 7.73 11.48
4/19/2022 1:45:00 PM 7.8 46.04 0.1 7.19 7.57 11.48
4/19/2022 2:00:00 PM 7.87 46.166 0.099 7.18 7.24 11.5
4/19/2022 2:15:00 PM 7.98 46.364 0.099 7.17 7.95 11.46
4/19/2022 2:30:00 PM 8.04 46.472 0.098 7.19 8.33 11.47
4/19/2022 2:45:00 PM 8.18 46.724 0.098 7.21 8.94 11.44
4/19/2022 3:00:00 PM 8.33 46.994 0.097 7.16 8.74 11.37
4/19/2022 3:15:00 PM 8.38 47.084 0.097 7.17 8.94 11.38
4/19/2022 3:30:00 PM 8.37 47.066 0.097 7.18 9.5 11.35
4/19/2022 3:45:00 PM 8.36 47.048 0.096 7.19 9.76 11.37
4/19/2022 4:00:00 PM 8.3 46.94 0.095 7.16 9.59 11.35
4/19/2022 4:15:00 PM 8.24 46.832 0.095 7.18 10.11 11.38
4/19/2022 4:30:00 PM 8.17 46.706 0.095 7.19 10.25 11.42
4/19/2022 4:45:00 PM 8.06 46.508 0.094 7.16 11.53 11.42
4/19/2022 5:00:00 PM 8.01 46.418 0.094 7.17 10.7 11.45
4/19/2022 5:15:00 PM 7.93 46.274 0.093 7.18 11.06 11.46
4/19/2022 5:30:00 PM 7.87 46.166 0.093 7.15 12.01 11.48
4/19/2022 5:45:00 PM 7.78 46.004 0.093 7.16 12.85 11.48
4/19/2022 6:00:00 PM 7.67 45.806 0.092 7.14 12.28 11.52
4/19/2022 6:15:00 PM 7.57 45.626 0.092 7.15 12.75 11.54
4/19/2022 6:30:00 PM 7.45 45.41 0.093 7.15 11.62 11.58
4/19/2022 6:45:00 PM 7.34 45.212 0.092 7.13 11.83 11.58
4/19/2022 7:00:00 PM 7.25 45.05 0.092 7.12 12.2 11.61
4/19/2022 7:15:00 PM 7.16 44.888 0.092 7.12 13.02 11.64
4/19/2022 7:30:00 PM 7.07 44.726 0.092 7.12 11.75 11.66
4/19/2022 7:45:00 PM 7.01 44.618 0.092 7.11 10.6 11.66
4/19/2022 8:00:00 PM 6.95 44.51 0.091 7.1 11.43 11.68
4/19/2022 8:15:00 PM 6.87 44.366 0.091 7.09 11.58 11.7
4/19/2022 8:30:00 PM 6.83 44.294 0.091 7.08 10.56 11.7
4/19/2022 8:45:00 PM 6.8 44.24 0.092 7.08 10.04 11.7
4/19/2022 9:00:00 PM 6.76 44.168 0.091 7.08 10.47 11.73
4/19/2022 9:15:00 PM 6.73 44.114 0.091 7.09 9.43 11.75
4/19/2022 9:30:00 PM 6.7 44.06 0.091 7.08 10.32 11.76
4/19/2022 9:45:00 PM 6.66 43.988 0.091 7.09 9.65 11.79
4/19/2022 10:00:00 PM 6.66 43.988 0.091 7.08 8.69 11.78
4/19/2022 10:15:00 PM 6.64 43.952 0.091 7.07 9.18 11.77
4/19/2022 10:30:00 PM 6.61 43.898 0.091 7.09 8.29 11.81
4/19/2022 10:45:00 PM 6.61 43.898 0.091 7.08 9.12 11.81
4/19/2022 11:00:00 PM 6.58 43.844 0.091 7.09 9.04 11.82
4/19/2022 11:15:00 PM 6.58 43.844 0.091 7.07 8.56 11.81
4/19/2022 11:30:00 PM 6.58 43.844 0.091 7.07 7.8 11.82
4/19/2022 11:45:00 PM 6.57 43.826 0.091 7.06 8.98 11.81
4/20/2022 12:00:00 AM 6.58 43.844 0.091 7.06 8.86 11.81
4/20/2022 12:15:00 AM 6.55 43.79 0.091 7.07 7.85 11.83
4/20/2022 12:30:00 AM 6.54 43.772 0.091 7.08 7.75 11.85
4/20/2022 12:45:00 AM 6.54 43.772 0.091 7.07 7.52 11.84
4/20/2022 1:00:00 AM 6.52 43.736 0.09 7.07 8.38 11.85
4/20/2022 1:15:00 AM 6.52 43.736 0.09 7.07 7.54 11.85
4/20/2022 1:30:00 AM 6.52 43.736 0.09 7.07 7.61 11.86
4/20/2022 1:45:00 AM 6.5 43.7 0.09 7.07 7.46 11.87
4/20/2022 2:00:00 AM 6.5 43.7 0.09 7.06 7.16 11.86
4/20/2022 2:15:00 AM 6.51 43.718 0.09 7.07 7.94 11.86
4/20/2022 2:30:00 AM 6.49 43.682 0.09 7.07 8.26 11.88
4/20/2022 2:45:00 AM 6.49 43.682 0.09 7.08 6.9 11.9
4/20/2022 3:00:00 AM 6.48 43.664 0.09 7.08 7.29 11.89
4/20/2022 3:15:00 AM 6.49 43.682 0.09 7.06 7.55 11.88
4/20/2022 3:30:00 AM 6.48 43.664 0.09 7.07 7.41 11.9
4/20/2022 3:45:00 AM 6.47 43.646 0.091 7.08 6.54 11.9
4/20/2022 4:00:00 AM 6.47 43.646 0.09 7.06 6.8 11.9
4/20/2022 4:15:00 AM 6.46 43.628 0.09 7.08 7.2 11.91
4/20/2022 4:30:00 AM 6.45 43.61 0.09 7.07 6.63 11.92
4/20/2022 4:45:00 AM 6.44 43.592 0.09 7.08 6.65 11.92
4/20/2022 5:00:00 AM 6.42 43.556 0.09 7.07 6.86 11.93
4/20/2022 5:15:00 AM 6.43 43.574 0.09 7.07 6.77 11.93
4/20/2022 5:30:00 AM 6.44 43.592 0.095 7.06 4.44 11.91
4/20/2022 5:45:00 AM 6.43 43.574 0.09 7.07 7.58 11.94
4/20/2022 6:00:00 AM 6.45 43.61 0.09 7.06 6.57 11.93
4/20/2022 6:15:00 AM 6.44 43.592 0.091 7.07 6.11 11.95
4/20/2022 6:30:00 AM 6.43 43.574 0.09 7.08 6.65 11.96
4/20/2022 6:45:00 AM 6.44 43.592 0.09 7.07 6.5 11.96
4/20/2022 7:00:00 AM 6.42 43.556 0.09 7.09 6.95 11.99
4/20/2022 7:15:00 AM 6.42 43.556 0.09 7.09 6.96 12
4/20/2022 7:30:00 AM 6.41 43.538 0.091 7.09 6.57 12.01
4/20/2022 7:45:00 AM 6.41 43.538 0.09 7.09 6.41 12.02
4/20/2022 8:00:00 AM 6.42 43.556 0.091 7.11 6.42 12.05
4/20/2022 8:15:00 AM 6.44 43.592 0.09 7.11 6.6 12.04
4/20/2022 8:30:00 AM 6.46 43.628 0.09 7.12 6.41 12.06
4/20/2022 8:45:00 AM 6.52 43.736 0.09 7.13 6.22 12.07
4/20/2022 9:00:00 AM 6.56 43.808 0.09 7.12 5.98 12.04
4/20/2022 9:15:00 AM 6.67 44.006 0.09 7.13 6.48 12.04
4/20/2022 9:30:00 AM 6.78 44.204 0.09 7.14 5.94 12.02
4/20/2022 9:45:00 AM 6.9 44.42 0.09 7.15 6.25 11.99
4/20/2022 10:00:00 AM 7.05 44.69 0.09 7.12 6.2 11.93
4/20/2022 10:15:00 AM 7.23 45.014 0.09 7.15 6.32 11.91
4/20/2022 10:30:00 AM 7.4 45.32 0.09 7.15 6.39 11.86
4/20/2022 10:45:00 AM 7.59 45.662 0.09 7.14 6.12 11.8
4/20/2022 11:00:00 AM 7.76 45.968 0.09 7.16 6.28 11.78
4/20/2022 11:15:00 AM 7.96 46.328 0.09 7.17 6.33 11.74
4/20/2022 11:30:00 AM 8.15 46.67 0.09 7.17 6.79 11.69
4/20/2022 11:45:00 AM 8.33 46.994 0.089 7.17 6.5 11.65
4/20/2022 12:00:00 PM 8.5 47.3 0.09 7.16 6.5 11.59
4/20/2022 12:15:00 PM 8.62 47.516 0.089 7.16 6.55 11.56
4/20/2022 12:30:00 PM 8.8 47.84 0.089 7.17 7.23 11.52
4/20/2022 12:45:00 PM 8.99 48.182 0.088 7.18 8.17 11.48
4/20/2022 1:00:00 PM 9.15 48.47 0.088 7.19 11.64 11.43
4/20/2022 1:15:00 PM 9.3 48.74 0.088 7.17 9.87 11.38
4/20/2022 1:30:00 PM 9.43 48.974 0.087 7.16 10.98 11.33
4/20/2022 1:45:00 PM 9.57 49.226 0.087 7.18 11.97 11.31
4/20/2022 2:00:00 PM 9.69 49.442 0.086 7.15 13 11.25
4/20/2022 2:15:00 PM 9.82 49.676 0.086 7.15 11.74 11.23
4/20/2022 2:30:00 PM 9.91 49.838 0.085 7.15 12.1 11.21
4/20/2022 2:45:00 PM 9.97 49.946 0.084 7.17 12.51 11.2
4/20/2022 3:00:00 PM 10.02 50.036 0.083 7.15 12.88 11.17
4/20/2022 3:15:00 PM 10.04 50.072 0.083 7.15 11.68 11.17
4/20/2022 3:30:00 PM 10.02 50.036 0.081 7.16 15 11.17
4/20/2022 3:45:00 PM 9.96 49.928 0.081 7.15 14.6 11.19
4/20/2022 4:00:00 PM 9.9 49.82 0.08 7.14 30.88 11.21
4/20/2022 4:15:00 PM 9.84 49.712 0.08 7.15 13.74 11.22
4/20/2022 4:30:00 PM 9.77 49.586 0.079 7.13 13.9 11.23
4/20/2022 4:45:00 PM 9.69 49.442 0.079 7.13 17.64 11.24
4/20/2022 5:00:00 PM 9.6 49.28 0.079 7.11 16.84 11.27
4/20/2022 5:15:00 PM 9.51 49.118 0.079 7.11 15.61 11.29
4/20/2022 5:30:00 PM 9.42 48.956 0.079 7.12 14.14 11.31
4/20/2022 5:45:00 PM 9.32 48.776 0.079 7.12 14.13 11.33
4/20/2022 6:00:00 PM 9.19 48.542 0.079 7.1 13.84 11.35
4/20/2022 6:15:00 PM 9.06 48.308 0.079 7.08 13.84 11.38
4/20/2022 6:30:00 PM 8.95 48.11 0.079 7.08 12.99 11.39
4/20/2022 6:45:00 PM 8.84 47.912 0.08 7.09 12.01 11.43
4/20/2022 7:00:00 PM 8.75 47.75 0.08 7.06 13.55 11.44
4/20/2022 7:15:00 PM 8.67 47.606 0.08 7.08 13.25 11.46
4/20/2022 7:30:00 PM 8.59 47.462 0.081 7.07 12 11.47
4/20/2022 7:45:00 PM 8.52 47.336 0.081 7.06 12.22 11.48
4/20/2022 8:00:00 PM 8.45 47.21 0.081 7.06 12.22 11.49
4/20/2022 8:15:00 PM 8.39 47.102 0.082 7.07 11.16 11.51
4/20/2022 8:30:00 PM 8.36 47.048 0.082 7.06 10.31 11.51
4/20/2022 8:45:00 PM 8.34 47.012 0.082 7.03 12.58 11.52
4/20/2022 9:00:00 PM 8.32 46.976 0.083 7.05 11.96 11.52
4/20/2022 9:15:00 PM 8.31 46.958 0.082 7.06 10.19 11.53
4/20/2022 9:30:00 PM 8.29 46.922 0.083 7.06 11.95 11.55
4/20/2022 9:45:00 PM 8.27 46.886 0.083 7.06 11.48 11.54
4/20/2022 10:00:00 PM 8.24 46.832 0.083 7.04 10.62 11.55
4/20/2022 10:15:00 PM 8.21 46.778 0.083 7.04 11.29 11.57
4/20/2022 10:30:00 PM 8.18 46.724 0.083 7.06 11.63 11.58
4/20/2022 10:45:00 PM 8.15 46.67 0.084 7.06 10.96 11.58
4/20/2022 11:00:00 PM 8.12 46.616 0.084 7.05 10.21 11.58
4/20/2022 11:15:00 PM 8.1 46.58 0.084 7.05 10.68 11.6
4/20/2022 11:30:00 PM 8.07 46.526 0.084 7.05 10.39 11.61
4/20/2022 11:45:00 PM 8.05 46.49 0.084 7.06 10.35 11.6
4/21/2022 12:00:00 AM 8.02 46.436 0.084 7.05 9.18 11.61
4/21/2022 12:15:00 AM 7.98 46.364 0.084 7.04 9.62 11.62
4/21/2022 12:30:00 AM 7.95 46.31 0.084 7.03 8.84 11.62
4/21/2022 12:45:00 AM 7.91 46.238 0.089 7.06 6.65 11.64
4/21/2022 1:00:00 AM 7.87 46.166 0.084 7.07 10.38 11.66
4/21/2022 1:15:00 AM 7.84 46.112 0.084 7.05 8.8 11.66
4/21/2022 1:30:00 AM 7.82 46.076 0.085 7.06 9.12 11.68
4/21/2022 1:45:00 AM 7.81 46.058 0.085 7.05 9.22 11.68
4/21/2022 2:00:00 AM 7.82 46.076 0.085 7.05 8.56 11.67
4/21/2022 2:15:00 AM 7.82 46.076 0.085 7.06 9.11 11.68
4/21/2022 2:30:00 AM 7.82 46.076 0.085 7.05 8.21 11.67
4/21/2022 2:45:00 AM 7.81 46.058 0.085 7.07 8.85 11.66
4/21/2022 3:00:00 AM 7.79 46.022 0.085 7.06 8.23 11.68
4/21/2022 3:15:00 AM 7.78 46.004 0.085 7.05 8.52 11.66
4/21/2022 3:30:00 AM 7.76 45.968 0.085 7.07 8.22 11.67
4/21/2022 3:45:00 AM 7.75 45.95 0.085 7.06 8.66 11.69
4/21/2022 4:00:00 AM 7.75 45.95 0.085 7.06 8.58 11.69
4/21/2022 4:15:00 AM 7.73 45.914 0.086 7.07 8.15 11.69
4/21/2022 4:30:00 AM 7.71 45.878 0.086 7.06 7.91 11.68
4/21/2022 4:45:00 AM 7.71 45.878 0.086 7.07 7.86 11.69
4/21/2022 5:00:00 AM 7.71 45.878 0.086 7.06 8.25 11.68
4/21/2022 5:15:00 AM 7.71 45.878 0.086 7.06 7.91 11.68
4/21/2022 5:30:00 AM 7.72 45.896 0.086 7.08 8.02 11.69
4/21/2022 5:45:00 AM 7.73 45.914 0.086 7.07 8.2 11.69
4/21/2022 6:00:00 AM 7.73 45.914 0.086 7.07 8.38 11.68
4/21/2022 6:15:00 AM 7.73 45.914 0.086 7.07 8.22 11.69
4/21/2022 6:30:00 AM 7.73 45.914 0.086 7.08 7.85 11.68
4/21/2022 6:45:00 AM 7.74 45.932 0.086 7.08 7.75 11.69
4/21/2022 7:00:00 AM 7.75 45.95 0.086 7.06 8.2 11.68
4/21/2022 7:15:00 AM 7.76 45.968 0.086 7.07 8.41 11.71
4/21/2022 7:30:00 AM 7.78 46.004 0.086 7.09 8.02 11.71
4/21/2022 7:45:00 AM 7.82 46.076 0.086 7.09 7.42 11.7
4/21/2022 8:00:00 AM 7.86 46.148 0.086 7.1 7.58 11.71
4/21/2022 8:15:00 AM 7.91 46.238 0.085 7.1 7.13 11.71
4/21/2022 8:30:00 AM 7.97 46.346 0.085 7.1 7.81 11.69
4/21/2022 8:45:00 AM 8.04 46.472 0.085 7.12 7.52 11.69
4/21/2022 9:00:00 AM 8.1 46.58 0.085 7.12 7.59 11.66
4/21/2022 9:15:00 AM 8.18 46.724 0.085 7.13 7.73 11.65
4/21/2022 9:30:00 AM 8.24 46.832 0.086 7.13 7.29 11.63
4/21/2022 9:45:00 AM 8.29 46.922 0.085 7.13 7.6 11.62
4/21/2022 10:00:00 AM 8.34 47.012 0.085 7.15 7.4 11.6
4/21/2022 10:15:00 AM 8.39 47.102 0.085 7.12 7.26 11.56
4/21/2022 10:30:00 AM 8.41 47.138 0.085 7.12 7.46 11.56
4/21/2022 10:45:00 AM 8.42 47.156 0.086 7.12 7.55 11.54
4/21/2022 11:00:00 AM 8.43 47.174 0.085 7.14 7.69 11.56
4/21/2022 11:15:00 AM 8.45 47.21 0.085 7.13 7.04 11.54
4/21/2022 11:30:00 AM 8.47 47.246 0.085 7.12 7.25 11.52
4/21/2022 11:45:00 AM 8.49 47.282 0.085 7.12 7.65 11.52
4/21/2022 12:00:00 PM 8.5 47.3 0.085 7.12 7.11 11.51
4/21/2022 12:15:00 PM 8.49 47.282 0.084 7.11 7.58 11.5
4/21/2022 12:30:00 PM 8.5 47.3 0.085 7.12 7.39 11.5
4/21/2022 12:45:00 PM 8.53 47.354 0.084 7.14 7.62 11.52
4/21/2022 1:00:00 PM 8.55 47.39 0.084 7.12 7.79 11.5
4/21/2022 1:15:00 PM 8.59 47.462 0.085 7.13 7.04 11.5
4/21/2022 1:30:00 PM 8.64 47.552 0.085 7.13 7.57 11.47
4/21/2022 1:45:00 PM 8.67 47.606 0.085 7.13 7.52 11.45
4/21/2022 2:00:00 PM 8.68 47.624 0.085 7.12 7.26 11.43
4/21/2022 2:15:00 PM 8.68 47.624 0.085 7.11 7.3 11.44
4/21/2022 2:30:00 PM 8.68 47.624 0.085 7.12 7.44 11.42
4/21/2022 2:45:00 PM 8.67 47.606 0.085 7.13 7.97 11.43
4/21/2022 3:00:00 PM 8.67 47.606 0.085 7.13 7.43 11.43
4/21/2022 3:15:00 PM 8.68 47.624 0.085 7.11 6.89 11.41
4/21/2022 3:30:00 PM 8.68 47.624 0.085 7.11 7.23 11.41
4/21/2022 3:45:00 PM 8.69 47.642 0.085 7.12 7.63 11.42
4/21/2022 4:00:00 PM 8.69 47.642 0.085 7.11 6.81 11.41
4/21/2022 4:15:00 PM 8.7 47.66 0.085 7.1 7.63 11.4
4/21/2022 4:30:00 PM 8.72 47.696 0.085 7.11 7.56 11.42
4/21/2022 4:45:00 PM 8.75 47.75 0.085 7.11 7.55 11.41
4/21/2022 5:00:00 PM 8.78 47.804 0.085 7.11 7.53 11.4
4/21/2022 5:15:00 PM 8.82 47.876 0.085 7.11 6.91 11.41
4/21/2022 5:30:00 PM 8.85 47.93 0.084 7.1 6.94 11.39
4/21/2022 5:45:00 PM 8.86 47.948 0.085 7.12 7.94 11.36
4/21/2022 6:00:00 PM 8.85 47.93 0.085 7.1 7.27 11.36
4/21/2022 6:15:00 PM 8.85 47.93 0.085 7.1 6.74 11.36
4/21/2022 6:30:00 PM 8.85 47.93 0.085 7.09 6.68 11.35
4/21/2022 6:45:00 PM 8.86 47.948 0.085 7.1 7.15 11.36
4/21/2022 7:00:00 PM 8.87 47.966 0.085 7.07 6.96 11.33
4/21/2022 7:15:00 PM 8.87 47.966 0.085 7.12 6.75 11.36
4/21/2022 7:30:00 PM 8.85 47.93 0.085 7.1 6.97 11.34
4/21/2022 7:45:00 PM 8.81 47.858 0.085 7.06 6.95 11.32
4/21/2022 8:00:00 PM 8.78 47.804 0.085 7.09 6.96 11.34
4/21/2022 8:15:00 PM 8.73 47.714 0.086 7.07 6.88 11.34
4/21/2022 8:30:00 PM 8.69 47.642 0.085 7.06 7.62 11.34
4/21/2022 8:45:00 PM 8.65 47.57 0.085 7.06 7.73 11.36
4/21/2022 9:00:00 PM 8.62 47.516 0.085 7.04 7.28 11.35
4/21/2022 9:15:00 PM 8.6 47.48 0.085 7.03 7.07 11.34
4/21/2022 9:30:00 PM 8.58 47.444 0.086 7.04 7.11 11.34
4/21/2022 9:45:00 PM 8.54 47.372 0.086 7.03 7.05 11.37
4/21/2022 10:00:00 PM 8.49 47.282 0.086 7.04 6.79 11.39
4/21/2022 10:15:00 PM 8.44 47.192 0.086 7.04 7.11 11.41
4/21/2022 10:30:00 PM 8.39 47.102 0.086 7.03 7.49 11.41
4/21/2022 10:45:00 PM 8.34 47.012 0.086 7.01 6.85 11.42
4/21/2022 11:00:00 PM 8.3 46.94 0.086 7.04 6.9 11.44
4/21/2022 11:15:00 PM 8.27 46.886 0.086 7.01 7.12 11.4
4/21/2022 11:30:00 PM 8.23 46.814 0.086 7.05 7.12 11.48
4/21/2022 11:45:00 PM 8.2 46.76 0.086 7.04 7.74 11.48
4/22/2022 12:00:00 AM 8.16 46.688 0.086 7.06 7.18 11.5
4/22/2022 12:15:00 AM 8.14 46.652 0.086 7.01 6.97 11.48
4/22/2022 12:30:00 AM 8.11 46.598 0.087 7.02 6.51 11.47
4/22/2022 12:45:00 AM 8.08 46.544 0.086 7.05 6.94 11.51
4/22/2022 1:00:00 AM 8.07 46.526 0.087 7.03 6.84 11.49
4/22/2022 1:15:00 AM 8.04 46.472 0.086 7.04 6.59 11.51
4/22/2022 1:30:00 AM 8.02 46.436 0.087 7.05 6.81 11.52
4/22/2022 1:45:00 AM 8.01 46.418 0.086 7.04 6.87 11.52
4/22/2022 2:00:00 AM 7.99 46.382 0.087 7.02 7.06 11.51
4/22/2022 2:15:00 AM 7.96 46.328 0.086 7.04 6.85 11.54
4/22/2022 2:30:00 AM 7.94 46.292 0.087 7.04 6.67 11.53
4/22/2022 2:45:00 AM 7.91 46.238 0.087 7.05 6.53 11.55
4/22/2022 3:00:00 AM 7.89 46.202 0.086 7.03 6.76 11.55
4/22/2022 3:15:00 AM 7.86 46.148 0.086 7.04 6.55 11.57
4/22/2022 3:30:00 AM 7.83 46.094 0.086 7.05 6.79 11.58
4/22/2022 3:45:00 AM 7.81 46.058 0.086 7.05 6.38 11.59
4/22/2022 4:00:00 AM 7.78 46.004 0.086 7.05 6.66 11.59
4/22/2022 4:15:00 AM 7.76 45.968 0.086 7.03 7.28 11.6
4/22/2022 4:30:00 AM 7.74 45.932 0.086 7.04 6.77 11.6
4/22/2022 4:45:00 AM 7.73 45.914 0.086 7.02 6.47 11.59
4/22/2022 5:00:00 AM 7.7 45.86 0.086 7.04 6.65 11.61
4/22/2022 5:15:00 AM 7.68 45.824 0.086 7.03 6.69 11.62
4/22/2022 5:30:00 AM 7.68 45.824 0.086 7.05 6.72 11.64
4/22/2022 5:45:00 AM 7.68 45.824 0.086 7.06 7.05 11.65
4/22/2022 6:00:00 AM 7.69 45.842 0.085 7.06 6.63 11.65
4/22/2022 6:15:00 AM 7.7 45.86 0.086 7.05 7.05 11.63
4/22/2022 6:30:00 AM 7.7 45.86 0.085 7.06 7.29 11.67
4/22/2022 6:45:00 AM 7.71 45.878 0.085 7.04 8.08 11.66
4/22/2022 7:00:00 AM 7.71 45.878 0.085 7.04 6.5 11.67
4/22/2022 7:15:00 AM 7.72 45.896 0.085 7.07 6.6 11.7
4/22/2022 7:30:00 AM 7.74 45.932 0.085 7.07 6.44 11.68
4/22/2022 7:45:00 AM 7.78 46.004 0.085 7.07 6.79 11.71
4/22/2022 8:00:00 AM 7.83 46.094 0.085 7.1 6.44 11.7
4/22/2022 8:15:00 AM 7.87 46.166 0.084 7.09 6.74 11.7
4/22/2022 8:30:00 AM 7.93 46.274 0.084 7.11 6.01 11.71
4/22/2022 8:45:00 AM 8 46.4 0.085 7.11 5.94 11.69
4/22/2022 9:00:00 AM 8.08 46.544 0.084 7.13 6.11 11.68
4/22/2022 9:15:00 AM 8.19 46.742 0.084 7.12 6.36 11.63
4/22/2022 9:30:00 AM 8.3 46.94 0.084 7.15 6.35 11.65
4/22/2022 9:45:00 AM 8.42 47.156 0.084 7.15 6.8 11.61
4/22/2022 10:00:00 AM 8.55 47.39 0.084 7.13 6.45 11.58
4/22/2022 10:15:00 AM 8.68 47.624 0.084 7.13 6.44 11.54
4/22/2022 10:30:00 AM 8.83 47.894 0.084 7.15 6.11 11.51
4/22/2022 10:45:00 AM 9 48.2 0.084 7.16 6.42 11.48
4/22/2022 11:00:00 AM 9.18 48.524 0.084 7.16 6.6 11.43
4/22/2022 11:15:00 AM 9.36 48.848 0.084 7.16 6.89 11.39
4/22/2022 11:30:00 AM 9.53 49.154 0.084 7.17 6.37 11.37
4/22/2022 11:45:00 AM 9.72 49.496 0.084 7.16 6.55 11.31
4/22/2022 12:00:00 PM 9.88 49.784 0.084 7.17 6.33 11.27
4/22/2022 12:15:00 PM 10.06 50.108 0.084 7.18 6.62 11.23
4/22/2022 12:30:00 PM 10.24 50.432 0.084 7.2 6.31 11.19
4/22/2022 12:45:00 PM 10.42 50.756 0.084 7.2 6.3 11.14
4/22/2022 1:00:00 PM 10.6 51.08 0.084 7.2 6.32 11.09
4/22/2022 1:15:00 PM 10.77 51.386 0.084 7.19 6.31 11.03
4/22/2022 1:30:00 PM 10.94 51.692 0.084 7.19 6.34 10.99
4/22/2022 1:45:00 PM 11.08 51.944 0.084 7.2 6.22 10.96
4/22/2022 2:00:00 PM 11.21 52.178 0.084 7.2 6.55 10.91
4/22/2022 2:15:00 PM 11.35 52.43 0.084 7.21 6.67 10.89
4/22/2022 2:30:00 PM 11.47 52.646 0.084 7.2 6.65 10.85
4/22/2022 2:45:00 PM 11.56 52.808 0.085 7.2 6.6 10.81
4/22/2022 3:00:00 PM 11.62 52.916 0.085 7.18 6.52 10.78
4/22/2022 3:15:00 PM 11.73 53.114 0.084 7.23 6.3 10.79
4/22/2022 3:30:00 PM 11.76 53.168 0.085 7.21 6.54 10.75
4/22/2022 3:45:00 PM 11.79 53.222 0.085 7.21 6.48 10.73
4/22/2022 4:00:00 PM 11.81 53.258 0.084 7.22 6.91 10.75
4/22/2022 4:15:00 PM 11.78 53.204 0.085 7.22 7.78 10.72
4/22/2022 4:30:00 PM 11.75 53.15 0.084 7.23 6.43 10.74
4/22/2022 4:45:00 PM 11.69 53.042 0.085 7.19 6.29 10.73
4/22/2022 5:00:00 PM 11.61 52.898 0.085 7.2 6.65 10.74
4/22/2022 5:15:00 PM 11.5 52.7 0.084 7.21 6.63 10.77
4/22/2022 5:30:00 PM 11.38 52.484 0.085 7.21 6.37 10.79
4/22/2022 5:45:00 PM 11.23 52.214 0.085 7.17 6.9 10.79
4/22/2022 6:00:00 PM 11.1 51.98 0.085 7.19 6.92 10.82
4/22/2022 6:15:00 PM 10.97 51.746 0.084 7.19 6.9 10.86
4/22/2022 6:30:00 PM 10.82 51.476 0.085 7.17 6.73 10.87
4/22/2022 6:45:00 PM 10.68 51.224 0.085 7.16 6.28 10.9
4/22/2022 7:00:00 PM 10.57 51.026 0.085 7.16 6.59 10.91
4/22/2022 7:15:00 PM 10.47 50.846 0.085 7.16 6.41 10.93
4/22/2022 7:30:00 PM 10.38 50.684 0.085 7.16 6.81 10.96
4/22/2022 7:45:00 PM 10.3 50.54 0.085 7.15 7.01 10.97
4/22/2022 8:00:00 PM 10.22 50.396 0.086 7.1 6.45 10.91
4/22/2022 8:15:00 PM 10.15 50.27 0.085 7.11 6.97 10.97
4/22/2022 8:30:00 PM 10.07 50.126 0.085 7.1 6.84 10.98
4/22/2022 8:45:00 PM 9.99 49.982 0.085 7.09 6.63 10.97
4/22/2022 9:00:00 PM 9.92 49.856 0.085 7.1 6.6 11.01
4/22/2022 9:15:00 PM 9.85 49.73 0.086 7.09 6.41 11.02
4/22/2022 9:30:00 PM 9.8 49.64 0.085 7.09 6.46 11.04
4/22/2022 9:45:00 PM 9.73 49.514 0.085 7.09 6.86 11.06
4/22/2022 10:00:00 PM 9.68 49.424 0.086 7.08 6.6 11.07
4/22/2022 10:15:00 PM 9.61 49.298 0.085 7.09 6.66 11.1
4/22/2022 10:30:00 PM 9.54 49.172 0.086 7.1 6.5 11.12
4/22/2022 10:45:00 PM 9.47 49.046 0.086 7.08 6.97 11.13
4/22/2022 11:00:00 PM 9.4 48.92 0.086 7.09 6.38 11.15
4/22/2022 11:15:00 PM 9.33 48.794 0.086 7.08 6.6 11.16
4/22/2022 11:30:00 PM 9.27 48.686 0.086 7.08 6.58 11.16
4/22/2022 11:45:00 PM 9.22 48.596 0.086 7.09 6.22 11.2
4/23/2022 12:00:00 AM 9.17 48.506 0.086 7.07 6.1 11.19
4/23/2022 12:15:00 AM 9.12 48.416 0.086 7.07 5.96 11.23
4/23/2022 12:30:00 AM 9.08 48.344 0.086 7.07 6.04 11.24
4/23/2022 12:45:00 AM 9.03 48.254 0.086 7.07 6 11.25
4/23/2022 1:00:00 AM 8.99 48.182 0.086 7.08 6.45 11.28
4/23/2022 1:15:00 AM 8.95 48.11 0.086 7.06 5.95 11.25
4/23/2022 1:30:00 AM 8.92 48.056 0.086 7.07 5.78 11.26
4/23/2022 1:45:00 AM 8.9 48.02 0.086 7.07 6.04 11.28
4/23/2022 2:00:00 AM 8.88 47.984 0.086 7.07 5.95 11.27
4/23/2022 2:15:00 AM 8.87 47.966 0.086 7.07 6.47 11.28
4/23/2022 2:30:00 AM 8.86 47.948 0.086 7.09 6.49 11.29
4/23/2022 2:45:00 AM 8.86 47.948 0.086 7.08 5.99 11.3
4/23/2022 3:00:00 AM 8.86 47.948 0.086 7.08 5.66 11.29
4/23/2022 3:15:00 AM 8.86 47.948 0.085 7.07 6.11 11.28
4/23/2022 3:30:00 AM 8.87 47.966 0.085 7.07 5.84 11.28
4/23/2022 3:45:00 AM 8.87 47.966 0.085 7.07 5.99 11.28
4/23/2022 4:00:00 AM 8.88 47.984 0.085 7.07 6.02 11.28
4/23/2022 4:15:00 AM 8.89 48.002 0.084 7.08 6.46 11.28
4/23/2022 4:30:00 AM 8.9 48.02 0.084 7.08 5.75 11.27
4/23/2022 4:45:00 AM 8.91 48.038 0.085 7.05 6.21 11.24
4/23/2022 5:00:00 AM 8.92 48.056 0.085 7.06 5.85 11.26
4/23/2022 5:15:00 AM 8.93 48.074 0.085 7.06 5.8 11.24
4/23/2022 5:30:00 AM 8.93 48.074 0.085 7.06 6.1 11.26
4/23/2022 5:45:00 AM 8.94 48.092 0.085 7.06 5.85 11.26
4/23/2022 6:00:00 AM 8.94 48.092 0.085 7.07 6.39 11.25
4/23/2022 6:15:00 AM 8.94 48.092 0.085 7.07 6.72 11.26
4/23/2022 6:30:00 AM 8.94 48.092 0.085 7.07 6.81 11.26
4/23/2022 6:45:00 AM 8.94 48.092 0.09 7.07 3.64 11.25
4/23/2022 7:00:00 AM 8.94 48.092 0.085 7.07 6.95 11.27
4/23/2022 7:15:00 AM 8.94 48.092 0.085 7.07 5.9 11.28
4/23/2022 7:30:00 AM 8.95 48.11 0.086 7.08 6.02 11.29
4/23/2022 7:45:00 AM 8.96 48.128 0.085 7.09 6.57 11.29
4/23/2022 8:00:00 AM 8.97 48.146 0.086 7.04 6.46 11.26
4/23/2022 8:15:00 AM 9 48.2 0.086 7.09 5.99 11.31
4/23/2022 8:30:00 AM 9.03 48.254 0.086 7.1 5.89 11.32
4/23/2022 8:45:00 AM 9.09 48.362 0.086 7.12 5.67 11.34
4/23/2022 9:00:00 AM 9.14 48.452 0.086 7.11 5.72 11.32
4/23/2022 9:15:00 AM 9.23 48.614 0.086 7.09 5.7 11.31
4/23/2022 9:30:00 AM 9.3 48.74 0.086 7.14 5.62 11.32
4/23/2022 9:45:00 AM 9.36 48.848 0.085 7.16 5.88 11.31
4/23/2022 10:00:00 AM 9.44 48.992 0.085 7.15 6.02 11.28
4/23/2022 10:15:00 AM 9.53 49.154 0.085 7.15 5.9 11.27
4/23/2022 10:30:00 AM 9.6 49.28 0.085 7.18 5.75 11.26
4/23/2022 10:45:00 AM 9.68 49.424 0.086 7.16 6.4 11.22
4/23/2022 11:00:00 AM 9.79 49.622 0.085 7.17 5.73 11.21
4/23/2022 11:15:00 AM 9.87 49.766 0.085 7.15 5.55 11.17
4/23/2022 11:30:00 AM 9.99 49.982 0.085 7.19 5.68 11.18
4/23/2022 11:45:00 AM 10.14 50.252 0.085 7.2 5.99 11.15
4/23/2022 12:00:00 PM 10.28 50.504 0.086 7.21 5.73 11.11
4/23/2022 12:15:00 PM 10.4 50.72 0.086 7.19 5.36 11.06
4/23/2022 12:30:00 PM 10.6 51.08 0.085 7.19 5.78 11.01
4/23/2022 12:45:00 PM 10.83 51.494 0.086 7.21 5.98 10.98
4/23/2022 1:00:00 PM 11.02 51.836 0.085 7.19 5.86 10.93
4/23/2022 1:15:00 PM 11.14 52.052 0.086 7.2 5.81 10.87
4/23/2022 1:30:00 PM 11.37 52.466 0.085 7.2 5.97 10.84
4/23/2022 1:45:00 PM 11.58 52.844 0.09 7.2 3.48 10.77
4/23/2022 2:00:00 PM 11.81 53.258 0.086 7.19 6.21 10.71
4/23/2022 2:15:00 PM 11.95 53.51 0.086 7.21 5.94 10.66
4/23/2022 2:30:00 PM 12.06 53.708 0.086 7.19 5.78 10.61
4/23/2022 2:45:00 PM 12.14 53.852 0.086 7.23 5.75 10.59
4/23/2022 3:00:00 PM 12.04 53.672 0.086 7.21 5.73 10.54
4/23/2022 3:15:00 PM 11.96 53.528 0.086 7.18 5.65 10.57
4/23/2022 3:30:00 PM 11.85 53.33 0.086 7.22 5.79 10.61
4/23/2022 3:45:00 PM 11.7 53.06 0.086 7.14 5.85 10.54
4/23/2022 4:00:00 PM 11.63 52.934 0.086 7.19 6.54 10.6
4/23/2022 4:15:00 PM 11.52 52.736 0.086 7.17 6.05 10.61
4/23/2022 4:30:00 PM 11.41 52.538 0.086 7.16 5.9 10.6
4/23/2022 4:45:00 PM 11.32 52.376 0.086 7.17 5.78 10.65
4/23/2022 5:00:00 PM 11.22 52.196 0.087 7.14 5.76 10.65
4/23/2022 5:15:00 PM 11.17 52.106 0.086 7.17 5.93 10.72
4/23/2022 5:30:00 PM 11.12 52.016 0.087 7.18 5.44 10.74
4/23/2022 5:45:00 PM 11.09 51.962 0.086 7.19 5.72 10.77
4/23/2022 6:00:00 PM 11.06 51.908 0.087 7.18 5.6 10.75
4/23/2022 6:15:00 PM 11.07 51.926 0.087 7.14 5.66 10.7
4/23/2022 6:30:00 PM 11.09 51.962 0.087 7.17 5.48 10.69
4/23/2022 6:45:00 PM 11.08 51.944 0.087 7.16 4.94 10.68
4/23/2022 7:00:00 PM 11.07 51.926 0.087 7.17 5.45 10.68
4/23/2022 7:15:00 PM 11.04 51.872 0.087 7.15 5.51 10.65
4/23/2022 7:30:00 PM 11.01 51.818 0.087 7.13 5.42 10.65
4/23/2022 7:45:00 PM 10.97 51.746 0.087 7.13 6.1 10.65
4/23/2022 8:00:00 PM 10.92 51.656 0.087 7.14 6.07 10.68
4/23/2022 8:15:00 PM 10.85 51.53 0.088 7.09 5.42 10.63
4/23/2022 8:30:00 PM 10.81 51.458 0.088 7.1 5.82 10.67
4/23/2022 8:45:00 PM 10.75 51.35 0.088 7.07 5.66 10.63
4/23/2022 9:00:00 PM 10.74 51.332 0.088 7.08 5.83 10.67
4/23/2022 9:15:00 PM 10.71 51.278 0.088 7.1 5.85 10.68
4/23/2022 9:30:00 PM 10.66 51.188 0.088 7.07 6.13 10.7
4/23/2022 9:45:00 PM 10.61 51.098 0.088 7.09 5.84 10.71
4/23/2022 10:00:00 PM 10.53 50.954 0.088 7.08 5.7 10.72
4/23/2022 10:15:00 PM 10.44 50.792 0.088 7.06 6.09 10.72
4/23/2022 10:30:00 PM 10.35 50.63 0.088 7.07 5.77 10.76
4/23/2022 10:45:00 PM 10.26 50.468 0.088 7.06 5.59 10.79
4/23/2022 11:00:00 PM 10.18 50.324 0.088 7.09 5.72 10.83
4/23/2022 11:15:00 PM 10.09 50.162 0.088 7.08 5.56 10.86
4/23/2022 11:30:00 PM 10.01 50.018 0.088 7.08 5.56 10.88
4/23/2022 11:45:00 PM 9.93 49.874 0.088 7.07 5.51 10.88
4/24/2022 12:00:00 AM 9.85 49.73 0.088 7.09 5.91 10.93
4/24/2022 12:15:00 AM 9.77 49.586 0.088 7.08 5.65 10.94
4/24/2022 12:30:00 AM 9.72 49.496 0.087 7.09 5.56 10.96
4/24/2022 12:45:00 AM 9.68 49.424 0.088 7.07 5.64 10.94
4/24/2022 1:00:00 AM 9.67 49.406 0.087 7.09 5.45 10.97
4/24/2022 1:15:00 AM 9.66 49.388 0.087 7.09 5.53 10.96
4/24/2022 1:30:00 AM 9.67 49.406 0.088 7.07 5.38 10.93
4/24/2022 1:45:00 AM 9.67 49.406 0.087 7.08 5.49 10.94
4/24/2022 2:00:00 AM 9.66 49.388 0.088 7.07 5.56 10.92
4/24/2022 2:15:00 AM 9.65 49.37 0.088 7.08 5.58 10.93
4/24/2022 2:30:00 AM 9.63 49.334 0.087 7.08 5.42 10.94
4/24/2022 2:45:00 AM 9.62 49.316 0.087 7.09 5.55 10.97
4/24/2022 3:00:00 AM 9.58 49.244 0.088 7.08 5.75 10.96
4/24/2022 3:15:00 AM 9.55 49.19 0.088 7.07 5.56 10.96
4/24/2022 3:30:00 AM 9.52 49.136 0.088 7.08 5.48 10.98
4/24/2022 3:45:00 AM 9.48 49.064 0.087 7.06 5.42 10.98
4/24/2022 4:00:00 AM 9.44 48.992 0.088 7.06 5.15 10.98
4/24/2022 4:15:00 AM 9.4 48.92 0.088 7.08 5.38 11.01
4/24/2022 4:30:00 AM 9.36 48.848 0.087 7.08 5.02 11.03
4/24/2022 4:45:00 AM 9.33 48.794 0.087 7.07 5.26 11.02
4/24/2022 5:00:00 AM 9.3 48.74 0.087 7.05 5.5 11.03
4/24/2022 5:15:00 AM 9.27 48.686 0.088 7.07 5.31 11.02
4/24/2022 5:30:00 AM 9.25 48.65 0.087 7.08 5.77 11.06
4/24/2022 5:45:00 AM 9.22 48.596 0.087 7.08 5.57 11.06
4/24/2022 6:00:00 AM 9.2 48.56 0.087 7.09 5.76 11.09
4/24/2022 6:15:00 AM 9.17 48.506 0.087 7.06 6.17 11.07
4/24/2022 6:30:00 AM 9.16 48.488 0.088 7.08 5.48 11.07
4/24/2022 6:45:00 AM 9.15 48.47 0.087 7.1 5.29 11.12
4/24/2022 7:00:00 AM 9.15 48.47 0.087 7.1 5.61 11.13
4/24/2022 7:15:00 AM 9.16 48.488 0.087 7.1 5.29 11.14
4/24/2022 7:30:00 AM 9.18 48.524 0.087 7.1 5.68 11.14
4/24/2022 7:45:00 AM 9.21 48.578 0.087 7.1 5.2 11.16
4/24/2022 8:00:00 AM 9.25 48.65 0.087 7.11 5.27 11.15
4/24/2022 8:15:00 AM 9.31 48.758 0.087 7.13 5.02 11.17
4/24/2022 8:30:00 AM 9.39 48.902 0.087 7.13 5.76 11.16
4/24/2022 8:45:00 AM 9.47 49.046 0.087 7.17 5.5 11.17
4/24/2022 9:00:00 AM 9.57 49.226 0.087 7.16 5.17 11.16
4/24/2022 9:15:00 AM 9.71 49.478 0.086 7.18 5.42 11.15
4/24/2022 9:30:00 AM 9.87 49.766 0.087 7.16 5.82 11.1
4/24/2022 9:45:00 AM 10.03 50.054 0.086 7.16 5.82 11.05
4/24/2022 10:00:00 AM 10.17 50.306 0.087 7.18 7.91 11.01
4/24/2022 10:15:00 AM 10.27 50.486 0.087 7.17 5.44 10.97
4/24/2022 10:30:00 AM 10.49 50.882 0.086 7.19 5.18 10.96
4/24/2022 10:45:00 AM 10.76 51.368 0.087 7.2 5.52 10.91
4/24/2022 11:00:00 AM 11.03 51.854 0.086 7.2 5.64 10.83
4/24/2022 11:15:00 AM 11.28 52.304 0.087 7.19 5.08 10.76
4/24/2022 11:30:00 AM 11.6 52.88 0.086 7.24 6.18 10.75
4/24/2022 11:45:00 AM 11.86 53.348 0.087 7.18 5.12 10.64
4/24/2022 12:00:00 PM 12.19 53.942 0.086 7.25 5.51 10.62
4/24/2022 12:15:00 PM 12.44 54.392 0.087 7.2 5.11 10.5
4/24/2022 12:30:00 PM 12.72 54.896 0.087 7.19 5.36 10.44
4/24/2022 12:45:00 PM 13.02 55.436 0.086 7.25 5.44 10.41
4/24/2022 1:00:00 PM 13.26 55.868 0.086 7.22 5.3 10.33
4/24/2022 1:15:00 PM 13.47 56.246 0.087 7.18 5.55 10.24
4/24/2022 1:30:00 PM 13.71 56.678 0.087 7.21 5.28 10.2
4/24/2022 1:45:00 PM 13.97 57.146 0.087 7.25 5.39 10.19
4/24/2022 2:00:00 PM 14.14 57.452 0.087 7.25 5.19 10.11
4/24/2022 2:15:00 PM 14.32 57.776 0.087 7.21 4.97 10.06
4/24/2022 2:30:00 PM 14.48 58.064 0.087 7.2 5.4 10.02
4/24/2022 2:45:00 PM 14.62 58.316 0.087 7.22 5.19 9.95
4/24/2022 3:00:00 PM 14.79 58.622 0.087 7.24 5.09 9.95
4/24/2022 3:15:00 PM 14.87 58.766 0.087 7.23 5.27 9.91
4/24/2022 3:30:00 PM 14.99 58.982 0.087 7.25 5.29 9.89
4/24/2022 3:45:00 PM 15.08 59.144 0.087 7.26 5.26 9.89
4/24/2022 4:00:00 PM 15.09 59.162 0.087 7.28 5.31 9.89
4/24/2022 4:15:00 PM 15.09 59.162 0.087 7.27 5.29 9.88
4/24/2022 4:30:00 PM 15.1 59.18 0.087 7.3 5.56 9.87
4/24/2022 4:45:00 PM 14.97 58.946 0.087 7.28 5.09 9.86
4/24/2022 5:00:00 PM 14.83 58.694 0.088 7.18 5.3 9.8
4/24/2022 5:15:00 PM 14.83 58.694 0.087 7.25 5.65 9.89
4/24/2022 5:30:00 PM 14.63 58.334 0.088 7.2 5.38 9.85
4/24/2022 5:45:00 PM 14.59 58.262 0.087 7.26 5.11 9.91
4/24/2022 6:00:00 PM 14.45 58.01 0.087 7.28 5.88 9.91
4/24/2022 6:15:00 PM 14.26 57.668 0.088 7.22 5.23 9.92
4/24/2022 6:30:00 PM 14.08 57.344 0.088 7.2 5.42 9.93
4/24/2022 6:45:00 PM 13.92 57.056 0.088 7.23 5.45 9.96
4/24/2022 7:00:00 PM 13.74 56.732 0.088 7.2 6.43 9.98
4/24/2022 7:15:00 PM 13.55 56.39 0.089 7.2 5.36 9.99
4/24/2022 7:30:00 PM 13.37 56.066 0.089 7.2 5.52 10.01
4/24/2022 7:45:00 PM 13.2 55.76 0.089 7.18 5.4 10.04
4/24/2022 8:00:00 PM 13.04 55.472 0.089 7.18 5.4 10.06
4/24/2022 8:15:00 PM 12.87 55.166 0.089 7.15 5.29 10.08
4/24/2022 8:30:00 PM 12.73 54.914 0.089 7.15 7.04 10.1
4/24/2022 8:45:00 PM 12.59 54.662 0.089 7.13 5.89 10.13
4/24/2022 9:00:00 PM 12.48 54.464 0.089 7.13 5.73 10.16
4/24/2022 9:15:00 PM 12.42 54.356 0.09 7.17 5.18 10.2
4/24/2022 9:30:00 PM 12.33 54.194 0.089 7.16 5.4 10.22
4/24/2022 9:45:00 PM 12.26 54.068 0.089 7.16 5.3 10.24
4/24/2022 10:00:00 PM 12.18 53.924 0.09 7.14 5.22 10.24
4/24/2022 10:15:00 PM 12.13 53.834 0.089 7.18 5.45 10.28
4/24/2022 10:30:00 PM 12.01 53.618 0.09 7.09 5.33 10.21
4/24/2022 10:45:00 PM 12.01 53.618 0.089 7.16 5.42 10.29
4/24/2022 11:00:00 PM 11.96 53.528 0.09 7.13 5.61 10.26
4/24/2022 11:15:00 PM 11.96 53.528 0.089 7.15 5.46 10.31
4/24/2022 11:30:00 PM 11.93 53.474 0.09 7.13 5.24 10.32
4/24/2022 11:45:00 PM 11.88 53.384 0.09 7.12 5.15 10.28
4/25/2022 12:00:00 AM 11.85 53.33 0.09 7.13 5.36 10.3
4/25/2022 12:15:00 AM 11.8 53.24 0.09 7.11 5.55 10.29
4/25/2022 12:30:00 AM 11.8 53.24 0.09 7.15 5.14 10.36
4/25/2022 12:45:00 AM 11.75 53.15 0.09 7.14 5.47 10.36
4/25/2022 1:00:00 AM 11.7 53.06 0.09 7.14 5.13 10.33
4/25/2022 1:15:00 AM 11.66 52.988 0.09 7.16 5.11 10.38
4/25/2022 1:30:00 AM 11.62 52.916 0.09 7.14 5.52 10.37
4/25/2022 1:45:00 AM 11.58 52.844 0.09 7.14 5.04 10.37
4/25/2022 2:00:00 AM 11.52 52.736 0.09 7.13 4.9 10.38
4/25/2022 2:15:00 AM 11.48 52.664 0.089 7.16 5.17 10.43
4/25/2022 2:30:00 AM 11.4 52.52 0.09 7.11 5 10.37
4/25/2022 2:45:00 AM 11.35 52.43 0.09 7.12 4.93 10.42
4/25/2022 3:00:00 AM 11.31 52.358 0.089 7.12 5.14 10.42
4/25/2022 3:15:00 AM 11.26 52.268 0.089 7.14 4.87 10.46
4/25/2022 3:30:00 AM 11.2 52.16 0.089 7.12 4.9 10.47
4/25/2022 3:45:00 AM 11.17 52.106 0.089 7.15 5 10.49
4/25/2022 4:00:00 AM 11.1 51.98 0.089 7.12 5.02 10.49
4/25/2022 4:15:00 AM 11.07 51.926 0.089 7.15 5.7 10.55
4/25/2022 4:30:00 AM 10.99 51.782 0.089 7.13 5.18 10.54
4/25/2022 4:45:00 AM 10.93 51.674 0.089 7.13 5.25 10.53
4/25/2022 5:00:00 AM 10.87 51.566 0.089 7.14 5.45 10.57
4/25/2022 5:15:00 AM 10.8 51.44 0.089 7.13 5.11 10.55
4/25/2022 5:30:00 AM 10.74 51.332 0.094 7.16 2.84 10.59
4/25/2022 5:45:00 AM 10.68 51.224 0.09 7.15 5.28 10.63
4/25/2022 6:00:00 AM 10.6 51.08 0.09 7.1 4.88 10.58
4/25/2022 6:15:00 AM 10.57 51.026 0.089 7.16 5.61 10.68
4/25/2022 6:30:00 AM 10.53 50.954 0.089 7.13 5.72 10.69
4/25/2022 6:45:00 AM 10.5 50.9 0.089 7.13 5.22 10.68
4/25/2022 7:00:00 AM 10.5 50.9 0.09 7.15 4.91 10.73
4/25/2022 7:15:00 AM 10.5 50.9 0.089 7.15 5.28 10.75
4/25/2022 7:30:00 AM 10.53 50.954 0.09 7.16 5.18 10.75
4/25/2022 7:45:00 AM 10.58 51.044 0.089 7.18 5.3 10.8
4/25/2022 8:00:00 AM 10.66 51.188 0.089 7.2 4.91 10.81
4/25/2022 8:15:00 AM 10.73 51.314 0.089 7.19 4.87 10.83
4/25/2022 8:30:00 AM 10.82 51.476 0.089 7.19 4.75 10.77
4/25/2022 8:45:00 AM 10.93 51.674 0.089 7.17 4.69 10.79
4/25/2022 9:00:00 AM 11.03 51.854 0.089 7.21 4.63 10.78
4/25/2022 9:15:00 AM 11.13 52.034 0.089 7.2 5.01 10.75
4/25/2022 9:30:00 AM 11.25 52.25 0.088 7.2 5.1 10.73
4/25/2022 9:45:00 AM 11.39 52.502 0.088 7.24 4.97 10.73
4/25/2022 10:00:00 AM 11.55 52.79 0.088 7.22 5 10.69
4/25/2022 10:15:00 AM 11.69 53.042 0.088 7.21 4.77 10.64
4/25/2022 10:30:00 AM 11.85 53.33 0.088 7.21 4.87 10.59
4/25/2022 10:45:00 AM 12.09 53.762 0.088 7.24 5.32 10.58
4/25/2022 11:00:00 AM 12.32 54.176 0.088 7.23 4.59 10.52
4/25/2022 11:15:00 AM 12.59 54.662 0.088 7.27 4.98 10.51
4/25/2022 11:30:00 AM 12.84 55.112 0.088 7.24 4.8 10.4
4/25/2022 11:45:00 AM 13.07 55.526 0.093 7.25 2.9 10.36
4/25/2022 12:00:00 PM 13.32 55.976 0.088 7.22 5 10.31
4/25/2022 12:15:00 PM 13.57 56.426 0.088 7.26 4.89 10.27
4/25/2022 12:30:00 PM 13.81 56.858 0.088 7.27 5.02 10.2
4/25/2022 12:45:00 PM 14.06 57.308 0.088 7.26 4.79 10.17
4/25/2022 1:00:00 PM 14.31 57.758 0.088 7.28 4.91 10.06
4/25/2022 1:15:00 PM 14.57 58.226 0.088 7.33 4.6 10.09
4/25/2022 1:30:00 PM 14.7 58.46 0.088 7.23 4.68 10.02
4/25/2022 1:45:00 PM 14.9 58.82 0.088 7.27 5.04 9.97
4/25/2022 2:00:00 PM 15.04 59.072 0.088 7.23 4.57 9.89
4/25/2022 2:15:00 PM 15.27 59.486 0.088 7.31 4.99 9.89
4/25/2022 2:30:00 PM 15.39 59.702 0.088 7.26 4.64 9.85
4/25/2022 2:45:00 PM 15.56 60.008 0.088 7.3 4.81 9.82
4/25/2022 3:00:00 PM 15.67 60.206 0.088 7.27 4.91 9.77
4/25/2022 3:15:00 PM 15.81 60.458 0.088 7.31 4.58 9.77
4/25/2022 3:30:00 PM 15.85 60.53 0.088 7.31 4.61 9.7
4/25/2022 3:45:00 PM 15.91 60.638 0.089 7.26 5.18 9.7
4/25/2022 4:00:00 PM 15.96 60.728 0.089 7.28 4.52 9.69
4/25/2022 4:15:00 PM 15.97 60.746 0.089 7.27 4.94 9.67
4/25/2022 4:30:00 PM 15.97 60.746 0.089 7.3 5.04 9.68
4/25/2022 4:45:00 PM 15.9 60.62 0.089 7.29 4.98 9.66
4/25/2022 5:00:00 PM 15.84 60.512 0.089 7.32 4.67 9.7
4/25/2022 5:15:00 PM 15.56 60.008 0.09 7.21 4.84 9.62
4/25/2022 5:30:00 PM 15.53 59.954 0.089 7.29 5.11 9.67
4/25/2022 5:45:00 PM 15.34 59.612 0.09 7.25 4.48 9.68
4/25/2022 6:00:00 PM 15.21 59.378 0.09 7.27 4.61 9.73
4/25/2022 6:15:00 PM 14.97 58.946 0.09 7.19 4.84 9.68
4/25/2022 6:30:00 PM 14.83 58.694 0.09 7.25 4.54 9.74
4/25/2022 6:45:00 PM 14.56 58.208 0.09 7.21 4.86 9.72
4/25/2022 7:00:00 PM 14.41 57.938 0.09 7.23 4.71 9.79
4/25/2022 7:15:00 PM 14.2 57.56 0.09 7.23 4.96 9.82
4/25/2022 7:30:00 PM 13.99 57.182 0.09 7.21 5.07 9.84
4/25/2022 7:45:00 PM 13.81 56.858 0.091 7.24 4.65 9.88
4/25/2022 8:00:00 PM 13.64 56.552 0.091 7.21 5.08 9.87
4/25/2022 8:15:00 PM 13.49 56.282 0.091 7.2 4.94 9.89
4/25/2022 8:30:00 PM 13.34 56.012 0.091 7.18 5.24 9.92
4/25/2022 8:45:00 PM 13.18 55.724 0.091 7.16 4.94 9.94
4/25/2022 9:00:00 PM 13.06 55.508 0.092 7.19 5.01 9.99
4/25/2022 9:15:00 PM 12.89 55.202 0.092 7.14 5.01 9.96
4/25/2022 9:30:00 PM 12.82 55.076 0.092 7.17 5.12 10.03
4/25/2022 9:45:00 PM 12.75 54.95 0.092 7.18 4.97 10.05
4/25/2022 10:00:00 PM 12.69 54.842 0.092 7.17 4.94 10.07
4/25/2022 10:15:00 PM 12.63 54.734 0.092 7.16 4.96 10.07
4/25/2022 10:30:00 PM 12.61 54.698 0.092 7.18 5.09 10.09
4/25/2022 10:45:00 PM 12.56 54.608 0.093 7.16 4.57 10.07
4/25/2022 11:00:00 PM 12.49 54.482 0.092 7.13 4.94 10.06
4/25/2022 11:15:00 PM 12.45 54.41 0.092 7.17 5.13 10.14
4/25/2022 11:30:00 PM 12.38 54.284 0.092 7.16 4.74 10.1
4/25/2022 11:45:00 PM 12.34 54.212 0.092 7.16 4.95 10.14
4/26/2022 12:00:00 AM 12.25 54.05 0.092 7.12 4.7 10.13
4/26/2022 12:15:00 AM 12.23 54.014 0.092 7.16 4.72 10.15
4/26/2022 12:30:00 AM 12.18 53.924 0.092 7.17 4.81 10.2
4/26/2022 12:45:00 AM 12.12 53.816 0.092 7.11 4.7 10.15
4/26/2022 1:00:00 AM 12.1 53.78 0.092 7.15 4.77 10.18
4/26/2022 1:15:00 AM 12.04 53.672 0.092 7.12 4.87 10.18
4/26/2022 1:30:00 AM 12 53.6 0.092 7.13 4.72 10.19
4/26/2022 1:45:00 AM 11.97 53.546 0.092 7.12 4.64 10.21
4/26/2022 2:00:00 AM 11.95 53.51 0.092 7.16 4.83 10.27
4/26/2022 2:15:00 AM 11.89 53.402 0.092 7.13 4.8 10.21
4/26/2022 2:30:00 AM 11.87 53.366 0.092 7.15 4.55 10.25
4/26/2022 2:45:00 AM 11.83 53.294 0.092 7.12 4.63 10.24
4/26/2022 3:00:00 AM 11.81 53.258 0.092 7.14 5.05 10.27
4/26/2022 3:15:00 AM 11.78 53.204 0.092 7.15 4.77 10.27
4/26/2022 3:30:00 AM 11.76 53.168 0.092 7.13 4.5 10.21
4/26/2022 3:45:00 AM 11.75 53.15 0.092 7.13 5.1 10.25
4/26/2022 4:00:00 AM 11.75 53.15 0.092 7.16 4.93 10.28
4/26/2022 4:15:00 AM 11.72 53.096 0.092 7.12 4.61 10.24
4/26/2022 4:30:00 AM 11.73 53.114 0.092 7.14 4.98 10.3
4/26/2022 4:45:00 AM 11.71 53.078 0.092 7.13 4.67 10.29
4/26/2022 5:00:00 AM 11.71 53.078 0.092 7.13 4.9 10.26
4/26/2022 5:15:00 AM 11.7 53.06 0.092 7.14 4.8 10.29
4/26/2022 5:30:00 AM 11.7 53.06 0.092 7.15 4.47 10.27
4/26/2022 5:45:00 AM 11.71 53.078 0.092 7.16 4.64 10.29
4/26/2022 6:00:00 AM 11.69 53.042 0.092 7.12 5.26 10.27
4/26/2022 6:15:00 AM 11.68 53.024 0.092 7.13 4.71 10.25
4/26/2022 6:30:00 AM 11.7 53.06 0.092 7.14 4.89 10.28
4/26/2022 6:45:00 AM 11.68 53.024 0.092 7.1 4.99 10.26
4/26/2022 7:00:00 AM 11.69 53.042 0.093 7.1 4.52 10.22
4/26/2022 7:15:00 AM 11.73 53.114 0.092 7.13 4.64 10.29
4/26/2022 7:30:00 AM 11.73 53.114 0.092 7.12 4.61 10.3
4/26/2022 7:45:00 AM 11.77 53.186 0.092 7.16 4.73 10.32
4/26/2022 8:00:00 AM 11.78 53.204 0.092 7.16 4.55 10.34
4/26/2022 8:15:00 AM 11.8 53.24 0.091 7.19 4.91 10.36
4/26/2022 8:30:00 AM 11.81 53.258 0.091 7.16 5.17 10.36
4/26/2022 8:45:00 AM 11.84 53.312 0.091 7.18 4.77 10.37
4/26/2022 9:00:00 AM 11.86 53.348 0.091 7.18 5 10.39
4/26/2022 9:15:00 AM 11.87 53.366 0.091 7.19 4.53 10.37
4/26/2022 9:30:00 AM 11.91 53.438 0.091 7.19 4.67 10.38
4/26/2022 9:45:00 AM 11.92 53.456 0.091 7.17 4.64 10.4
4/26/2022 10:00:00 AM 11.97 53.546 0.091 7.2 4.91 10.42
4/26/2022 10:15:00 AM 12.02 53.636 0.091 7.22 4.45 10.42
4/26/2022 10:30:00 AM 12.09 53.762 0.09 7.23 4.84 10.44
4/26/2022 10:45:00 AM 12.11 53.798 0.09 7.23 4.79 10.43
4/26/2022 11:00:00 AM 12.15 53.87 0.09 7.23 5.3 10.4
4/26/2022 11:15:00 AM 12.22 53.996 0.09 7.25 5.41 10.45
4/26/2022 11:30:00 AM 12.27 54.086 0.091 7.22 4.62 10.42
4/26/2022 11:45:00 AM 12.3 54.14 0.09 7.21 4.37 10.4
4/26/2022 12:00:00 PM 12.35 54.23 0.09 7.25 4.96 10.37
4/26/2022 12:15:00 PM 12.37 54.266 0.09 7.2 4.35 10.3
4/26/2022 12:30:00 PM 12.39 54.302 0.09 7.17 4.53 10.28
4/26/2022 12:45:00 PM 12.49 54.482 0.09 7.23 4.56 10.37
4/26/2022 1:00:00 PM 12.55 54.59 0.09 7.25 4.72 10.36
4/26/2022 1:15:00 PM 12.61 54.698 0.09 7.23 4.91 10.34
4/26/2022 1:30:00 PM 12.63 54.734 0.09 7.24 4.58 10.26
4/26/2022 1:45:00 PM 12.73 54.914 0.09 7.26 4.99 10.33
4/26/2022 2:00:00 PM 12.76 54.968 0.09 7.25 4.44 10.27
4/26/2022 2:15:00 PM 12.86 55.148 0.09 7.27 4.63 10.32
4/26/2022 2:30:00 PM 12.92 55.256 0.09 7.27 4.47 10.28
4/26/2022 2:45:00 PM 12.94 55.292 0.09 7.2 4.76 10.22
4/26/2022 3:00:00 PM 13.01 55.418 0.09 7.23 4.48 10.2
4/26/2022 3:15:00 PM 13.07 55.526 0.095 7.26 2.63 10.25
4/26/2022 3:30:00 PM 13.19 55.742 0.09 7.25 5.07 10.25
4/26/2022 3:45:00 PM 13.14 55.652 0.09 7.19 4.49 10.12
4/26/2022 4:00:00 PM 13.15 55.67 0.09 7.24 6.54 10.09
4/26/2022 4:15:00 PM 13.16 55.688 0.09 7.25 4.58 10.09
4/26/2022 4:30:00 PM 13.11 55.598 0.09 7.21 4.36 10.08
4/26/2022 4:45:00 PM 13.08 55.544 0.09 7.22 4.45 10.11
4/26/2022 5:00:00 PM 13.02 55.436 0.091 7.16 4.4 10.02
4/26/2022 5:15:00 PM 12.99 55.382 0.091 7.2 4.49 10.04
4/26/2022 5:30:00 PM 12.97 55.346 0.09 7.18 4.63 10.07
4/26/2022 5:45:00 PM 12.95 55.31 0.09 7.21 4.61 10.09
4/26/2022 6:00:00 PM 12.94 55.292 0.09 7.21 4.58 10.1
4/26/2022 6:15:00 PM 12.9 55.22 0.09 7.19 4.24 10.05
4/26/2022 6:30:00 PM 12.9 55.22 0.09 7.21 4.57 10.06
4/26/2022 6:45:00 PM 12.83 55.094 0.09 7.13 4.58 10.03
4/26/2022 7:00:00 PM 12.83 55.094 0.091 7.18 4.24 10.04
4/26/2022 7:15:00 PM 12.77 54.986 0.091 7.15 4.51 10.01
4/26/2022 7:30:00 PM 12.77 54.986 0.091 7.16 4.82 10.01
4/26/2022 7:45:00 PM 12.74 54.932 0.091 7.18 4.43 10.04
4/26/2022 8:00:00 PM 12.67 54.806 0.091 7.16 4.95 9.99
4/26/2022 8:15:00 PM 12.64 54.752 0.091 7.15 5.39 10.02
4/26/2022 8:30:00 PM 12.58 54.644 0.091 7.15 5.52 9.98
4/26/2022 8:45:00 PM 12.56 54.608 0.091 7.17 4.64 10.03
4/26/2022 9:00:00 PM 12.51 54.518 0.091 7.18 5.44 10.07
4/26/2022 9:15:00 PM 12.42 54.356 0.092 7.17 5.07 10.06
4/26/2022 9:30:00 PM 12.33 54.194 0.092 7.13 6.05 10.03
4/26/2022 9:45:00 PM 12.28 54.104 0.092 7.16 5.02 10.1
4/26/2022 10:00:00 PM 12.23 54.014 0.092 7.15 5.15 10.14
4/26/2022 10:15:00 PM 12.18 53.924 0.092 7.16 5.25 10.15
4/26/2022 10:30:00 PM 12.13 53.834 0.092 7.16 4.74 10.18
4/26/2022 10:45:00 PM 12.06 53.708 0.092 7.14 4.91 10.17
4/26/2022 11:00:00 PM 12 53.6 0.092 7.15 5.05 10.14
4/26/2022 11:15:00 PM 11.93 53.474 0.092 7.11 4.86 10.1
4/26/2022 11:30:00 PM 11.93 53.474 0.092 7.16 4.63 10.23
4/26/2022 11:45:00 PM 11.86 53.348 0.092 7.14 4.72 10.19
4/27/2022 12:00:00 AM 11.82 53.276 0.092 7.14 4.75 10.23
4/27/2022 12:15:00 AM 11.78 53.204 0.092 7.15 4.91 10.25
4/27/2022 12:30:00 AM 11.69 53.042 0.092 7.12 4.98 10.21
4/27/2022 12:45:00 AM 11.65 52.97 0.092 7.16 4.9 10.3
4/27/2022 1:00:00 AM 11.54 52.772 0.092 7.14 4.96 10.3
4/27/2022 1:15:00 AM 11.44 52.592 0.092 7.13 4.6 10.32
4/27/2022 1:30:00 AM 11.35 52.43 0.092 7.11 4.69 10.3
4/27/2022 1:45:00 AM 11.27 52.286 0.092 7.13 4.87 10.35
4/27/2022 2:00:00 AM 11.18 52.124 0.092 7.14 4.72 10.37
4/27/2022 2:15:00 AM 11.1 51.98 0.092 7.13 4.52 10.42
4/27/2022 2:30:00 AM 11.03 51.854 0.091 7.13 4.98 10.41
4/27/2022 2:45:00 AM 11 51.8 0.092 7.13 4.88 10.42
4/27/2022 3:00:00 AM 10.94 51.692 0.092 7.1 5 10.41
4/27/2022 3:15:00 AM 10.91 51.638 0.091 7.13 4.67 10.45
4/27/2022 3:30:00 AM 10.86 51.548 0.092 7.11 5.18 10.44
4/27/2022 3:45:00 AM 10.86 51.548 0.092 7.14 4.4 10.48
4/27/2022 4:00:00 AM 10.81 51.458 0.092 7.08 4.83 10.47
4/27/2022 4:15:00 AM 10.79 51.422 0.091 7.13 4.5 10.51
4/27/2022 4:30:00 AM 10.74 51.332 0.091 7.14 4.58 10.51
4/27/2022 4:45:00 AM 10.67 51.206 0.091 7.12 4.84 10.45
4/27/2022 5:00:00 AM 10.61 51.098 0.091 7.14 4.98 10.51
4/27/2022 5:15:00 AM 10.51 50.918 0.091 7.1 4.87 10.5
4/27/2022 5:30:00 AM 10.44 50.792 0.091 7.1 5.6 10.53
4/27/2022 5:45:00 AM 10.37 50.666 0.091 7.09 4.85 10.57
4/27/2022 6:00:00 AM 10.32 50.576 0.091 7.13 4.48 10.57
4/27/2022 6:15:00 AM 10.27 50.486 0.091 7.11 5.55 10.6
4/27/2022 6:30:00 AM 10.22 50.396 0.091 7.13 5.44 10.65
4/27/2022 6:45:00 AM 10.19 50.342 0.091 7.15 6.78 10.7
4/27/2022 7:00:00 AM 10.17 50.306 0.091 7.11 6.22 10.64
4/27/2022 7:15:00 AM 10.15 50.27 0.091 7.17 5.97 10.74
4/27/2022 7:30:00 AM 10.13 50.234 0.091 7.17 5.36 10.79
4/27/2022 7:45:00 AM 10.13 50.234 0.091 7.18 5.03 10.82
4/27/2022 8:00:00 AM 10.14 50.252 0.091 7.16 4.69 10.79
4/27/2022 8:15:00 AM 10.11 50.198 0.091 7.2 4.58 10.86
4/27/2022 8:30:00 AM 10.06 50.108 0.091 7.18 4.56 10.84
4/27/2022 8:45:00 AM 10.01 50.018 0.09 7.16 4.34 10.86
4/27/2022 9:00:00 AM 10.01 50.018 0.09 7.17 4.53 10.89
4/27/2022 9:15:00 AM 10.07 50.126 0.09 7.17 4.49 10.92
4/27/2022 9:30:00 AM 10.11 50.198 0.09 7.2 4.36 10.9
4/27/2022 9:45:00 AM 10.14 50.252 0.09 7.21 4.55 10.93
4/27/2022 10:00:00 AM 10.14 50.252 0.09 7.21 5.34 10.87
4/27/2022 10:15:00 AM 10.14 50.252 0.09 7.18 4.52 10.87
4/27/2022 10:30:00 AM 10.18 50.324 0.09 7.23 5.18 10.91
4/27/2022 10:45:00 AM 10.16 50.288 0.09 7.14 4.57 10.79
4/27/2022 11:00:00 AM 10.23 50.414 0.09 7.25 4.41 10.93
4/27/2022 11:15:00 AM 10.32 50.576 0.09 7.24 4.87 10.94
4/27/2022 11:30:00 AM 10.3 50.54 0.09 7.23 4.63 10.86
4/27/2022 11:45:00 AM 10.27 50.486 0.09 7.23 4.61 10.85
4/27/2022 12:00:00 PM 10.27 50.486 0.09 7.21 4.41 10.85
4/27/2022 12:15:00 PM 10.29 50.522 0.089 7.26 4.69 10.92
4/27/2022 12:30:00 PM 10.41 50.738 0.089 7.22 4.94 10.85
4/27/2022 12:45:00 PM 10.36 50.648 0.089 7.23 4.47 10.8
4/27/2022 1:00:00 PM 10.33 50.594 0.09 7.18 4.5 10.78
4/27/2022 1:15:00 PM 10.3 50.54 0.09 7.14 4.77 10.75
4/27/2022 1:30:00 PM 10.37 50.666 0.09 7.21 4.89 10.82
4/27/2022 1:45:00 PM 10.3 50.54 0.09 7.18 4.78 10.77
4/27/2022 2:00:00 PM 10.27 50.486 0.09 7.21 4.65 10.79
4/27/2022 2:15:00 PM 10.23 50.414 0.09 7.19 4.53 10.8
4/27/2022 2:30:00 PM 10.2 50.36 0.09 7.19 5.62 10.85
4/27/2022 2:45:00 PM 10.16 50.288 0.09 7.18 4.52 10.85
4/27/2022 3:00:00 PM 10.19 50.342 0.09 7.2 5.21 10.86
4/27/2022 3:15:00 PM 10.13 50.234 0.09 7.19 4.69 10.86
4/27/2022 3:30:00 PM 10.11 50.198 0.09 7.18 4.42 10.9
4/27/2022 3:45:00 PM 10.14 50.252 0.09 7.22 4.54 10.93
4/27/2022 4:00:00 PM 10.04 50.072 0.09 7.15 4.6 10.83
4/27/2022 4:15:00 PM 10.01 50.018 0.09 7.2 4.86 10.85
4/27/2022 4:30:00 PM 10.03 50.054 0.09 7.23 4.7 10.92
4/27/2022 4:45:00 PM 9.96 49.928 0.09 7.22 4.67 10.86
4/27/2022 5:00:00 PM 9.92 49.856 0.09 7.16 4.94 10.8
4/27/2022 5:15:00 PM 9.99 49.982 0.09 7.23 4.93 10.93
4/27/2022 5:30:00 PM 9.97 49.946 0.09 7.24 5.04 10.96
4/27/2022 5:45:00 PM 9.89 49.802 0.09 7.22 6.33 10.92
4/27/2022 6:00:00 PM 9.85 49.73 0.09 7.24 4.74 10.9
4/27/2022 6:15:00 PM 9.81 49.658 0.091 7.19 4.3 10.83
4/27/2022 6:30:00 PM 9.74 49.532 0.091 7.2 4.7 10.84
4/27/2022 6:45:00 PM 9.67 49.406 0.091 7.2 4.95 10.88
4/27/2022 7:00:00 PM 9.6 49.28 0.091 7.16 4.8 10.85
4/27/2022 7:15:00 PM 9.5 49.1 0.091 7.17 4.56 10.85
4/27/2022 7:30:00 PM 9.43 48.974 0.091 7.17 4.42 10.87
4/27/2022 7:45:00 PM 9.37 48.866 0.091 7.18 4.65 10.89
4/27/2022 8:00:00 PM 9.29 48.722 0.091 7.17 4.54 10.9
4/27/2022 8:15:00 PM 9.22 48.596 0.092 7.15 4.4 10.89
4/27/2022 8:30:00 PM 9.13 48.434 0.091 7.19 4.31 10.98
4/27/2022 8:45:00 PM 9.04 48.272 0.092 7.17 4.47 10.98
4/27/2022 9:00:00 PM 8.95 48.11 0.092 7.16 4.38 10.96
4/27/2022 9:15:00 PM 8.87 47.966 0.092 7.13 4.5 10.96
4/27/2022 9:30:00 PM 8.81 47.858 0.092 7.15 4.34 10.95
4/27/2022 9:45:00 PM 8.78 47.804 0.092 7.13 4.59 11
4/27/2022 10:00:00 PM 8.71 47.678 0.092 7.17 12.67 11.03
4/27/2022 10:15:00 PM 8.69 47.642 0.092 7.19 4.6 11.09
4/27/2022 10:30:00 PM 8.65 47.57 0.092 7.12 4.28 10.97
4/27/2022 10:45:00 PM 8.58 47.444 0.092 7.16 4.5 11.06
4/27/2022 11:00:00 PM 8.55 47.39 0.092 7.19 4.63 11.11
4/27/2022 11:15:00 PM 8.52 47.336 0.092 7.17 4.41 11.1
4/27/2022 11:30:00 PM 8.47 47.246 0.092 7.16 4.27 11.1
4/27/2022 11:45:00 PM 8.43 47.174 0.092 7.14 4.6 11.1
4/28/2022 12:00:00 AM 8.38 47.084 0.092 7.19 4.29 11.16
4/28/2022 12:15:00 AM 8.36 47.048 0.093 7.14 4.4 11.08
4/28/2022 12:30:00 AM 8.31 46.958 0.093 7.17 4.32 11.16
4/28/2022 12:45:00 AM 8.3 46.94 0.093 7.17 4.47 11.2
4/28/2022 1:00:00 AM 8.26 46.868 0.093 7.17 4.37 11.18
4/28/2022 1:15:00 AM 8.24 46.832 0.093 7.18 4.29 11.22
4/28/2022 1:30:00 AM 8.2 46.76 0.093 7.17 4.11 11.18
4/28/2022 1:45:00 AM 8.19 46.742 0.093 7.17 4.15 11.19
4/28/2022 2:00:00 AM 8.14 46.652 0.093 7.17 4.11 11.19
4/28/2022 2:15:00 AM 8.11 46.598 0.093 7.14 4.46 11.19
4/28/2022 2:30:00 AM 8.09 46.562 0.093 7.12 3.91 11.18
4/28/2022 2:45:00 AM 8.04 46.472 0.093 7.16 4.09 11.24
4/28/2022 3:00:00 AM 8.01 46.418 0.093 7.15 4.05 11.21
4/28/2022 3:15:00 AM 7.98 46.364 0.093 7.14 4.05 11.25
4/28/2022 3:30:00 AM 7.93 46.274 0.093 7.14 4.29 11.22
4/28/2022 3:45:00 AM 7.91 46.238 0.093 7.13 4.19 11.23
4/28/2022 4:00:00 AM 7.88 46.184 0.093 7.13 4.65 11.24
4/28/2022 4:15:00 AM 7.85 46.13 0.093 7.13 4.32 11.26
4/28/2022 4:30:00 AM 7.81 46.058 0.093 7.15 4.6 11.25
4/28/2022 4:45:00 AM 7.8 46.04 0.093 7.12 4.11 11.25
4/28/2022 5:00:00 AM 7.77 45.986 0.093 7.16 4.37 11.34
4/28/2022 5:15:00 AM 7.74 45.932 0.093 7.13 4.26 11.24
4/28/2022 5:30:00 AM 7.71 45.878 0.093 7.17 4.33 11.35
4/28/2022 5:45:00 AM 7.7 45.86 0.093 7.15 4.12 11.37
4/28/2022 6:00:00 AM 7.68 45.824 0.093 7.12 4.3 11.29
4/28/2022 6:15:00 AM 7.66 45.788 0.093 7.09 4.32 11.29
4/28/2022 6:30:00 AM 7.62 45.716 0.093 7.15 4.18 11.36
4/28/2022 6:45:00 AM 7.6 45.68 0.093 7.16 4.83 11.39
4/28/2022 7:00:00 AM 7.61 45.698 0.093 7.13 4.48 11.42
4/28/2022 7:15:00 AM 7.6 45.68 0.093 7.14 4.48 11.48
4/28/2022 7:30:00 AM 7.64 45.752 0.093 7.09 4.67 11.42
4/28/2022 7:45:00 AM 7.58 45.644 0.093 7.17 4.33 11.57
4/28/2022 8:00:00 AM 7.58 45.644 0.093 7.17 4.24 11.52
4/28/2022 8:15:00 AM 7.62 45.716 0.093 7.17 4.55 11.53
4/28/2022 8:30:00 AM 7.65 45.77 0.093 7.19 4.25 11.58
4/28/2022 8:45:00 AM 7.68 45.824 0.092 7.19 4.01 11.6
4/28/2022 9:00:00 AM 7.77 45.986 0.092 7.2 4.1 11.57
4/28/2022 9:15:00 AM 7.8 46.04 0.092 7.22 4.07 11.64
4/28/2022 9:30:00 AM 7.88 46.184 0.092 7.24 4.12 11.61
4/28/2022 9:45:00 AM 8.04 46.472 0.092 7.2 4.37 11.57
4/28/2022 10:00:00 AM 8.21 46.778 0.092 7.23 4.65 11.52
4/28/2022 10:15:00 AM 8.36 47.048 0.092 7.22 4.2 11.44
4/28/2022 10:30:00 AM 8.62 47.516 0.092 7.26 4.21 11.47
4/28/2022 10:45:00 AM 8.86 47.948 0.092 7.22 4.52 11.36
4/28/2022 11:00:00 AM 9.15 48.47 0.092 7.23 4.18 11.33
4/28/2022 11:15:00 AM 9.45 49.01 0.092 7.22 4.31 11.26
4/28/2022 11:30:00 AM 9.73 49.514 0.091 7.23 4.14 11.2
4/28/2022 11:45:00 AM 10.03 50.054 0.091 7.24 4.54 11.11
4/28/2022 12:00:00 PM 10.27 50.486 0.092 7.21 4.19 11.03
4/28/2022 12:15:00 PM 10.49 50.882 0.091 7.32 4.32 11.04
4/28/2022 12:30:00 PM 10.74 51.332 0.091 7.22 4.73 10.91
4/28/2022 12:45:00 PM 11.01 51.818 0.092 7.24 4.38 10.81
4/28/2022 1:00:00 PM 11.28 52.304 0.092 7.18 4.07 10.71
4/28/2022 1:15:00 PM 11.45 52.61 0.092 7.25 4 10.66
4/28/2022 1:30:00 PM 11.61 52.898 0.091 7.23 4.45 10.72
4/28/2022 1:45:00 PM 11.77 53.186 0.091 7.26 4.31 10.7
4/28/2022 2:00:00 PM 11.98 53.564 0.091 7.28 4.3 10.62
4/28/2022 2:15:00 PM 12.11 53.798 0.091 7.23 4.32 10.51
4/28/2022 2:30:00 PM 12.25 54.05 0.091 7.25 4.65 10.45
4/28/2022 2:45:00 PM 12.32 54.176 0.091 7.28 4.78 10.48
4/28/2022 3:00:00 PM 12.45 54.41 0.091 7.25 4.34 10.44
4/28/2022 3:15:00 PM 12.52 54.536 0.091 7.31 4.66 10.48
4/28/2022 3:30:00 PM 12.57 54.626 0.091 7.24 4.27 10.41
4/28/2022 3:45:00 PM 12.62 54.716 0.092 7.32 4.15 10.44
4/28/2022 4:00:00 PM 12.6 54.68 0.091 7.28 4.37 10.4
4/28/2022 4:15:00 PM 12.61 54.698 0.091 7.28 5.09 10.4
4/28/2022 4:30:00 PM 12.59 54.662 0.091 7.23 4.91 10.39
4/28/2022 4:45:00 PM 12.51 54.518 0.092 7.22 4.48 10.38
4/28/2022 5:00:00 PM 12.45 54.41 0.092 7.24 4.41 10.38
4/28/2022 5:15:00 PM 12.32 54.176 0.092 7.3 4.38 10.43
4/28/2022 5:30:00 PM 12.17 53.906 0.093 7.27 4.38 10.42
4/28/2022 5:45:00 PM 11.99 53.582 0.093 7.26 4.32 10.45
4/28/2022 6:00:00 PM 11.83 53.294 0.093 7.28 4.52 10.46
4/28/2022 6:15:00 PM 11.63 52.934 0.094 7.27 4.4 10.48
4/28/2022 6:30:00 PM 11.47 52.646 0.093 7.26 4.52 10.48
4/28/2022 6:45:00 PM 11.26 52.268 0.093 7.24 4.42 10.51
4/28/2022 7:00:00 PM 11.08 51.944 0.093 7.25 4.4 10.57
4/28/2022 7:15:00 PM 10.85 51.53 0.094 7.24 4.57 10.59
4/28/2022 7:30:00 PM 10.67 51.206 0.094 7.28 4.54 10.65
4/28/2022 7:45:00 PM 10.45 50.81 0.094 7.22 4.32 10.62
4/28/2022 8:00:00 PM 10.26 50.468 0.095 7.23 4.6 10.68
4/28/2022 8:15:00 PM 10.12 50.216 0.094 7.25 4.75 10.71
4/28/2022 8:30:00 PM 9.97 49.946 0.095 7.23 5.23 10.73
4/28/2022 8:45:00 PM 9.82 49.676 0.095 7.21 5.57 10.79
4/28/2022 9:00:00 PM 9.69 49.442 0.095 7.22 4.64 10.81
4/28/2022 9:15:00 PM 9.55 49.19 0.095 7.21 4.57 10.86
4/28/2022 9:30:00 PM 9.39 48.902 0.095 7.18 4.43 10.83
4/28/2022 9:45:00 PM 9.25 48.65 0.096 7.18 4.46 10.89
4/28/2022 10:00:00 PM 9.12 48.416 0.096 7.2 4.75 10.96
4/28/2022 10:15:00 PM 9 48.2 0.096 7.18 4.19 11
4/28/2022 10:30:00 PM 8.87 47.966 0.096 7.13 4.21 10.97
4/28/2022 10:45:00 PM 8.76 47.768 0.096 7.16 4.78 11.03
4/28/2022 11:00:00 PM 8.65 47.57 0.096 7.19 4.56 11.12
4/28/2022 11:15:00 PM 8.55 47.39 0.096 7.14 4.63 11.09
4/28/2022 11:30:00 PM 8.46 47.228 0.096 7.18 4.28 11.16
4/28/2022 11:45:00 PM 8.36 47.048 0.096 7.15 4.18 11.13
4/29/2022 12:00:00 AM 8.27 46.886 0.101 7.16 2.1 11.17
4/29/2022 12:15:00 AM 8.18 46.724 0.096 7.13 4.55 11.18
4/29/2022 12:30:00 AM 8.1 46.58 0.097 7.12 4.08 11.2
4/29/2022 12:45:00 AM 8.03 46.454 0.096 7.17 4.43 11.28
4/29/2022 1:00:00 AM 7.94 46.292 0.096 7.13 4.41 11.25
4/29/2022 1:15:00 AM 7.87 46.166 0.096 7.13 4.38 11.28
4/29/2022 1:30:00 AM 7.8 46.04 0.096 7.14 3.98 11.31
4/29/2022 1:45:00 AM 7.73 45.914 0.096 7.16 4.31 11.35
4/29/2022 2:00:00 AM 7.66 45.788 0.096 7.15 3.97 11.36
4/29/2022 2:15:00 AM 7.6 45.68 0.096 7.06 4.09 11.31
4/29/2022 2:30:00 AM 7.51 45.518 0.096 7.17 4.22 11.43
4/29/2022 2:45:00 AM 7.45 45.41 0.096 7.14 4.06 11.41
4/29/2022 3:00:00 AM 7.4 45.32 0.096 7.13 3.95 11.43
4/29/2022 3:15:00 AM 7.33 45.194 0.096 7.16 4.07 11.48
4/29/2022 3:30:00 AM 7.28 45.104 0.096 7.15 4.51 11.48
4/29/2022 3:45:00 AM 7.23 45.014 0.096 7.14 4 11.5
4/29/2022 4:00:00 AM 7.17 44.906 0.096 7.13 4 11.52
4/29/2022 4:15:00 AM 7.14 44.852 0.096 7.11 3.97 11.49
4/29/2022 4:30:00 AM 7.08 44.744 0.096 7.11 4.22 11.5
4/29/2022 4:45:00 AM 7.02 44.636 0.096 7.17 4.07 11.57
4/29/2022 5:00:00 AM 6.98 44.564 0.096 7.16 4.23 11.55
4/29/2022 5:15:00 AM 6.95 44.51 0.096 7.15 3.86 11.55
4/29/2022 5:30:00 AM 6.89 44.402 0.096 7.18 4.29 11.62
4/29/2022 5:45:00 AM 6.85 44.33 0.096 7.17 6.26 11.62
4/29/2022 6:00:00 AM 6.81 44.258 0.096 7.08 4.69 11.63
4/29/2022 6:15:00 AM 6.79 44.222 0.096 7.06 4.29 11.61
4/29/2022 6:30:00 AM 6.79 44.222 0.096 7.05 4.97 11.57
4/29/2022 6:45:00 AM 6.71 44.078 0.096 7.1 4.09 11.71
4/29/2022 7:00:00 AM 6.7 44.06 0.096 7.15 3.98 11.71
4/29/2022 7:15:00 AM 6.69 44.042 0.096 7.19 4.08 11.79
4/29/2022 7:30:00 AM 6.7 44.06 0.096 7.22 3.85 11.83
4/29/2022 7:45:00 AM 6.74 44.132 0.096 7.22 3.95 11.83
4/29/2022 8:00:00 AM 6.76 44.168 0.095 7.22 3.93 11.87
4/29/2022 8:15:00 AM 6.83 44.294 0.095 7.21 3.97 11.86
4/29/2022 8:30:00 AM 6.91 44.438 0.095 7.19 3.81 11.86
4/29/2022 8:45:00 AM 7 44.6 0.095 7.22 3.97 11.9
4/29/2022 9:00:00 AM 7.1 44.78 0.095 7.23 3.98 11.86
4/29/2022 9:15:00 AM 7.23 45.014 0.095 7.23 4.02 11.83
4/29/2022 9:30:00 AM 7.38 45.284 0.095 7.22 3.97 11.75
4/29/2022 9:45:00 AM 7.57 45.626 0.095 7.19 4.06 11.62
4/29/2022 10:00:00 AM 7.76 45.968 0.094 7.24 3.98 11.69
4/29/2022 10:15:00 AM 7.98 46.364 0.094 7.22 3.82 11.61
4/29/2022 10:30:00 AM 8.27 46.886 0.095 7.24 4.03 11.55
4/29/2022 10:45:00 AM 8.58 47.444 0.094 7.24 4.62 11.51
4/29/2022 11:00:00 AM 8.89 48.002 0.094 7.23 4.16 11.43
4/29/2022 11:15:00 AM 9.21 48.578 0.094 7.24 4.02 11.36
4/29/2022 11:30:00 AM 9.52 49.136 0.094 7.23 3.95 11.24
4/29/2022 11:45:00 AM 9.86 49.748 0.094 7.31 3.82 11.24
4/29/2022 12:00:00 PM 10.16 50.288 0.094 7.3 4.11 11.13
4/29/2022 12:15:00 PM 10.43 50.774 0.094 7.36 4.2 11.11
4/29/2022 12:30:00 PM 10.68 51.224 0.094 7.34 4.18 11.01
4/29/2022 12:45:00 PM 10.92 51.656 0.094 7.19 4.21 10.85
4/29/2022 1:00:00 PM 11.18 52.124 0.094 7.36 4.37 10.89
4/29/2022 1:15:00 PM 11.37 52.466 0.094 7.27 4 10.77
4/29/2022 1:30:00 PM 11.61 52.898 0.093 7.29 4.24 10.73
4/29/2022 1:45:00 PM 11.84 53.312 0.093 7.36 4.18 10.73
4/29/2022 2:00:00 PM 12.09 53.762 0.094 7.32 4.1 10.61
4/29/2022 2:15:00 PM 12.24 54.032 0.094 7.28 4.12 10.53
4/29/2022 2:30:00 PM 12.44 54.392 0.094 7.35 4.01 10.55
4/29/2022 2:45:00 PM 12.56 54.608 0.094 7.34 3.81 10.5
4/29/2022 3:00:00 PM 12.72 54.896 0.093 7.46 4.08 10.52
4/29/2022 3:15:00 PM 12.76 54.968 0.093 7.34 3.99 10.43
4/29/2022 3:30:00 PM 12.9 55.22 0.093 7.42 4.09 10.45
4/29/2022 3:45:00 PM 12.94 55.292 0.094 7.34 4.05 10.36
4/29/2022 4:00:00 PM 13 55.4 0.094 7.37 4.27 10.37
4/29/2022 4:15:00 PM 13.02 55.436 0.094 7.36 4.27 10.35
4/29/2022 4:30:00 PM 12.95 55.31 0.094 7.21 4.45 10.2
4/29/2022 4:45:00 PM 12.95 55.31 0.094 7.27 4.17 10.26
4/29/2022 5:00:00 PM 12.85 55.13 0.094 7.25 4.07 10.15
4/29/2022 5:15:00 PM 12.86 55.148 0.094 7.34 3.93 10.33
4/29/2022 5:30:00 PM 12.73 54.914 0.094 7.28 4.49 10.29
4/29/2022 5:45:00 PM 12.54 54.572 0.094 7.19 4 10.24
4/29/2022 6:00:00 PM 12.36 54.248 0.094 7.18 3.94 10.18
4/29/2022 6:15:00 PM 12.25 54.05 0.094 7.23 3.92 10.28
4/29/2022 6:30:00 PM 12.11 53.798 0.094 7.22 4.06 10.31
4/29/2022 6:45:00 PM 11.89 53.402 0.095 7.15 3.76 10.17
4/29/2022 7:00:00 PM 11.76 53.168 0.095 7.23 3.88 10.31
4/29/2022 7:15:00 PM 11.53 52.754 0.095 7.21 3.83 10.35
4/29/2022 7:30:00 PM 11.3 52.34 0.095 7.15 4.08 10.32
4/29/2022 7:45:00 PM 11.13 52.034 0.095 7.16 4.28 10.35
4/29/2022 8:00:00 PM 10.92 51.656 0.095 7.18 4.02 10.42
4/29/2022 8:15:00 PM 10.76 51.368 0.095 7.16 5.06 10.45
4/29/2022 8:30:00 PM 10.61 51.098 0.096 7.24 4.41 10.54
4/29/2022 8:45:00 PM 10.46 50.828 0.096 7.19 3.99 10.54
4/29/2022 9:00:00 PM 10.28 50.504 0.096 7.18 4.09 10.49
4/29/2022 9:15:00 PM 10.16 50.288 0.096 7.16 4.18 10.54
4/29/2022 9:30:00 PM 10.04 50.072 0.097 7.12 4 10.48
4/29/2022 9:45:00 PM 9.88 49.784 0.097 7.14 4.02 10.6
4/29/2022 10:00:00 PM 9.7 49.46 0.097 7.14 4.03 10.54
4/29/2022 10:15:00 PM 9.57 49.226 0.097 7.09 4.14 10.59
4/29/2022 10:30:00 PM 9.47 49.046 0.097 7.16 3.89 10.75
4/29/2022 10:45:00 PM 9.32 48.776 0.097 7.08 3.79 10.71
4/29/2022 11:00:00 PM 9.21 48.578 0.097 7.13 3.87 10.81
4/29/2022 11:15:00 PM 9.03 48.254 0.097 7.15 4.09 10.54
4/29/2022 11:30:00 PM 8.94 48.092 0.098 7.15 3.66 10.87
4/29/2022 11:45:00 PM 8.82 47.876 0.097 7.17 3.97 10.91
4/30/2022 12:00:00 AM 8.73 47.714 0.097 7.01 3.9 10.83
4/30/2022 12:15:00 AM 8.65 47.57 0.097 7.06 4.17 10.79
4/30/2022 12:30:00 AM 8.56 47.408 0.098 7.04 4 10.83
4/30/2022 12:45:00 AM 8.43 47.174 0.098 7.11 3.96 10.98
4/30/2022 1:00:00 AM 8.38 47.084 0.098 7.01 4.05 10.72
4/30/2022 1:15:00 AM 8.27 46.886 0.098 7.09 4.15 11.01
4/30/2022 1:30:00 AM 8.2 46.76 0.098 6.98 3.9 11.01
4/30/2022 1:45:00 AM 8.12 46.616 0.098 7.06 3.88 10.94
4/30/2022 2:00:00 AM 8.03 46.454 0.098 7.06 3.97 11.03
4/30/2022 2:15:00 AM 7.9 46.22 0.098 7.09 3.52 11.12
4/30/2022 2:30:00 AM 7.83 46.094 0.098 7.05 3.82 11.01
4/30/2022 2:45:00 AM 7.82 46.076 0.098 7.02 4.05 11.06
4/30/2022 3:00:00 AM 7.61 45.698 0.098 7.13 3.87 11.24
4/30/2022 3:15:00 AM 7.6 45.68 0.098 7.1 3.93 11.22
4/30/2022 3:30:00 AM 7.6 45.68 0.098 6.91 3.58 11.08
4/30/2022 3:45:00 AM 7.47 45.446 0.098 7.08 4.16 11.25
4/30/2022 4:00:00 AM 7.35 45.23 0.098 7.1 4.09 11.28
4/30/2022 4:15:00 AM 7.28 45.104 0.098 7.09 3.74 11.21
4/30/2022 4:30:00 AM 7.32 45.176 0.098 6.99 3.7 11.19
4/30/2022 4:45:00 AM 7.15 44.87 0.098 7.07 3.61 11.38
4/30/2022 5:00:00 AM 7.12 44.816 0.098 7.04 3.9 11.34
4/30/2022 5:15:00 AM 7.02 44.636 0.098 7.09 3.64 11.37
4/30/2022 5:30:00 AM 7.02 44.636 0.098 7.03 3.52 11.4
4/30/2022 5:45:00 AM 6.93 44.474 0.098 6.99 4.03 11.27
4/30/2022 6:00:00 AM 6.83 44.294 0.098 7.03 4.13 11.47
4/30/2022 6:15:00 AM 6.86 44.348 0.098 6.99 3.99 11.46
4/30/2022 6:30:00 AM 6.79 44.222 0.098 6.96 3.61 11.28
4/30/2022 6:45:00 AM 6.73 44.114 0.098 7.04 3.93 11.51
4/30/2022 7:00:00 AM 6.7 44.06 0.097 7.05 4 11.53
4/30/2022 7:15:00 AM 6.68 44.024 0.098 7.01 3.68 11.68
4/30/2022 7:30:00 AM 6.66 43.988 0.097 7.07 3.86 11.75
4/30/2022 7:45:00 AM 6.68 44.024 0.097 7.09 3.71 11.75
4/30/2022 8:00:00 AM 6.73 44.114 0.097 7.04 3.92 11.76
4/30/2022 8:15:00 AM 6.87 44.366 0.097 7.1 3.8 11.32
4/30/2022 8:30:00 AM 6.93 44.474 0.097 7.12 3.8 11.76
4/30/2022 8:45:00 AM 7.03 44.654 0.097 7.08 3.72 11.74
4/30/2022 9:00:00 AM 7.23 45.014 0.097 7.05 3.81 11.56
4/30/2022 9:15:00 AM 7.28 45.104 0.097 7.13 3.67 11.78
4/30/2022 9:30:00 AM 7.43 45.374 0.096 7.14 3.87 11.74
4/30/2022 9:45:00 AM 7.59 45.662 0.096 7.21 3.84 11.74
4/30/2022 10:00:00 AM 7.89 46.202 0.096 7.16 3.66 11.57
4/30/2022 10:15:00 AM 8.13 46.634 0.097 7.01 3.48 11.54
4/30/2022 10:30:00 AM 8.48 47.264 0.096 7.2 3.78 11.35
4/30/2022 10:45:00 AM 8.86 47.948 0.096 7.21 3.8 11.32
4/30/2022 11:00:00 AM 9.19 48.542 0.096 7.23 4.33 11.36
4/30/2022 11:15:00 AM 9.59 49.262 0.096 7.25 3.9 11.22
4/30/2022 11:30:00 AM 9.96 49.928 0.096 7.21 3.69 11.18
4/30/2022 11:45:00 AM 10.32 50.576 0.096 7.21 3.94 11.04
4/30/2022 12:00:00 PM 10.71 51.278 0.095 7.22 3.87 10.97
4/30/2022 12:15:00 PM 10.99 51.782 0.095 7.26 3.93 10.9
4/30/2022 12:30:00 PM 11.26 52.268 0.096 7.14 5.2 10.75
4/30/2022 12:45:00 PM 11.61 52.898 0.095 7.35 3.91 10.86
4/30/2022 1:00:00 PM 11.89 53.402 0.095 7.22 4.02 10.68
4/30/2022 1:15:00 PM 12.3 54.14 0.095 7.26 3.91 10.63
4/30/2022 1:30:00 PM 12.54 54.572 0.095 7.3 3.93 10.61
4/30/2022 1:45:00 PM 12.66 54.788 0.095 7.13 3.73 10.29
4/30/2022 2:00:00 PM 12.75 54.95 0.095 7.11 3.9 10.2
4/30/2022 2:15:00 PM 13.15 55.67 0.095 7.29 4.17 10.41
4/30/2022 2:30:00 PM 13.25 55.85 0.095 7.24 3.82 10.33
4/30/2022 2:45:00 PM 13.48 56.264 0.095 7.27 3.58 10.31
4/30/2022 3:00:00 PM 13.52 56.336 0.095 7.27 3.67 10.2
4/30/2022 3:15:00 PM 13.83 56.894 0.095 7.25 4.03 10.31
4/30/2022 3:30:00 PM 13.77 56.786 0.095 7.28 3.96 10.19
4/30/2022 3:45:00 PM 14.01 57.218 0.095 7.37 3.96 10.24
4/30/2022 4:00:00 PM 13.91 57.038 0.095 7.25 3.92 10.09
4/30/2022 4:15:00 PM 13.93 57.074 0.095 7.35 3.85 9.94
4/30/2022 4:30:00 PM 13.99 57.182 0.095 7.22 3.75 10.09
4/30/2022 4:45:00 PM 13.87 56.966 0.095 7.23 3.93 10.04
4/30/2022 5:00:00 PM 13.85 56.93 0.095 7.21 3.65 10
4/30/2022 5:15:00 PM 13.62 56.516 0.095 7.22 3.84 10.01
4/30/2022 5:30:00 PM 13.48 56.264 0.095 7.21 3.96 9.95
4/30/2022 5:45:00 PM 13.26 55.868 0.096 7.1 3.78 9.76
4/30/2022 6:00:00 PM 13.31 55.958 0.096 7.34 3.6 10.19
4/30/2022 6:15:00 PM 13.07 55.526 0.096 7.18 3.89 10.1
4/30/2022 6:30:00 PM 12.82 55.076 0.096 7.22 3.77 9.87
4/30/2022 6:45:00 PM 12.59 54.662 0.096 7.06 3.93 9.91
4/30/2022 7:00:00 PM 12.56 54.608 0.096 7.21 3.91 10.13
4/30/2022 7:15:00 PM 12.41 54.338 0.096 7.2 3.85 10.09
4/30/2022 7:30:00 PM 12.22 53.996 0.096 7.14 4 9.97
4/30/2022 7:45:00 PM 12.07 53.726 0.097 7.13 3.82 10.1
4/30/2022 8:00:00 PM 11.87 53.366 0.097 7.13 3.97 9.96
4/30/2022 8:15:00 PM 11.64 52.952 0.097 7.03 4.16 10.08
4/30/2022 8:30:00 PM 11.52 52.736 0.098 7.06 3.88 10
4/30/2022 8:45:00 PM 11.37 52.466 0.097 7.13 3.97 10.03
4/30/2022 9:00:00 PM 11.27 52.286 0.098 7.16 3.99 10.11
4/30/2022 9:15:00 PM 11.15 52.07 0.098 7.15 4.03 10.23
4/30/2022 9:30:00 PM 11.01 51.818 0.098 7.19 4.31 10.26
4/30/2022 9:45:00 PM 10.86 51.548 0.098 7.14 3.88 10.16
4/30/2022 10:00:00 PM 10.72 51.296 0.098 7.16 3.96 10.28
4/30/2022 10:15:00 PM 10.49 50.882 0.098 7.1 4.02 10.18
4/30/2022 10:30:00 PM 10.41 50.738 0.099 7.06 3.87 10.39
4/30/2022 10:45:00 PM 10.29 50.522 0.099 7.16 3.73 10.46
4/30/2022 11:00:00 PM 10.11 50.198 0.099 7.08 3.8 10.29
4/30/2022 11:15:00 PM 10.04 50.072 0.099 7.11 3.99 10.42
4/30/2022 11:30:00 PM 9.91 49.838 0.099 7.13 3.81 10.5
4/30/2022 11:45:00 PM 9.81 49.658 0.099 7.1 3.92 10.52
5/1/2022 12:00:00 AM 9.73 49.514 0.099 7.15 3.84 10.59
5/1/2022 12:15:00 AM 9.63 49.334 0.099 7.12 4.14 10.63
5/1/2022 12:30:00 AM 9.5 49.1 0.099 7.07 3.93 10.39
5/1/2022 12:45:00 AM 9.41 48.938 0.099 7.05 3.79 10.55
5/1/2022 1:00:00 AM 9.33 48.794 0.099 7.15 3.75 10.59
5/1/2022 1:15:00 AM 9.21 48.578 0.099 7.02 3.94 10.53
5/1/2022 1:30:00 AM 9.12 48.416 0.105 6.99 1.74 10.63
5/1/2022 1:45:00 AM 8.99 48.182 0.099 7.02 3.93 10.66
5/1/2022 2:00:00 AM 8.94 48.092 0.099 7.16 3.83 10.76
5/1/2022 2:15:00 AM 8.85 47.93 0.099 7.15 3.91 10.88
5/1/2022 2:30:00 AM 8.78 47.804 0.099 7.13 3.81 10.78
5/1/2022 2:45:00 AM 8.66 47.588 0.099 7.04 3.67 10.75
5/1/2022 3:00:00 AM 8.58 47.444 0.099 7.09 3.82 10.89
5/1/2022 3:15:00 AM 8.49 47.282 0.099 7.13 3.78 10.85
5/1/2022 3:30:00 AM 8.41 47.138 0.1 7.06 3.63 10.92
5/1/2022 3:45:00 AM 8.34 47.012 0.1 7.09 3.9 10.91
5/1/2022 4:00:00 AM 8.26 46.868 0.1 7.07 3.84 10.9
5/1/2022 4:15:00 AM 8.16 46.688 0.1 7.13 3.79 11.06
5/1/2022 4:30:00 AM 8.09 46.562 0.099 7.04 3.7 11.03
5/1/2022 4:45:00 AM 8.04 46.472 0.1 7.06 4.07 11.03
5/1/2022 5:00:00 AM 7.91 46.238 0.1 7.13 4.04 11.11
5/1/2022 5:15:00 AM 7.88 46.184 0.099 7.04 3.74 11.06
5/1/2022 5:30:00 AM 7.77 45.986 0.099 7.11 3.68 11.13
5/1/2022 5:45:00 AM 7.72 45.896 0.099 7.07 3.73 11.12
5/1/2022 6:00:00 AM 7.61 45.698 0.099 7.04 3.81 11.07
5/1/2022 6:15:00 AM 7.61 45.698 0.099 7.06 4.23 11.1
5/1/2022 6:30:00 AM 7.54 45.572 0.099 7.05 3.99 11.09
5/1/2022 6:45:00 AM 7.43 45.374 0.099 7.13 3.82 11.36
5/1/2022 7:00:00 AM 7.43 45.374 0.099 7.09 3.73 11.28
5/1/2022 7:15:00 AM 7.41 45.338 0.099 7.08 3.77 11.42
5/1/2022 7:30:00 AM 7.4 45.32 0.099 7.13 3.77 11.47
5/1/2022 7:45:00 AM 7.43 45.374 0.099 7.18 3.89 11.59
5/1/2022 8:00:00 AM 7.47 45.446 0.099 7.15 3.83 11.57
5/1/2022 8:15:00 AM 7.54 45.572 0.099 7.18 5.23 11.61
5/1/2022 8:30:00 AM 7.63 45.734 0.099 7.2 3.59 11.63
5/1/2022 8:45:00 AM 7.74 45.932 0.098 7.2 3.73 11.71
5/1/2022 9:00:00 AM 7.85 46.13 0.098 7.18 3.7 11.6
5/1/2022 9:15:00 AM 7.99 46.382 0.098 7.2 3.6 11.63
5/1/2022 9:30:00 AM 8.16 46.688 0.098 7.16 3.5 11.55
5/1/2022 9:45:00 AM 8.33 46.994 0.097 7.11 3.6 11.38
5/1/2022 10:00:00 AM 8.5 47.3 0.097 7.19 3.6 11.38
5/1/2022 10:15:00 AM 8.84 47.912 0.097 7.16 3.53 10.44
5/1/2022 10:30:00 AM 9.22 48.596 0.098 7.22 3.4 11.36
5/1/2022 10:45:00 AM 9.62 49.316 0.097 7.17 3.76 11.22
5/1/2022 11:00:00 AM 9.99 49.982 0.097 7.23 3.55 11.18
5/1/2022 11:15:00 AM 10.39 50.702 0.097 7.17 3.92 11.05
5/1/2022 11:30:00 AM 10.77 51.386 0.097 7.21 3.86 10.93
5/1/2022 11:45:00 AM 11.13 52.034 0.097 7.21 3.83 10.58
5/1/2022 12:00:00 PM 11.63 52.934 0.097 7.25 3.75 10.81
5/1/2022 12:15:00 PM 11.86 53.348 0.096 7.13 3.69 10.51
5/1/2022 12:30:00 PM 12.26 54.068 0.096 7.13 3.85 10.51
5/1/2022 12:45:00 PM 12.62 54.716 0.096 7.23 3.67 10.52
5/1/2022 1:00:00 PM 12.74 54.932 0.097 7.18 3.53 10.4
5/1/2022 1:15:00 PM 12.96 55.328 0.096 7.15 3.78 10.37
5/1/2022 1:30:00 PM 13.47 56.246 0.096 7.31 3.62 10.42
5/1/2022 1:45:00 PM 13.59 56.462 0.096 7.26 3.66 10.33
5/1/2022 2:00:00 PM 13.67 56.606 0.096 7.24 3.59 10.29
5/1/2022 2:15:00 PM 13.49 56.282 0.096 7.24 3.37 10.21
5/1/2022 2:30:00 PM 13.72 56.696 0.096 7.38 3.66 10.25
5/1/2022 2:45:00 PM 13.79 56.822 0.096 7.34 3.69 10.19
5/1/2022 3:00:00 PM 13.8 56.84 0.096 7.33 3.73 10.2
5/1/2022 3:15:00 PM 13.73 56.714 0.096 7.22 3.75 10.13
5/1/2022 3:30:00 PM 13.82 56.876 0.096 7.34 3.72 10.15
5/1/2022 3:45:00 PM 13.79 56.822 0.097 7.38 3.49 10.17
5/1/2022 4:00:00 PM 13.48 56.264 0.096 7.21 3.75 9.87
5/1/2022 4:15:00 PM 13.37 56.066 0.096 7.18 3.95 9.86
5/1/2022 4:30:00 PM 13.32 55.976 0.096 7.17 3.71 9.94
5/1/2022 4:45:00 PM 13.3 55.94 0.097 7.28 3.94 10.07
5/1/2022 5:00:00 PM 13.15 55.67 0.097 7.25 3.53 10.02
5/1/2022 5:15:00 PM 13.02 55.436 0.097 7.27 3.92 10.03
5/1/2022 5:30:00 PM 12.88 55.184 0.097 7.23 3.76 10.03
5/1/2022 5:45:00 PM 12.72 54.896 0.097 7.19 4.18 9.7
5/1/2022 6:00:00 PM 12.53 54.554 0.097 7.1 3.99 9.69
5/1/2022 6:15:00 PM 12.48 54.464 0.097 7.1 3.98 10.01
5/1/2022 6:30:00 PM 12.49 54.482 0.098 7.22 4.12 10.15
5/1/2022 6:45:00 PM 12.42 54.356 0.098 7.23 3.71 10.19
5/1/2022 7:00:00 PM 12.32 54.176 0.098 7.17 3.74 10.1
5/1/2022 7:15:00 PM 12.18 53.924 0.098 7.13 3.68 9.92
5/1/2022 7:30:00 PM 12.14 53.852 0.098 7.15 3.82 9.89
5/1/2022 7:45:00 PM 12.06 53.708 0.098 7.12 3.58 10.04
5/1/2022 8:00:00 PM 12 53.6 0.099 7.13 3.79 9.67
5/1/2022 8:15:00 PM 11.97 53.546 0.099 7.13 3.64 9.85
5/1/2022 8:30:00 PM 11.88 53.384 0.099 7.09 3.84 9.85
5/1/2022 8:45:00 PM 11.86 53.348 0.099 7.12 3.83 9.92
5/1/2022 9:00:00 PM 11.76 53.168 0.099 7.06 3.94 9.88
5/1/2022 9:15:00 PM 11.65 52.97 0.099 7.02 3.81 9.68
5/1/2022 9:30:00 PM 11.61 52.898 0.1 7.01 3.77 9.77
5/1/2022 9:45:00 PM 11.66 52.988 0.1 7.13 3.5 10.05
5/1/2022 10:00:00 PM 11.56 52.808 0.1 7.09 4.07 9.82
5/1/2022 10:15:00 PM 11.49 52.682 0.1 7.05 3.73 9.8
5/1/2022 10:30:00 PM 11.46 52.628 0.1 7.07 3.89 9.82
5/1/2022 10:45:00 PM 11.5 52.7 0.1 7.14 3.79 10.07
5/1/2022 11:00:00 PM 11.48 52.664 0.101 7.15 3.73 10.11
5/1/2022 11:15:00 PM 11.4 52.52 0.1 7.13 3.65 9.81
5/1/2022 11:30:00 PM 11.17 52.106 0.1 6.92 3.85 9.5
5/1/2022 11:45:00 PM 11.34 52.412 0.1 7.09 3.89 10.01
5/2/2022 12:00:00 AM 11.32 52.376 0.1 7.11 3.72 10.09
5/2/2022 12:15:00 AM 11.26 52.268 0.1 7.11 3.61 10.13
5/2/2022 12:30:00 AM 11.25 52.25 0.101 7.1 4.1 10.07
5/2/2022 12:45:00 AM 11.17 52.106 0.101 7.06 3.68 10.01
5/2/2022 1:00:00 AM 11.18 52.124 0.101 7.11 3.5 10.12
5/2/2022 1:15:00 AM 11.13 52.034 0.1 7.1 3.81 10.06
5/2/2022 1:30:00 AM 11.08 51.944 0.1 7.05 3.61 9.73
5/2/2022 1:45:00 AM 11.08 51.944 0.101 7.06 3.77 10.07
5/2/2022 2:00:00 AM 10.99 51.782 0.1 6.98 3.59 9.77
5/2/2022 2:15:00 AM 11.03 51.854 0.101 7.06 3.63 10.21
5/2/2022 2:30:00 AM 11.01 51.818 0.1 7.06 3.55 10.17
5/2/2022 2:45:00 AM 11 51.8 0.1 7.09 4.25 10.13
5/2/2022 3:00:00 AM 10.98 51.764 0.1 7.12 4.12 10.19
5/2/2022 3:15:00 AM 10.93 51.674 0.1 7.09 3.9 9.94
5/2/2022 3:30:00 AM 10.87 51.566 0.1 7.06 4.06 10.05
5/2/2022 3:45:00 AM 10.88 51.584 0.1 7.05 3.64 10.17
5/2/2022 4:00:00 AM 10.89 51.602 0.1 7.11 3.66 10.21
5/2/2022 4:15:00 AM 10.82 51.476 0.1 6.97 4.03 10.08
5/2/2022 4:30:00 AM 10.85 51.53 0.1 7.09 3.81 10.21
5/2/2022 4:45:00 AM 10.81 51.458 0.1 7.07 4.38 10.13
5/2/2022 5:00:00 AM 10.78 51.404 0.099 7.08 3.89 10.17
5/2/2022 5:15:00 AM 10.78 51.404 0.1 7.06 3.74 10.17
5/2/2022 5:30:00 AM 10.73 51.314 0.099 7.01 3.71 10.03
5/2/2022 5:45:00 AM 10.71 51.278 0.1 7.09 3.85 10.26
5/2/2022 6:00:00 AM 10.71 51.278 0.1 7.09 4.06 10.18
5/2/2022 6:15:00 AM 10.72 51.296 0.1 7.1 3.78 10.3
5/2/2022 6:30:00 AM 10.7 51.26 0.1 7.08 3.8 10.27
5/2/2022 6:45:00 AM 10.68 51.224 0.1 7.06 5.15 10.26
5/2/2022 7:00:00 AM 10.68 51.224 0.1 7.06 4.14 10.25
5/2/2022 7:15:00 AM 10.66 51.188 0.099 7.04 3.96 10.2
5/2/2022 7:30:00 AM 10.73 51.314 0.099 7.13 3.71 10.46
5/2/2022 7:45:00 AM 10.77 51.386 0.099 7.17 4.06 10.57
5/2/2022 8:00:00 AM 10.79 51.422 0.099 7.17 3.75 10.61
5/2/2022 8:15:00 AM 10.76 51.368 0.099 7.05 3.77 10.49
5/2/2022 8:30:00 AM 10.77 51.386 0.099 7.14 4.16 10.28
5/2/2022 8:45:00 AM 10.85 51.53 0.098 7.16 3.82 10.66
5/2/2022 9:00:00 AM 10.86 51.548 0.098 7.05 3.85 10.58
5/2/2022 9:15:00 AM 10.97 51.746 0.099 7.2 3.55 10.63
5/2/2022 9:30:00 AM 11.06 51.908 0.098 7.22 3.58 10.62
5/2/2022 9:45:00 AM 11.1 51.98 0.098 7.24 3.82 10.47
5/2/2022 10:00:00 AM 11.21 52.178 0.098 7.19 3.71 10.7
5/2/2022 10:15:00 AM 11.4 52.52 0.098 7.28 3.7 10.73
5/2/2022 10:30:00 AM 11.53 52.754 0.098 7.32 3.59 10.84
5/2/2022 10:45:00 AM 11.64 52.952 0.097 7.21 3.83 10.6
5/2/2022 11:00:00 AM 11.81 53.258 0.097 7.23 3.83 10.7
5/2/2022 11:15:00 AM 11.91 53.438 0.097 7.15 3.53 10.57
5/2/2022 11:30:00 AM 12.02 53.636 0.097 7.28 3.9 10.64
5/2/2022 11:45:00 AM 12.06 53.708 0.097 7.23 3.78 10.62
5/2/2022 12:00:00 PM 12.14 53.852 0.097 7.26 3.77 10.56
5/2/2022 12:15:00 PM 12.12 53.816 0.097 7.08 3.84 10.34
5/2/2022 12:30:00 PM 12.27 54.086 0.097 7.24 3.67 10.52
5/2/2022 12:45:00 PM 12.17 53.906 0.097 7.18 3.73 10.33
5/2/2022 1:00:00 PM 12.25 54.05 0.096 7.27 3.92 10.44
5/2/2022 1:15:00 PM 12.29 54.122 0.097 7.28 3.81 10.5
5/2/2022 1:30:00 PM 12.16 53.888 0.097 7.12 3.75 9.94
5/2/2022 1:45:00 PM 12.51 54.518 0.097 7.17 3.72 10.46
5/2/2022 2:00:00 PM 13.02 55.436 0.096 7.18 3.82 10.37
5/2/2022 2:15:00 PM 13.32 55.976 0.096 7.25 3.89 10.33
5/2/2022 2:30:00 PM 13.04 55.472 0.097 7.13 3.81 10.25
5/2/2022 2:45:00 PM 13.11 55.598 0.097 7.26 3.69 10.3
5/2/2022 3:00:00 PM 13.09 55.562 0.097 7.22 3.78 10.26
5/2/2022 3:15:00 PM 13.17 55.706 0.097 7.26 3.76 10.23
5/2/2022 3:30:00 PM 13.18 55.724 0.097 7.32 3.85 10.3
5/2/2022 3:45:00 PM 13.05 55.49 0.097 7.19 3.87 10.12
5/2/2022 4:00:00 PM 12.98 55.364 0.097 7.14 4.08 10.09
5/2/2022 4:15:00 PM 13.21 55.778 0.097 7.23 3.78 10.29
5/2/2022 4:30:00 PM 13.17 55.706 0.097 7.23 3.85 10.21
5/2/2022 4:45:00 PM 12.99 55.382 0.097 7.24 3.82 10.1
5/2/2022 5:00:00 PM 12.78 55.004 0.097 7.03 3.85 9.81
5/2/2022 5:15:00 PM 12.96 55.328 0.097 7.14 3.71 10
5/2/2022 5:30:00 PM 12.98 55.364 0.097 7.12 3.68 10.06
5/2/2022 5:45:00 PM 12.9 55.22 0.097 7.07 3.76 9.99
5/2/2022 6:00:00 PM 12.96 55.328 0.097 7.17 3.72 10
5/2/2022 6:15:00 PM 12.8 55.04 0.097 7.06 3.64 9.94
5/2/2022 6:30:00 PM 12.72 54.896 0.098 6.98 3.62 9.85
5/2/2022 6:45:00 PM 12.85 55.13 0.098 7.15 3.82 9.98
5/2/2022 7:00:00 PM 12.65 54.77 0.098 7.01 3.7 9.67
5/2/2022 7:15:00 PM 12.56 54.608 0.098 7.04 3.69 9.44
5/2/2022 7:30:00 PM 12.56 54.608 0.098 7.07 3.75 9.73
5/2/2022 7:45:00 PM 12.53 54.554 0.098 7.07 3.79 9.87
5/2/2022 8:00:00 PM 12.34 54.212 0.099 6.95 3.71 9.58
5/2/2022 8:15:00 PM 12.41 54.338 0.097 7.09 3.75 9.61
5/2/2022 8:30:00 PM 12.32 54.176 0.099 6.99 3.69 9.65
5/2/2022 8:45:00 PM 12.25 54.05 0.099 7.06 4.05 9.64
5/2/2022 9:00:00 PM 12.25 54.05 0.099 7.03 4 9.79
5/2/2022 9:15:00 PM 12.14 53.852 0.1 7.05 3.7 9.67
5/2/2022 9:30:00 PM 12.19 53.942 0.1 7.07 4 9.86
5/2/2022 9:45:00 PM 12.17 53.906 0.1 7.1 3.78 9.88
5/2/2022 10:00:00 PM 12.11 53.798 0.1 7.01 3.53 9.82
5/2/2022 10:15:00 PM 12.04 53.672 0.1 7.09 3.65 9.73
5/2/2022 10:30:00 PM 11.95 53.51 0.1 7.04 3.69 9.77
5/2/2022 10:45:00 PM 11.92 53.456 0.1 7.03 3.56 9.79
5/2/2022 11:00:00 PM 11.89 53.402 0.1 7.04 3.7 9.87
5/2/2022 11:15:00 PM 11.75 53.15 0.101 6.97 3.61 9.7
5/2/2022 11:30:00 PM 11.79 53.222 0.1 7.05 3.76 9.88
5/2/2022 11:45:00 PM 11.61 52.898 0.1 6.98 3.87 9.56
5/3/2022 12:00:00 AM 11.7 53.06 0.1 7.05 4.17 10.01
5/3/2022 12:15:00 AM 11.57 52.826 0.1 7.01 3.8 9.91
5/3/2022 12:30:00 AM 11.52 52.736 0.1 7.03 3.85 9.93
5/3/2022 12:45:00 AM 11.55 52.79 0.1 7.08 3.87 9.98
5/3/2022 1:00:00 AM 11.48 52.664 0.101 7.02 3.85 9.93
5/3/2022 1:15:00 AM 11.53 52.754 0.101 7.14 3.93 10.12
5/3/2022 1:30:00 AM 11.43 52.574 0.101 7.04 3.64 10
5/3/2022 1:45:00 AM 11.45 52.61 0.102 7.07 3.8 10.17
5/3/2022 2:00:00 AM 11.35 52.43 0.101 6.99 3.84 10.02
5/3/2022 2:15:00 AM 11.35 52.43 0.101 7.03 3.84 10.02
5/3/2022 2:30:00 AM 11.35 52.43 0.101 7.08 3.71 10.07
5/3/2022 2:45:00 AM 11.29 52.322 0.1 7.05 3.5 9.89
5/3/2022 3:00:00 AM 11.31 52.358 0.101 7.02 3.79 10.06
5/3/2022 3:15:00 AM 11.23 52.214 0.101 6.98 3.82 9.82
5/3/2022 3:30:00 AM 11.25 52.25 0.101 7.04 3.73 10.07
5/3/2022 3:45:00 AM 11.19 52.142 0.101 7.03 3.64 10.07
5/3/2022 4:00:00 AM 11.19 52.142 0.101 7.07 3.67 10.21
5/3/2022 4:15:00 AM 11.02 51.836 0.1 7.01 3.45 9.84
5/3/2022 4:30:00 AM 10.97 51.746 0.101 6.95 3.64 9.71
5/3/2022 4:45:00 AM 10.93 51.674 0.101 7 3.59 9.77
5/3/2022 5:00:00 AM 10.86 51.548 0.1 7.01 3.8 10.06
5/3/2022 5:15:00 AM 10.83 51.494 0.101 7 3.45 10.16
5/3/2022 5:30:00 AM 10.71 51.278 0.1 6.93 3.98 10.09
5/3/2022 5:45:00 AM 10.7 51.26 0.1 7.03 3.62 10.11
5/3/2022 6:00:00 AM 10.61 51.098 0.1 6.96 3.73 10.17
5/3/2022 6:15:00 AM 10.48 50.864 0.1 6.92 3.65 9.94
5/3/2022 6:30:00 AM 10.51 50.918 0.1 7.03 3.73 9.68
5/3/2022 6:45:00 AM 10.51 50.918 0.1 7.08 3.55 10.47
5/3/2022 7:00:00 AM 10.55 50.99 0.1 7.1 3.73 10.63
5/3/2022 7:15:00 AM 10.48 50.864 0.1 7.02 3.81 10.48
5/3/2022 7:30:00 AM 10.45 50.81 0.1 6.94 3.73 10.49
5/3/2022 7:45:00 AM 10.49 50.882 0.1 6.97 3.85 10.52
5/3/2022 8:00:00 AM 10.51 50.918 0.099 7.11 3.78 10.64
5/3/2022 8:15:00 AM 10.48 50.864 0.099 7.04 3.92 10.68
5/3/2022 8:30:00 AM 10.56 51.008 0.099 7.15 3.68 10.72
5/3/2022 8:45:00 AM 10.61 51.098 0.099 7.05 3.77 10.71
5/3/2022 9:00:00 AM 10.79 51.422 0.099 7.14 3.7 10.77
5/3/2022 9:15:00 AM 10.91 51.638 0.099 7.11 3.79 10.85
5/3/2022 9:30:00 AM 11.03 51.854 0.098 7.22 3.68 10.83
5/3/2022 9:45:00 AM 11.18 52.124 0.099 7.18 3.66 10.76
5/3/2022 10:00:00 AM 11.39 52.502 0.098 7.17 3.62 10.65
5/3/2022 10:15:00 AM 11.58 52.844 0.098 7.14 3.68 10.37
5/3/2022 10:30:00 AM 11.84 53.312 0.098 7.12 3.49 10.7
5/3/2022 10:45:00 AM 12.18 53.924 0.098 7.23 3.61 10.51
5/3/2022 11:00:00 AM 12.53 54.554 0.097 7.26 3.65 10.58
5/3/2022 11:15:00 AM 12.8 55.04 0.097 7.25 3.69 10.55
5/3/2022 11:30:00 AM 13.1 55.58 0.097 7.21 3.89 10.59
5/3/2022 11:45:00 AM 13.37 56.066 0.097 7.25 3.35 10.44
5/3/2022 12:00:00 PM 13.66 56.588 0.097 7.21 3.82 10.49
5/3/2022 12:15:00 PM 13.98 57.164 0.097 7.17 3.68 10.34
5/3/2022 12:30:00 PM 14.37 57.866 0.097 7.29 5.53 10.26
5/3/2022 12:45:00 PM 14.53 58.154 0.097 7.24 4.48 10.16
5/3/2022 1:00:00 PM 14.86 58.748 0.097 7.39 3.77 10.25
5/3/2022 1:15:00 PM 14.79 58.622 0.097 7.25 3.82 10.13
5/3/2022 1:30:00 PM 15 59 0.097 7.33 3.95 10.03
5/3/2022 1:45:00 PM 14.94 58.892 0.097 7.32 3.56 9.89
5/3/2022 2:00:00 PM 14.89 58.802 0.097 7.24 3.53 10.01
5/3/2022 2:15:00 PM 15.06 59.108 0.097 7.33 3.49 10.12
5/3/2022 2:30:00 PM 15.02 59.036 0.096 7.32 3.65 9.94
5/3/2022 2:45:00 PM 15.15 59.27 0.096 7.4 3.67 10.09
5/3/2022 3:00:00 PM 15.05 59.09 0.096 7.3 3.7 9.97
5/3/2022 3:15:00 PM 15.09 59.162 0.096 7.32 3.7 9.98
5/3/2022 3:30:00 PM 15.27 59.486 0.097 7.32 3.77 10.01
5/3/2022 3:45:00 PM 15.23 59.414 0.097 7.3 3.8 9.9
5/3/2022 4:00:00 PM 15.01 59.018 0.096 7.2 3.68 9.63
5/3/2022 4:15:00 PM 15.14 59.252 0.096 7.34 3.59 9.94
5/3/2022 4:30:00 PM 14.95 58.91 0.096 7.2 3.63 9.75
5/3/2022 4:45:00 PM 14.95 58.91 0.097 7.23 3.64 9.79
5/3/2022 5:00:00 PM 14.68 58.424 0.097 7.06 3.62 9.69
5/3/2022 5:15:00 PM 14.98 58.964 0.097 7.3 3.69 9.9
5/3/2022 5:30:00 PM 14.87 58.766 0.097 7.25 5.09 9.88
5/3/2022 5:45:00 PM 14.69 58.442 0.097 7.22 3.47 9.7
5/3/2022 6:00:00 PM 14.46 58.028 0.097 7.11 3.71 9.69
5/3/2022 6:15:00 PM 14.49 58.082 0.097 7.17 3.44 9.79
5/3/2022 6:30:00 PM 14.4 57.92 0.097 7.12 3.99 9.72
5/3/2022 6:45:00 PM 14.41 57.938 0.098 7.16 3.76 9.73
5/3/2022 7:00:00 PM 14.48 58.064 0.098 7.26 3.53 9.81
5/3/2022 7:15:00 PM 14.29 57.722 0.098 7.17 3.65 9.56
5/3/2022 7:30:00 PM 14.16 57.488 0.098 7.14 3.66 9.48
5/3/2022 7:45:00 PM 14.07 57.326 0.099 7.13 3.69 9.12
5/3/2022 8:00:00 PM 13.84 56.912 0.099 6.97 3.94 9.29
5/3/2022 8:15:00 PM 13.83 56.894 0.099 7.04 3.67 9.27
5/3/2022 8:30:00 PM 13.76 56.768 0.1 7.04 3.78 9.11
5/3/2022 8:45:00 PM 13.61 56.498 0.1 7.04 3.77 9.18
5/3/2022 9:00:00 PM 13.58 56.444 0.1 7 4.23 9.19
5/3/2022 9:15:00 PM 13.65 56.57 0.1 7.1 3.7 9.41
5/3/2022 9:30:00 PM 13.49 56.282 0.101 7.04 3.76 9.31
5/3/2022 9:45:00 PM 13.44 56.192 0.101 7.08 4.15 9.35
5/3/2022 10:00:00 PM 13.45 56.21 0.101 7.11 3.85 9.45
5/3/2022 10:15:00 PM 13.32 55.976 0.101 7.06 3.68 9.41
5/3/2022 10:30:00 PM 13.19 55.742 0.101 7.01 3.83 9.21
5/3/2022 10:45:00 PM 12.99 55.382 0.1 6.89 3.85 9.26
5/3/2022 11:00:00 PM 13.12 55.616 0.101 6.99 3.96 9.52
5/3/2022 11:15:00 PM 13.09 55.562 0.101 7.03 3.54 9.32
5/3/2022 11:30:00 PM 13.03 55.454 0.101 7.02 3.72 9.48
5/3/2022 11:45:00 PM 13.04 55.472 0.102 7.08 3.78 9.55
5/4/2022 12:00:00 AM 12.99 55.382 0.102 7.1 3.79 9.5
5/4/2022 12:15:00 AM 12.94 55.292 0.102 7.11 3.89 9.58
5/4/2022 12:30:00 AM 12.81 55.058 0.102 7.04 3.78 9.45
5/4/2022 12:45:00 AM 12.67 54.806 0.1 7.01 4.77 9.43
5/4/2022 1:00:00 AM 12.73 54.914 0.101 7.11 4.14 9.63
5/4/2022 1:15:00 AM 12.58 54.644 0.101 7.03 4.14 9.47
5/4/2022 1:30:00 AM 12.58 54.644 0.101 7.06 3.8 9.62
5/4/2022 1:45:00 AM 12.46 54.428 0.101 7.06 3.81 9.52
5/4/2022 2:00:00 AM 12.43 54.374 0.101 7.02 3.77 9.3
5/4/2022 2:15:00 AM 12.3 54.14 0.101 6.98 3.75 9.37
5/4/2022 2:30:00 AM 12.24 54.032 0.101 7.01 4.15 9.59
5/4/2022 2:45:00 AM 12.25 54.05 0.101 7.07 4.09 9.61
5/4/2022 3:00:00 AM 12.15 53.87 0.101 6.99 3.82 9.45
5/4/2022 3:15:00 AM 12.09 53.762 0.101 7.03 3.89 9.6
5/4/2022 3:30:00 AM 11.98 53.564 0.101 6.96 3.91 9.33
5/4/2022 3:45:00 AM 12.02 53.636 0.101 7 3.95 9.73
5/4/2022 4:00:00 AM 11.92 53.456 0.101 6.99 3.86 9.27
5/4/2022 4:15:00 AM 11.91 53.438 0.101 7.01 3.96 9.43
5/4/2022 4:30:00 AM 11.86 53.348 0.101 6.99 3.72 9.58
5/4/2022 4:45:00 AM 11.87 53.366 0.102 7 4.01 9.81
5/4/2022 5:00:00 AM 11.84 53.312 0.101 7.04 4.03 9.66
5/4/2022 5:15:00 AM 11.78 53.204 0.101 6.98 4.12 9.59
5/4/2022 5:30:00 AM 11.78 53.204 0.1 7.01 3.89 9.64
5/4/2022 5:45:00 AM 11.81 53.258 0.101 7.04 4.05 9.76
5/4/2022 6:00:00 AM 11.71 53.078 0.1 6.97 3.81 9.31
5/4/2022 6:15:00 AM 11.76 53.168 0.1 7.01 4.44 9.84
5/4/2022 6:30:00 AM 11.67 53.006 0.1 6.87 4.48 9.78
5/4/2022 6:45:00 AM 11.77 53.186 0.1 7.05 4.5 9.97
5/4/2022 7:00:00 AM 11.72 53.096 0.1 7.04 4.23 9.81
5/4/2022 7:15:00 AM 11.76 53.168 0.1 7.13 4.4 10.14
5/4/2022 7:30:00 AM 11.53 52.754 0.099 6.86 4.04 9.87
5/4/2022 7:45:00 AM 11.66 52.988 0.101 7.04 4.37 10.02
5/4/2022 8:00:00 AM 11.68 53.024 0.1 7.09 3.94 10.05
5/4/2022 8:15:00 AM 11.65 52.97 0.1 7.06 4.42 10.13
5/4/2022 8:30:00 AM 11.63 52.934 0.1 7.1 3.85 10.14
5/4/2022 8:45:00 AM 11.6 52.88 0.1 7.11 3.8 10.02
5/4/2022 9:00:00 AM 11.62 52.916 0.1 7.04 3.89 10.21
5/4/2022 9:15:00 AM 11.71 53.078 0.1 7.13 3.86 10.4
5/4/2022 9:30:00 AM 11.69 53.042 0.1 7.09 3.73 10.21
5/4/2022 9:45:00 AM 11.76 53.168 0.1 7.12 3.77 10.44
5/4/2022 10:00:00 AM 11.77 53.186 0.1 7.15 3.77 10.42
5/4/2022 10:15:00 AM 11.81 53.258 0.099 7.14 4.15 10.49
5/4/2022 10:30:00 AM 11.88 53.384 0.099 7.18 3.62 10.5
5/4/2022 10:45:00 AM 11.96 53.528 0.099 7.13 3.55 10.44
5/4/2022 11:00:00 AM 12.13 53.834 0.098 7.2 3.7 10.53
5/4/2022 11:15:00 AM 12.16 53.888 0.098 7.21 3.61 10.17
5/4/2022 11:30:00 AM 12.29 54.122 0.098 7.15 3.58 10.43
5/4/2022 11:45:00 AM 12.23 54.014 0.098 7.05 3.52 10.14
5/4/2022 12:00:00 PM 12.49 54.482 0.097 7.23 3.72 10.5
5/4/2022 12:15:00 PM 12.53 54.554 0.097 7.21 3.68 10.44
5/4/2022 12:30:00 PM 12.71 54.878 0.097 7.13 3.75 10.35
5/4/2022 12:45:00 PM 12.98 55.364 0.097 7.2 3.7 10.32
5/4/2022 1:00:00 PM 13.06 55.508 0.097 7.13 3.69 10.32
5/4/2022 1:15:00 PM 13.15 55.67 0.097 7.18 3.79 10.34
5/4/2022 1:30:00 PM 13.27 55.886 0.097 7.28 3.8 10.39
5/4/2022 1:45:00 PM 13.42 56.156 0.097 7.3 3.7 10.38
5/4/2022 2:00:00 PM 13.6 56.48 0.097 7.25 3.76 10.41
5/4/2022 2:15:00 PM 13.91 57.038 0.096 7.2 3.87 10.22
5/4/2022 2:30:00 PM 13.99 57.182 0.096 7.14 3.86 10
5/4/2022 2:45:00 PM 14.3 57.74 0.096 7.24 3.84 10.16
5/4/2022 3:00:00 PM 14.65 58.37 0.096 7.26 3.72 10.16
5/4/2022 3:15:00 PM 14.57 58.226 0.096 7.27 3.82 10.09
5/4/2022 3:30:00 PM 14.75 58.55 0.096 7.3 3.72 10.03
5/4/2022 3:45:00 PM 14.91 58.838 0.096 7.32 3.66 9.91
5/4/2022 4:00:00 PM 14.67 58.406 0.097 7.15 3.63 9.65
5/4/2022 4:15:00 PM 14.78 58.604 0.097 7.23 3.73 9.73
5/4/2022 4:30:00 PM 14.64 58.352 0.096 7.13 4.17 9.43
5/4/2022 4:45:00 PM 14.66 58.388 0.097 7.18 3.89 9.57
5/4/2022 5:00:00 PM 14.69 58.442 0.097 7.23 3.88 9.65
5/4/2022 5:15:00 PM 14.42 57.956 0.097 7.12 3.81 9.44
5/4/2022 5:30:00 PM 14.27 57.686 0.097 7.07 3.75 9.36
5/4/2022 5:45:00 PM 14.28 57.704 0.098 7.11 3.74 9.54
5/4/2022 6:00:00 PM 14.07 57.326 0.099 7.04 3.79 9.37
5/4/2022 6:15:00 PM 14.01 57.218 0.099 7.11 3.6 9.49
5/4/2022 6:30:00 PM 13.78 56.804 0.099 7.01 3.82 9.37
5/4/2022 6:45:00 PM 13.73 56.714 0.099 7.08 3.77 8.99
5/4/2022 7:00:00 PM 13.6 56.48 0.099 7.04 3.63 9.4
5/4/2022 7:15:00 PM 13.51 56.318 0.099 7.03 3.64 9.45
5/4/2022 7:30:00 PM 13.53 56.354 0.099 7.08 3.79 9.65
5/4/2022 7:45:00 PM 13.41 56.138 0.1 7.09 3.81 9.47
5/4/2022 8:00:00 PM 13.33 55.994 0.1 7.08 3.83 9.51
5/4/2022 8:15:00 PM 13.21 55.778 0.1 7.05 3.89 9.38
5/4/2022 8:30:00 PM 13.19 55.742 0.1 7.03 3.71 9.57
5/4/2022 8:45:00 PM 13.08 55.544 0.1 7.08 4.57 9.57
5/4/2022 9:00:00 PM 13.01 55.418 0.1 7.06 4 9.45
5/4/2022 9:15:00 PM 12.87 55.166 0.1 6.99 3.98 9.46
5/4/2022 9:30:00 PM 12.95 55.31 0.1 7.05 3.82 9.66
5/4/2022 9:45:00 PM 12.75 54.95 0.1 6.96 4.06 9.14
5/4/2022 10:00:00 PM 12.8 55.04 0.1 7.04 3.95 9.55
5/4/2022 10:15:00 PM 12.79 55.022 0.1 7 3.79 9.75
5/4/2022 10:30:00 PM 12.68 54.824 0.1 7 4.05 9.32
5/4/2022 10:45:00 PM 12.63 54.734 0.1 7.04 3.82 9.68
5/4/2022 11:00:00 PM 12.69 54.842 0.1 7.05 3.89 9.81
5/4/2022 11:15:00 PM 12.56 54.608 0.101 6.97 3.88 9.58
5/4/2022 11:30:00 PM 12.55 54.59 0.1 7.02 4.05 9.73
5/4/2022 11:45:00 PM 12.49 54.482 0.1 7.03 3.96 9.6
5/5/2022 12:00:00 AM 12.42 54.356 0.101 6.99 4.04 9.58
5/5/2022 12:15:00 AM 12.47 54.446 0.101 7.05 4.03 9.79
5/5/2022 12:30:00 AM 12.34 54.212 0.1 7 4.03 9.63
5/5/2022 12:45:00 AM 12.39 54.302 0.1 7.02 3.88 9.86
5/5/2022 1:00:00 AM 12.31 54.158 0.1 7.04 3.87 9.61
5/5/2022 1:15:00 AM 12.21 53.978 0.1 6.96 4.22 9.64
5/5/2022 1:30:00 AM 12.23 54.014 0.1 7.05 4.15 9.69
5/5/2022 1:45:00 AM 12.33 54.194 0.1 7.11 4.11 9.97
5/5/2022 2:00:00 AM 12.26 54.068 0.1 7.1 3.76 9.87
5/5/2022 2:15:00 AM 12.14 53.852 0.1 6.97 4.24 9.77
5/5/2022 2:30:00 AM 12.23 54.014 0.101 7.09 3.66 9.95
5/5/2022 2:45:00 AM 12.18 53.924 0.1 7.03 3.93 9.93
5/5/2022 3:00:00 AM 12.05 53.69 0.1 6.99 4.14 9.79
5/5/2022 3:15:00 AM 12.01 53.618 0.099 7 3.83 9.67
5/5/2022 3:30:00 AM 11.98 53.564 0.1 7.04 4.07 9.55
5/5/2022 3:45:00 AM 11.9 53.42 0.1 7.04 3.95 9.54
5/5/2022 4:00:00 AM 11.91 53.438 0.1 7.01 3.94 9.91
5/5/2022 4:15:00 AM 11.89 53.402 0.1 6.99 3.82 9.95
5/5/2022 4:30:00 AM 11.82 53.276 0.1 7.03 4.23 9.96
5/5/2022 4:45:00 AM 11.77 53.186 0.1 7.04 3.96 9.68
5/5/2022 5:00:00 AM 11.72 53.096 0.1 7.01 3.97 9.92
5/5/2022 5:15:00 AM 11.66 52.988 0.1 7.03 3.81 9.99
5/5/2022 5:30:00 AM 11.52 52.736 0.099 7.08 4.35 9.74
5/5/2022 5:45:00 AM 11.5 52.7 0.1 7.02 3.61 9.81
5/5/2022 6:00:00 AM 11.38 52.484 0.099 6.99 4 9.91
5/5/2022 6:15:00 AM 11.41 52.538 0.1 7.05 3.82 10.11
5/5/2022 6:30:00 AM 11.23 52.214 0.099 6.97 3.81 10
5/5/2022 6:45:00 AM 11.25 52.25 0.099 7.05 3.83 10.09
5/5/2022 7:00:00 AM 11.21 52.178 0.099 6.98 3.91 10.08
5/5/2022 7:15:00 AM 11.11 51.998 0.099 6.85 3.74 9.87
5/5/2022 7:30:00 AM 11.2 52.16 0.099 6.98 3.73 10.26
5/5/2022 7:45:00 AM 11.22 52.196 0.099 7.03 3.71 10.35
5/5/2022 8:00:00 AM 11.3 52.34 0.099 7.05 3.81 10.34
5/5/2022 8:15:00 AM 11.29 52.322 0.098 7.09 4.03 10.33
5/5/2022 8:30:00 AM 11.33 52.394 0.098 7.02 3.63 10.42
5/5/2022 8:45:00 AM 11.38 52.484 0.098 7.01 3.49 10.39
5/5/2022 9:00:00 AM 11.54 52.772 0.098 7.11 3.46 10.57
5/5/2022 9:15:00 AM 11.58 52.844 0.098 7.07 3.73 10.43
5/5/2022 9:30:00 AM 11.68 53.024 0.098 7.05 3.67 9.91
5/5/2022 9:45:00 AM 11.82 53.276 0.097 7.03 3.58 10.3
5/5/2022 10:00:00 AM 12.11 53.798 0.097 7.17 3.77 10.53
5/5/2022 10:15:00 AM 12.35 54.23 0.097 7.12 3.86 10.56
5/5/2022 10:30:00 AM 12.51 54.518 0.097 7.11 3.92 10.3
5/5/2022 10:45:00 AM 12.66 54.788 0.096 7.06 3.76 10.28
5/5/2022 11:00:00 AM 12.81 55.058 0.097 6.98 3.67 10.19
5/5/2022 11:15:00 AM 13.42 56.156 0.096 7.27 3.77 10.45
5/5/2022 11:30:00 AM 13.54 56.372 0.096 7.04 3.78 10.22
5/5/2022 11:45:00 AM 13.92 57.056 0.096 7.11 3.72 10.32
5/5/2022 12:00:00 PM 13.64 56.552 0.096 6.9 3.94 9.61
5/5/2022 12:15:00 PM 14.27 57.686 0.096 7.02 3.87 9.88
5/5/2022 12:30:00 PM 14.49 58.082 0.096 7.03 3.79 9.95
5/5/2022 12:45:00 PM 14.84 58.712 0.096 7.1 3.77 9.98
5/5/2022 1:00:00 PM 15.02 59.036 0.096 7.13 3.82 10.01
5/5/2022 1:15:00 PM 15.25 59.45 0.096 7.2 3.67 10.07
5/5/2022 1:30:00 PM 15.37 59.666 0.096 7.17 3.75 10.01
5/5/2022 1:45:00 PM 15.01 59.018 0.095 6.97 3.64 9.81
5/5/2022 2:00:00 PM 15.07 59.126 0.096 7.05 3.6 9.61
5/5/2022 2:15:00 PM 15.42 59.756 0.096 7.07 3.46 9.63
5/5/2022 2:30:00 PM 15.74 60.332 0.096 7.16 3.57 9.92
5/5/2022 2:45:00 PM 15.6 60.08 0.096 7.08 3.87 9.7
5/5/2022 3:00:00 PM 15.55 59.99 0.096 7.07 4.16 9.67
5/5/2022 3:15:00 PM 15.93 60.674 0.096 7.21 4.14 9.78
5/5/2022 3:30:00 PM 15.81 60.458 0.096 7.02 3.89 9.67
5/5/2022 3:45:00 PM 15.85 60.53 0.095 6.98 3.85 9.64
5/5/2022 4:00:00 PM 15.91 60.638 0.096 7.01 4.24 9.52
5/5/2022 4:15:00 PM 15.85 60.53 0.096 7.01 4.06 9.61
5/5/2022 4:30:00 PM 16.25 61.25 0.096 7.24 3.59 9.79
5/5/2022 4:45:00 PM 16.15 61.07 0.096 7.2 3.64 9.79
5/5/2022 5:00:00 PM 15.87 60.566 0.096 7.09 3.69 9.61
5/5/2022 5:15:00 PM 16.05 60.89 0.096 7.06 3.63 9.77
5/5/2022 5:30:00 PM 16 60.8 0.096 7.12 4 9.71
5/5/2022 5:45:00 PM 15.8 60.44 0.096 7.16 3.69 9.7
5/5/2022 6:00:00 PM 15.63 60.134 0.097 7.12 3.59 9.46
5/5/2022 6:15:00 PM 15.4 59.72 0.097 7.07 3.69 9.52
5/5/2022 6:30:00 PM 15.38 59.684 0.097 7.16 3.88 9.52
5/5/2022 6:45:00 PM 15 59 0.097 7 3.59 9.28
5/5/2022 7:00:00 PM 15.11 59.198 0.098 7.08 3.69 9.16
5/5/2022 7:15:00 PM 15.02 59.036 0.098 7.09 3.52 9.28
5/5/2022 7:30:00 PM 14.8 58.64 0.098 6.99 3.63 9.03
5/5/2022 7:45:00 PM 14.81 58.658 0.099 7.04 3.57 9.2
5/5/2022 8:00:00 PM 14.63 58.334 0.099 7.02 3.85 9.23
5/5/2022 8:15:00 PM 14.44 57.992 0.1 6.99 3.84 9.1
5/5/2022 8:30:00 PM 14.35 57.83 0.1 7.02 4.28 9.1
5/5/2022 8:45:00 PM 14.21 57.578 0.1 6.97 3.76 9.21
5/5/2022 9:00:00 PM 14.09 57.362 0.101 6.99 3.96 9.04
5/5/2022 9:15:00 PM 14.03 57.254 0.101 7 4.03 9.27
5/5/2022 9:30:00 PM 13.75 56.75 0.101 6.93 3.75 8.96
5/5/2022 9:45:00 PM 13.67 56.606 0.101 6.93 3.64 9.21
5/5/2022 10:00:00 PM 13.71 56.678 0.101 7.01 3.62 9.14
5/5/2022 10:15:00 PM 13.61 56.498 0.102 6.97 3.62 9.3
5/5/2022 10:30:00 PM 13.46 56.228 0.102 6.97 3.66 8.98
5/5/2022 10:45:00 PM 13.36 56.048 0.102 6.94 3.72 9.17
5/5/2022 11:00:00 PM 13.37 56.066 0.102 6.99 3.58 9.24
5/5/2022 11:15:00 PM 13.26 55.868 0.102 6.98 3.42 9.11
5/5/2022 11:30:00 PM 13.01 55.418 0.102 6.85 3.67 9
5/5/2022 11:45:00 PM 13.12 55.616 0.102 6.99 3.58 9.09
5/6/2022 12:00:00 AM 13.06 55.508 0.102 6.97 3.66 9.33
5/6/2022 12:15:00 AM 12.88 55.184 0.102 6.94 3.78 8.98
5/6/2022 12:30:00 AM 12.73 54.914 0.102 6.88 4.68 8.99
5/6/2022 12:45:00 AM 12.82 55.076 0.102 6.92 3.37 9.34
5/6/2022 1:00:00 AM 12.87 55.166 0.102 7.04 3.84 9.26
5/6/2022 1:15:00 AM 12.68 54.824 0.102 6.93 3.5 9.34
5/6/2022 1:30:00 AM 12.74 54.932 0.101 7 3.7 9.2
5/6/2022 1:45:00 AM 12.63 54.734 0.102 6.97 3.69 9.38
5/6/2022 2:00:00 AM 12.54 54.572 0.102 6.97 3.85 9.16
5/6/2022 2:15:00 AM 12.43 54.374 0.102 6.91 3.55 9.15
5/6/2022 2:30:00 AM 12.42 54.356 0.102 6.95 3.63 9.3
5/6/2022 2:45:00 AM 12.46 54.428 0.102 6.96 3.71 9.72
5/6/2022 3:00:00 AM 12.46 54.428 0.102 6.99 3.49 9.51
5/6/2022 3:15:00 AM 12.38 54.284 0.102 7 3.68 9.11
5/6/2022 3:30:00 AM 12.23 54.014 0.102 6.84 3.65 9.46
5/6/2022 3:45:00 AM 12.32 54.176 0.102 6.98 3.51 9.38
5/6/2022 4:00:00 AM 12.19 53.942 0.103 6.88 4.02 9.3
5/6/2022 4:15:00 AM 12.28 54.104 0.102 6.99 3.79 9.65
5/6/2022 4:30:00 AM 12.15 53.87 0.102 6.91 3.66 9.42
5/6/2022 4:45:00 AM 12.05 53.69 0.108 6.99 1.71 9.37
5/6/2022 5:00:00 AM 12.06 53.708 0.102 6.92 3.87 9.38
5/6/2022 5:15:00 AM 12.09 53.762 0.102 6.97 3.71 9.34
5/6/2022 5:30:00 AM 12.12 53.816 0.102 7.02 3.73 9.37
5/6/2022 5:45:00 AM 12.12 53.816 0.102 7 3.6 9.7
5/6/2022 6:00:00 AM 11.84 53.312 0.102 6.91 3.89 9.24
5/6/2022 6:15:00 AM 11.82 53.276 0.101 6.86 3.79 9.43
5/6/2022 6:30:00 AM 12.02 53.636 0.103 7.01 3.55 9.72
5/6/2022 6:45:00 AM 11.96 53.528 0.102 7 3.63 9.41
5/6/2022 7:00:00 AM 11.81 53.258 0.101 6.91 3.57 9.28
5/6/2022 7:15:00 AM 11.81 53.258 0.101 6.9 3.44 9.64
5/6/2022 7:30:00 AM 11.84 53.312 0.101 6.97 3.66 9.76
5/6/2022 7:45:00 AM 11.76 53.168 0.101 6.92 3.7 9.33
5/6/2022 8:00:00 AM 11.76 53.168 0.101 6.93 3.6 9.53
5/6/2022 8:15:00 AM 11.8 53.24 0.101 7.04 3.46 9.81
5/6/2022 8:30:00 AM 11.73 53.114 0.1 6.91 3.59 9.82
5/6/2022 8:45:00 AM 11.83 53.294 0.099 6.97 3.86 10.19
5/6/2022 9:00:00 AM 11.83 53.294 0.1 7.01 3.61 10.02
5/6/2022 9:15:00 AM 11.84 53.312 0.099 7.09 3.59 9.97
5/6/2022 9:30:00 AM 11.95 53.51 0.1 7.07 3.79 10.21
5/6/2022 9:45:00 AM 11.9 53.42 0.099 7.02 3.83 10.19
5/6/2022 10:00:00 AM 11.87 53.366 0.099 7.12 3.78 10.08
5/6/2022 10:15:00 AM 11.91 53.438 0.098 7.03 3.61 10.14
5/6/2022 10:30:00 AM 11.9 53.42 0.098 7.04 3.67 9.92
5/6/2022 10:45:00 AM 11.87 53.366 0.098 6.99 3.62 9.47
5/6/2022 11:00:00 AM 11.92 53.456 0.097 7.08 3.72 10.15
5/6/2022 11:15:00 AM 12.05 53.69 0.097 7.15 3.87 9.96
5/6/2022 11:30:00 AM 12.1 53.78 0.097 7.1 3.81 10.13
5/6/2022 11:45:00 AM 12.19 53.942 0.097 7.08 3.81 10.41
5/6/2022 12:00:00 PM 12.21 53.978 0.096 7.2 4.08 9.83
5/6/2022 12:15:00 PM 12.31 54.158 0.096 7.23 4.24 10.34
5/6/2022 12:30:00 PM 12.36 54.248 0.096 7.24 4.16 10.33
5/6/2022 12:45:00 PM 12.42 54.356 0.096 7.28 4.18 10.35
5/6/2022 1:00:00 PM 12.4 54.32 0.096 7.18 4.51 10.18
5/6/2022 1:15:00 PM 12.35 54.23 0.096 7.11 4.31 10.26
5/6/2022 1:30:00 PM 12.51 54.518 0.096 7.27 4.25 10.25
5/6/2022 1:45:00 PM 12.37 54.266 0.095 7.04 4.26 10.11
5/6/2022 2:00:00 PM 12.6 54.68 0.095 7.22 4.3 10.3
5/6/2022 2:15:00 PM 12.47 54.446 0.095 7.17 4.09 9.77
5/6/2022 2:30:00 PM 12.64 54.752 0.095 7.26 4.52 10.3
5/6/2022 2:45:00 PM 12.55 54.59 0.096 7.12 4.35 10.03
5/6/2022 3:00:00 PM 12.65 54.77 0.096 7.21 4.72 10.26
5/6/2022 3:15:00 PM 12.72 54.896 0.096 7.29 4.68 10.28
5/6/2022 3:30:00 PM 12.76 54.968 0.097 7.32 4.97 10.24
5/6/2022 3:45:00 PM 12.69 54.842 0.097 7.2 4.62 10.06
5/6/2022 4:00:00 PM 12.69 54.842 0.097 7.19 4.65 10.11
5/6/2022 4:15:00 PM 12.71 54.878 0.097 7.23 4.87 10.12
5/6/2022 4:30:00 PM 12.7 54.86 0.097 7.19 4.94 10
5/6/2022 4:45:00 PM 12.72 54.896 0.097 7.18 5.22 10.01
5/6/2022 5:00:00 PM 12.64 54.752 0.096 7.04 5.74 9.86
5/6/2022 5:15:00 PM 12.73 54.914 0.096 7.24 6.15 10.13
5/6/2022 5:30:00 PM 12.74 54.932 0.096 7.23 5.91 10.12
5/6/2022 5:45:00 PM 12.67 54.806 0.095 7.15 6.5 9.9
5/6/2022 6:00:00 PM 12.67 54.806 0.095 7.16 8.45 9.86
5/6/2022 6:15:00 PM 12.71 54.878 0.095 7.18 6.57 10.04
5/6/2022 6:30:00 PM 12.67 54.806 0.095 7.19 7.12 9.83
5/6/2022 6:45:00 PM 12.62 54.716 0.095 7.1 6.93 9.76
5/6/2022 7:00:00 PM 12.71 54.878 0.095 7.16 7.81 10.01
5/6/2022 7:15:00 PM 12.62 54.716 0.095 7.15 7.84 9.43
5/6/2022 7:30:00 PM 12.53 54.554 0.095 7.08 7.34 9.65
5/6/2022 7:45:00 PM 12.68 54.824 0.094 7.16 7.64 9.94
5/6/2022 8:00:00 PM 12.63 54.734 0.094 7.12 7.97 9.84
5/6/2022 8:15:00 PM 12.61 54.698 0.094 7.1 8.51 9.73
5/6/2022 8:30:00 PM 12.67 54.806 0.094 7.18 8.3 9.97
5/6/2022 8:45:00 PM 12.56 54.608 0.094 7.06 9.18 9.79
5/6/2022 9:00:00 PM 12.6 54.68 0.093 7.15 9.47 9.92
5/6/2022 9:15:00 PM 12.59 54.662 0.093 7.14 9 9.93
5/6/2022 9:30:00 PM 12.59 54.662 0.094 7.15 10.32 9.95
5/6/2022 9:45:00 PM 12.5 54.5 0.093 7.06 9.52 9.93
5/6/2022 10:00:00 PM 12.52 54.536 0.093 7.14 9.56 9.95
5/6/2022 10:15:00 PM 12.56 54.608 0.093 7.2 9.47 10.01
5/6/2022 10:30:00 PM 12.51 54.518 0.093 7.17 9.49 9.94
5/6/2022 10:45:00 PM 12.5 54.5 0.092 7.12 9.8 9.96
5/6/2022 11:00:00 PM 12.51 54.518 0.092 7.13 9.62 10.01
5/6/2022 11:15:00 PM 12.49 54.482 0.092 7.11 8.21 9.94
5/6/2022 11:30:00 PM 12.54 54.572 0.091 7.16 9.2 10.04
5/6/2022 11:45:00 PM 12.51 54.518 0.091 7.12 9.63 10
5/7/2022 12:00:00 AM 12.43 54.374 0.092 7.04 9.58 9.87
5/7/2022 12:15:00 AM 12.43 54.374 0.091 7.04 9.5 9.91
5/7/2022 12:30:00 AM 12.46 54.428 0.091 7.07 9.46 9.95
5/7/2022 12:45:00 AM 12.5 54.5 0.09 7.11 9.48 9.94
5/7/2022 1:00:00 AM 12.52 54.536 0.091 7.12 9.77 9.99
5/7/2022 1:15:00 AM 12.5 54.5 0.09 7.11 9.66 9.87
5/7/2022 1:30:00 AM 12.52 54.536 0.09 7.08 9.72 9.98
5/7/2022 1:45:00 AM 12.57 54.626 0.09 7.12 9.59 10.03
5/7/2022 2:00:00 AM 12.54 54.572 0.09 7.11 10.59 10
5/7/2022 2:15:00 AM 12.56 54.608 0.089 7.16 9.23 9.93
5/7/2022 2:30:00 AM 12.58 54.644 0.09 7.16 10.32 10.04
5/7/2022 2:45:00 AM 12.57 54.626 0.089 7.12 9.35 10.01
5/7/2022 3:00:00 AM 12.52 54.536 0.089 7.07 9.68 9.92
5/7/2022 3:15:00 AM 12.58 54.644 0.089 7.14 9.15 10.02
5/7/2022 3:30:00 AM 12.57 54.626 0.089 7.12 9.3 10
5/7/2022 3:45:00 AM 12.57 54.626 0.089 7.12 9.05 10.01
5/7/2022 4:00:00 AM 12.55 54.59 0.089 7.1 9.29 9.97
5/7/2022 4:15:00 AM 12.56 54.608 0.089 7.11 9.85 9.98
5/7/2022 4:30:00 AM 12.56 54.608 0.089 7.1 10.55 9.99
5/7/2022 4:45:00 AM 12.55 54.59 0.089 7.09 9.95 9.97
5/7/2022 5:00:00 AM 12.55 54.59 0.089 7.08 10.34 9.99
5/7/2022 5:15:00 AM 12.55 54.59 0.089 7.07 8.94 9.96
5/7/2022 5:30:00 AM 12.56 54.608 0.089 7.1 8.8 9.98
5/7/2022 5:45:00 AM 12.57 54.626 0.089 7.11 9.92 9.99
5/7/2022 6:00:00 AM 12.56 54.608 0.089 7.13 9.37 9.98
5/7/2022 6:15:00 AM 12.52 54.536 0.089 7.06 8.93 9.96
5/7/2022 6:30:00 AM 12.49 54.482 0.089 7.06 9.11 9.96
5/7/2022 6:45:00 AM 12.51 54.518 0.089 7.07 8.95 9.99
5/7/2022 7:00:00 AM 12.55 54.59 0.089 7.14 8.6 10.06
5/7/2022 7:15:00 AM 12.45 54.41 0.088 7.11 7.75 9.89
5/7/2022 7:30:00 AM 12.46 54.428 0.088 7.12 8.48 10.01
5/7/2022 7:45:00 AM 12.4 54.32 0.088 7.08 6.82 9.97
5/7/2022 8:00:00 AM 12.4 54.32 0.088 7.04 7.19 10.02
5/7/2022 8:15:00 AM 12.37 54.266 0.088 7.06 6.93 9.87
5/7/2022 8:30:00 AM 12.41 54.338 0.087 7.1 8.4 10.03
5/7/2022 8:45:00 AM 12.41 54.338 0.087 7.13 7.49 10.1
5/7/2022 9:00:00 AM 12.4 54.32 0.087 7.13 6.87 10.14
5/7/2022 9:15:00 AM 12.42 54.356 0.087 7.14 7.28 10.18
5/7/2022 9:30:00 AM 12.4 54.32 0.087 7.12 6.62 10.17
5/7/2022 9:45:00 AM 12.31 54.158 0.087 7.03 6.56 9.9
5/7/2022 10:00:00 AM 12.42 54.356 0.087 7.18 7.75 10.2
5/7/2022 10:15:00 AM 12.38 54.284 0.086 7.11 6.37 10.18